source: subversion/applications/editors/osmpedit/bus213.gpx @ 34714

Last change on this file since 34714 was 734, checked in by tpersson, 14 years ago

Initial commit of osmpedit

File size: 185.5 KB
Line 
1<?xml version="1.0"?>
2<gpx version="1.0" creator="Cetus TrackLog (Linux) 1.35 http://www.CetusGPS.dk"
3  xmlns:xsi="http://www.w3.org/2001/XMLSchema-instance"
4  xmlns="http://www.cetusgps.dk/gpx/1.0"
5  xsi:schemaLocation="http://www.cetusgps.dk/gpx/1.0
6  http://www.cetusgps.dk/gpx/1.0/gpx.xsd">
7<trk>
8  <desc>213</desc>
9  <trkseg>
10    <trkpt lat="58.4066467" lon="15.5597383"><ele>85.00</ele><time>2005-11-27T09:36:43.000Z</time><course>41.6</course><speed>0.1</speed><fix>3d</fix><sat>8</sat><hdop>1.1</hdop></trkpt>
11    <trkpt lat="58.4066467" lon="15.5597400"><ele>85.00</ele><time>2005-11-27T09:36:44.000Z</time><course>44.1</course><speed>0.1</speed><fix>3d</fix><sat>8</sat><hdop>1.1</hdop></trkpt>
12    <trkpt lat="58.4066433" lon="15.5597400"><ele>84.80</ele><time>2005-11-27T09:36:45.000Z</time><course>60.9</course><speed>0.1</speed><fix>3d</fix><sat>9</sat><hdop>0.9</hdop></trkpt>
13    <trkpt lat="58.4066400" lon="15.5597383"><ele>84.60</ele><time>2005-11-27T09:36:46.000Z</time><course>52.6</course><speed>0.1</speed><fix>3d</fix><sat>9</sat><hdop>0.9</hdop></trkpt>
14    <trkpt lat="58.4066383" lon="15.5597367"><ele>84.50</ele><time>2005-11-27T09:36:47.000Z</time><course>83.5</course><speed>0</speed><fix>3d</fix><sat>9</sat><hdop>0.9</hdop></trkpt>
15    <trkpt lat="58.4066383" lon="15.5597367"><ele>84.30</ele><time>2005-11-27T09:36:48.000Z</time><course>358.7</course><speed>0.4</speed><fix>3d</fix><sat>9</sat><hdop>0.9</hdop></trkpt>
16    <trkpt lat="58.4066383" lon="15.5597367"><ele>83.90</ele><time>2005-11-27T09:36:49.000Z</time><course>22.5</course><speed>0.2</speed><fix>3d</fix><sat>9</sat><hdop>0.9</hdop></trkpt>
17    <trkpt lat="58.4066417" lon="15.5597417"><ele>83.90</ele><time>2005-11-27T09:36:50.000Z</time><course>41.4</course><speed>0.6</speed><fix>3d</fix><sat>9</sat><hdop>0.9</hdop></trkpt>
18    <trkpt lat="58.4066417" lon="15.5597433"><ele>83.80</ele><time>2005-11-27T09:36:51.000Z</time><course>41.4</course><speed>0.6</speed><fix>3d</fix><sat>9</sat><hdop>0.9</hdop></trkpt>
19    <trkpt lat="58.4066417" lon="15.5597433"><ele>83.80</ele><time>2005-11-27T09:36:52.000Z</time><course>90.1</course><speed>0.2</speed><fix>3d</fix><sat>9</sat><hdop>0.9</hdop></trkpt>
20    <trkpt lat="58.4066400" lon="15.5597467"><ele>83.50</ele><time>2005-11-27T09:36:53.000Z</time><course>175.0</course><speed>0.5</speed><fix>3d</fix><sat>9</sat><hdop>0.9</hdop></trkpt>
21    <trkpt lat="58.4066417" lon="15.5597533"><ele>83.30</ele><time>2005-11-27T09:36:54.000Z</time><course>175.0</course><speed>0.5</speed><fix>3d</fix><sat>9</sat><hdop>0.9</hdop></trkpt>
22    <trkpt lat="58.4066450" lon="15.5597633"><ele>83.00</ele><time>2005-11-27T09:36:55.000Z</time><course>42.6</course><speed>0.5</speed><fix>3d</fix><sat>9</sat><hdop>0.9</hdop></trkpt>
23    <trkpt lat="58.4066517" lon="15.5597717"><ele>82.60</ele><time>2005-11-27T09:36:56.000Z</time><course>42.6</course><speed>0.5</speed><fix>3d</fix><sat>9</sat><hdop>0.9</hdop></trkpt>
24    <trkpt lat="58.4066550" lon="15.5597833"><ele>82.50</ele><time>2005-11-27T09:36:57.000Z</time><course>88.0</course><speed>0.5</speed><fix>3d</fix><sat>9</sat><hdop>0.9</hdop></trkpt>
25    <trkpt lat="58.4066567" lon="15.5597950"><ele>81.70</ele><time>2005-11-27T09:36:58.000Z</time><course>113.2</course><speed>0.3</speed><fix>3d</fix><sat>9</sat><hdop>0.9</hdop></trkpt>
26    <trkpt lat="58.4066583" lon="15.5598033"><ele>81.90</ele><time>2005-11-27T09:36:59.000Z</time><course>14.8</course><speed>0.1</speed><fix>3d</fix><sat>9</sat><hdop>0.9</hdop></trkpt>
27    <trkpt lat="58.4066600" lon="15.5598117"><ele>82.10</ele><time>2005-11-27T09:37:00.000Z</time><course>146.9</course><speed>0.2</speed><fix>3d</fix><sat>9</sat><hdop>0.9</hdop></trkpt>
28    <trkpt lat="58.4066600" lon="15.5598183"><ele>82.40</ele><time>2005-11-27T09:37:01.000Z</time><course>132.6</course><speed>0.1</speed><fix>3d</fix><sat>9</sat><hdop>0.9</hdop></trkpt>
29    <trkpt lat="58.4066583" lon="15.5598233"><ele>82.80</ele><time>2005-11-27T09:37:02.000Z</time><course>165.8</course><speed>0.2</speed><fix>3d</fix><sat>9</sat><hdop>0.9</hdop></trkpt>
30    <trkpt lat="58.4066583" lon="15.5598283"><ele>83.20</ele><time>2005-11-27T09:37:03.000Z</time><course>41.1</course><speed>0.2</speed><fix>3d</fix><sat>9</sat><hdop>0.9</hdop></trkpt>
31    <trkpt lat="58.4066567" lon="15.5598417"><ele>83.80</ele><time>2005-11-27T09:37:04.000Z</time><course>23.5</course><speed>0.2</speed><fix>3d</fix><sat>9</sat><hdop>0.9</hdop></trkpt>
32    <trkpt lat="58.4066633" lon="15.5598617"><ele>85.80</ele><time>2005-11-27T09:37:05.000Z</time><course>25.2</course><speed>0.2</speed><fix>3d</fix><sat>9</sat><hdop>0.9</hdop></trkpt>
33    <trkpt lat="58.4066667" lon="15.5598783"><ele>87.60</ele><time>2005-11-27T09:37:06.000Z</time><course>5.6</course><speed>0.2</speed><fix>3d</fix><sat>9</sat><hdop>0.9</hdop></trkpt>
34    <trkpt lat="58.4066700" lon="15.5598917"><ele>88.70</ele><time>2005-11-27T09:37:07.000Z</time><course>48.3</course><speed>0.2</speed><fix>3d</fix><sat>9</sat><hdop>0.9</hdop></trkpt>
35    <trkpt lat="58.4066700" lon="15.5599050"><ele>89.50</ele><time>2005-11-27T09:37:08.000Z</time><course>49.0</course><speed>0.2</speed><fix>3d</fix><sat>9</sat><hdop>0.9</hdop></trkpt>
36    <trkpt lat="58.4066667" lon="15.5599083"><ele>89.30</ele><time>2005-11-27T09:37:09.000Z</time><course>18.7</course><speed>0.2</speed><fix>3d</fix><sat>9</sat><hdop>0.9</hdop></trkpt>
37    <trkpt lat="58.4066633" lon="15.5599083"><ele>89.20</ele><time>2005-11-27T09:37:10.000Z</time><course>149.9</course><speed>0</speed><fix>3d</fix><sat>9</sat><hdop>0.9</hdop></trkpt>
38    <trkpt lat="58.4066600" lon="15.5599117"><ele>89.30</ele><time>2005-11-27T09:37:11.000Z</time><course>65.0</course><speed>0.2</speed><fix>3d</fix><sat>9</sat><hdop>0.9</hdop></trkpt>
39    <trkpt lat="58.4066567" lon="15.5599117"><ele>89.10</ele><time>2005-11-27T09:37:12.000Z</time><course>32.0</course><speed>0.3</speed><fix>3d</fix><sat>9</sat><hdop>0.9</hdop></trkpt>
40    <trkpt lat="58.4066550" lon="15.5599117"><ele>88.70</ele><time>2005-11-27T09:37:13.000Z</time><course>0.9</course><speed>0.1</speed><fix>3d</fix><sat>9</sat><hdop>0.9</hdop></trkpt>
41    <trkpt lat="58.4066550" lon="15.5599133"><ele>88.40</ele><time>2005-11-27T09:37:14.000Z</time><course>46.5</course><speed>0.2</speed><fix>3d</fix><sat>9</sat><hdop>0.9</hdop></trkpt>
42    <trkpt lat="58.4066550" lon="15.5599150"><ele>88.00</ele><time>2005-11-27T09:37:15.000Z</time><course>21.5</course><speed>0.3</speed><fix>3d</fix><sat>9</sat><hdop>0.9</hdop></trkpt>
43    <trkpt lat="58.4066583" lon="15.5599167"><ele>87.70</ele><time>2005-11-27T09:37:16.000Z</time><course>254.8</course><speed>0.3</speed><fix>3d</fix><sat>9</sat><hdop>0.9</hdop></trkpt>
44    <trkpt lat="58.4066600" lon="15.5599117"><ele>87.30</ele><time>2005-11-27T09:37:17.000Z</time><course>302.2</course><speed>0.4</speed><fix>3d</fix><sat>9</sat><hdop>0.9</hdop></trkpt>
45    <trkpt lat="58.4066600" lon="15.5599017"><ele>86.60</ele><time>2005-11-27T09:37:18.000Z</time><course>275.1</course><speed>0.5</speed><fix>3d</fix><sat>9</sat><hdop>0.9</hdop></trkpt>
46    <trkpt lat="58.4066567" lon="15.5598900"><ele>86.40</ele><time>2005-11-27T09:37:19.000Z</time><course>234.7</course><speed>0.7</speed><fix>3d</fix><sat>9</sat><hdop>0.9</hdop></trkpt>
47    <trkpt lat="58.4066550" lon="15.5598833"><ele>86.10</ele><time>2005-11-27T09:37:20.000Z</time><course>270.7</course><speed>0.3</speed><fix>3d</fix><sat>9</sat><hdop>0.9</hdop></trkpt>
48    <trkpt lat="58.4066517" lon="15.5598733"><ele>85.90</ele><time>2005-11-27T09:37:21.000Z</time><course>244.7</course><speed>0.4</speed><fix>3d</fix><sat>9</sat><hdop>0.9</hdop></trkpt>
49    <trkpt lat="58.4066533" lon="15.5598650"><ele>85.50</ele><time>2005-11-27T09:37:22.000Z</time><course>346.3</course><speed>0.7</speed><fix>3d</fix><sat>9</sat><hdop>0.9</hdop></trkpt>
50    <trkpt lat="58.4066567" lon="15.5598600"><ele>85.20</ele><time>2005-11-27T09:37:23.000Z</time><course>8.2</course><speed>0.6</speed><fix>3d</fix><sat>9</sat><hdop>0.9</hdop></trkpt>
51    <trkpt lat="58.4066583" lon="15.5598500"><ele>84.60</ele><time>2005-11-27T09:37:24.000Z</time><course>305.7</course><speed>0.7</speed><fix>3d</fix><sat>9</sat><hdop>0.9</hdop></trkpt>
52    <trkpt lat="58.4066583" lon="15.5598417"><ele>83.90</ele><time>2005-11-27T09:37:25.000Z</time><course>27.7</course><speed>0.3</speed><fix>3d</fix><sat>9</sat><hdop>0.9</hdop></trkpt>
53    <trkpt lat="58.4066567" lon="15.5598350"><ele>83.20</ele><time>2005-11-27T09:37:26.000Z</time><course>256.1</course><speed>0.5</speed><fix>3d</fix><sat>9</sat><hdop>0.9</hdop></trkpt>
54    <trkpt lat="58.4066517" lon="15.5598250"><ele>83.10</ele><time>2005-11-27T09:37:27.000Z</time><course>224.5</course><speed>0.3</speed><fix>3d</fix><sat>9</sat><hdop>0.9</hdop></trkpt>
55    <trkpt lat="58.4066483" lon="15.5598217"><ele>83.00</ele><time>2005-11-27T09:37:28.000Z</time><course>225.0</course><speed>0.3</speed><fix>3d</fix><sat>9</sat><hdop>0.9</hdop></trkpt>
56    <trkpt lat="58.4066450" lon="15.5598133"><ele>82.50</ele><time>2005-11-27T09:37:29.000Z</time><course>243.8</course><speed>0.1</speed><fix>3d</fix><sat>9</sat><hdop>0.9</hdop></trkpt>
57    <trkpt lat="58.4066433" lon="15.5598033"><ele>81.50</ele><time>2005-11-27T09:37:30.000Z</time><course>292.7</course><speed>0.2</speed><fix>3d</fix><sat>9</sat><hdop>0.9</hdop></trkpt>
58    <trkpt lat="58.4066433" lon="15.5597900"><ele>79.90</ele><time>2005-11-27T09:37:31.000Z</time><course>10.7</course><speed>0.1</speed><fix>3d</fix><sat>9</sat><hdop>0.9</hdop></trkpt>
59    <trkpt lat="58.4066433" lon="15.5597800"><ele>78.40</ele><time>2005-11-27T09:37:32.000Z</time><course>201.9</course><speed>0.2</speed><fix>3d</fix><sat>9</sat><hdop>0.9</hdop></trkpt>
60    <trkpt lat="58.4066433" lon="15.5597717"><ele>77.10</ele><time>2005-11-27T09:37:33.000Z</time><course>321.6</course><speed>0.1</speed><fix>3d</fix><sat>9</sat><hdop>0.9</hdop></trkpt>
61    <trkpt lat="58.4066433" lon="15.5597633"><ele>75.90</ele><time>2005-11-27T09:37:34.000Z</time><course>319.0</course><speed>0.1</speed><fix>3d</fix><sat>9</sat><hdop>0.9</hdop></trkpt>
62    <trkpt lat="58.4066450" lon="15.5597583"><ele>74.90</ele><time>2005-11-27T09:37:35.000Z</time><course>355.6</course><speed>0.1</speed><fix>3d</fix><sat>9</sat><hdop>0.9</hdop></trkpt>
63    <trkpt lat="58.4066450" lon="15.5597533"><ele>74.00</ele><time>2005-11-27T09:37:36.000Z</time><course>16.2</course><speed>0.1</speed><fix>3d</fix><sat>9</sat><hdop>0.9</hdop></trkpt>
64    <trkpt lat="58.4066500" lon="15.5597533"><ele>73.30</ele><time>2005-11-27T09:37:37.000Z</time><course>42.2</course><speed>0.8</speed><fix>3d</fix><sat>9</sat><hdop>0.9</hdop></trkpt>
65    <trkpt lat="58.4066600" lon="15.5597667"><ele>72.70</ele><time>2005-11-27T09:37:38.000Z</time><course>42.6</course><speed>1.7</speed><fix>3d</fix><sat>9</sat><hdop>0.9</hdop></trkpt>
66    <trkpt lat="58.4066783" lon="15.5597933"><ele>72.20</ele><time>2005-11-27T09:37:39.000Z</time><course>40.6</course><speed>3.0</speed><fix>3d</fix><sat>9</sat><hdop>0.9</hdop></trkpt>
67    <trkpt lat="58.4067050" lon="15.5598267"><ele>71.20</ele><time>2005-11-27T09:37:40.000Z</time><course>38.4</course><speed>4.0</speed><fix>3d</fix><sat>9</sat><hdop>0.9</hdop></trkpt>
68    <trkpt lat="58.4067383" lon="15.5598700"><ele>70.00</ele><time>2005-11-27T09:37:41.000Z</time><course>37.1</course><speed>5.5</speed><fix>3d</fix><sat>9</sat><hdop>0.9</hdop></trkpt>
69    <trkpt lat="58.4067800" lon="15.5599283"><ele>69.20</ele><time>2005-11-27T09:37:42.000Z</time><course>38.9</course><speed>6.1</speed><fix>3d</fix><sat>9</sat><hdop>0.9</hdop></trkpt>
70    <trkpt lat="58.4068250" lon="15.5600017"><ele>68.80</ele><time>2005-11-27T09:37:43.000Z</time><course>41.4</course><speed>6.9</speed><fix>3d</fix><sat>9</sat><hdop>0.9</hdop></trkpt>
71    <trkpt lat="58.4068750" lon="15.5600867"><ele>68.20</ele><time>2005-11-27T09:37:44.000Z</time><course>43.6</course><speed>7.9</speed><fix>3d</fix><sat>9</sat><hdop>0.9</hdop></trkpt>
72    <trkpt lat="58.4069283" lon="15.5601867"><ele>67.70</ele><time>2005-11-27T09:37:45.000Z</time><course>44.3</course><speed>8.6</speed><fix>3d</fix><sat>9</sat><hdop>0.9</hdop></trkpt>
73    <trkpt lat="58.4069850" lon="15.5602967"><ele>67.10</ele><time>2005-11-27T09:37:46.000Z</time><course>45.7</course><speed>9.3</speed><fix>3d</fix><sat>9</sat><hdop>0.9</hdop></trkpt>
74    <trkpt lat="58.4070467" lon="15.5604150"><ele>66.50</ele><time>2005-11-27T09:37:47.000Z</time><course>45.9</course><speed>9.8</speed><fix>3d</fix><sat>9</sat><hdop>0.9</hdop></trkpt>
75    <trkpt lat="58.4071083" lon="15.5605383"><ele>66.10</ele><time>2005-11-27T09:37:48.000Z</time><course>45.9</course><speed>9.8</speed><fix>3d</fix><sat>9</sat><hdop>0.9</hdop></trkpt>
76    <trkpt lat="58.4071700" lon="15.5606700"><ele>65.40</ele><time>2005-11-27T09:37:49.000Z</time><course>49.5</course><speed>10.3</speed><fix>3d</fix><sat>9</sat><hdop>0.9</hdop></trkpt>
77    <trkpt lat="58.4072317" lon="15.5608083"><ele>65.00</ele><time>2005-11-27T09:37:50.000Z</time><course>50.3</course><speed>10.5</speed><fix>3d</fix><sat>9</sat><hdop>0.9</hdop></trkpt>
78    <trkpt lat="58.4072950" lon="15.5609533"><ele>64.60</ele><time>2005-11-27T09:37:51.000Z</time><course>50.9</course><speed>10.8</speed><fix>3d</fix><sat>9</sat><hdop>0.9</hdop></trkpt>
79    <trkpt lat="58.4073567" lon="15.5611017"><ele>64.40</ele><time>2005-11-27T09:37:52.000Z</time><course>52.1</course><speed>11.1</speed><fix>3d</fix><sat>9</sat><hdop>0.9</hdop></trkpt>
80    <trkpt lat="58.4074183" lon="15.5612583"><ele>64.20</ele><time>2005-11-27T09:37:53.000Z</time><course>53.4</course><speed>11.2</speed><fix>3d</fix><sat>9</sat><hdop>0.9</hdop></trkpt>
81    <trkpt lat="58.4074783" lon="15.5614167"><ele>64.00</ele><time>2005-11-27T09:37:54.000Z</time><course>53.9</course><speed>11.3</speed><fix>3d</fix><sat>9</sat><hdop>0.9</hdop></trkpt>
82    <trkpt lat="58.4075350" lon="15.5615800"><ele>63.90</ele><time>2005-11-27T09:37:55.000Z</time><course>56.2</course><speed>11.2</speed><fix>3d</fix><sat>9</sat><hdop>0.9</hdop></trkpt>
83    <trkpt lat="58.4075917" lon="15.5617433"><ele>64.10</ele><time>2005-11-27T09:37:56.000Z</time><course>57.2</course><speed>11.0</speed><fix>3d</fix><sat>9</sat><hdop>0.9</hdop></trkpt>
84    <trkpt lat="58.4076450" lon="15.5619067"><ele>64.30</ele><time>2005-11-27T09:37:57.000Z</time><course>57.8</course><speed>11.0</speed><fix>3d</fix><sat>9</sat><hdop>0.9</hdop></trkpt>
85    <trkpt lat="58.4076950" lon="15.5620700"><ele>63.80</ele><time>2005-11-27T09:37:58.000Z</time><course>59.9</course><speed>10.9</speed><fix>3d</fix><sat>9</sat><hdop>0.9</hdop></trkpt>
86    <trkpt lat="58.4077450" lon="15.5622383"><ele>63.80</ele><time>2005-11-27T09:37:59.000Z</time><course>61.1</course><speed>11.3</speed><fix>3d</fix><sat>9</sat><hdop>0.9</hdop></trkpt>
87    <trkpt lat="58.4077883" lon="15.5624100"><ele>63.50</ele><time>2005-11-27T09:38:00.000Z</time><course>64.2</course><speed>11.3</speed><fix>3d</fix><sat>9</sat><hdop>0.9</hdop></trkpt>
88    <trkpt lat="58.4078300" lon="15.5625833"><ele>63.10</ele><time>2005-11-27T09:38:01.000Z</time><course>66.7</course><speed>11.1</speed><fix>3d</fix><sat>8</sat><hdop>1.0</hdop></trkpt>
89    <trkpt lat="58.4078667" lon="15.5627500"><ele>62.40</ele><time>2005-11-27T09:38:02.000Z</time><course>65.6</course><speed>10.2</speed><fix>3d</fix><sat>9</sat><hdop>0.9</hdop></trkpt>
90    <trkpt lat="58.4079083" lon="15.5629200"><ele>62.50</ele><time>2005-11-27T09:38:03.000Z</time><course>64.5</course><speed>10.9</speed><fix>3d</fix><sat>9</sat><hdop>0.9</hdop></trkpt>
91    <trkpt lat="58.4079517" lon="15.5630917"><ele>62.40</ele><time>2005-11-27T09:38:04.000Z</time><course>64.5</course><speed>11.0</speed><fix>3d</fix><sat>9</sat><hdop>0.9</hdop></trkpt>
92    <trkpt lat="58.4079950" lon="15.5632633"><ele>63.00</ele><time>2005-11-27T09:38:05.000Z</time><course>64.1</course><speed>10.9</speed><fix>3d</fix><sat>9</sat><hdop>0.9</hdop></trkpt>
93    <trkpt lat="58.4080367" lon="15.5634333"><ele>63.50</ele><time>2005-11-27T09:38:06.000Z</time><course>63.7</course><speed>10.7</speed><fix>3d</fix><sat>9</sat><hdop>0.9</hdop></trkpt>
94    <trkpt lat="58.4080750" lon="15.5635983"><ele>63.90</ele><time>2005-11-27T09:38:07.000Z</time><course>64.3</course><speed>10.4</speed><fix>3d</fix><sat>9</sat><hdop>0.9</hdop></trkpt>
95    <trkpt lat="58.4081133" lon="15.5637533"><ele>65.30</ele><time>2005-11-27T09:38:08.000Z</time><course>65.3</course><speed>9.7</speed><fix>3d</fix><sat>9</sat><hdop>0.9</hdop></trkpt>
96    <trkpt lat="58.4081483" lon="15.5638950"><ele>66.40</ele><time>2005-11-27T09:38:09.000Z</time><course>64.9</course><speed>8.8</speed><fix>3d</fix><sat>9</sat><hdop>0.9</hdop></trkpt>
97    <trkpt lat="58.4081767" lon="15.5640233"><ele>67.00</ele><time>2005-11-27T09:38:10.000Z</time><course>66.3</course><speed>7.8</speed><fix>3d</fix><sat>9</sat><hdop>0.9</hdop></trkpt>
98    <trkpt lat="58.4082017" lon="15.5641300"><ele>68.00</ele><time>2005-11-27T09:38:11.000Z</time><course>66.3</course><speed>6.2</speed><fix>3d</fix><sat>9</sat><hdop>0.9</hdop></trkpt>
99    <trkpt lat="58.4082183" lon="15.5642167"><ele>68.50</ele><time>2005-11-27T09:38:12.000Z</time><course>70.4</course><speed>5.2</speed><fix>3d</fix><sat>9</sat><hdop>0.9</hdop></trkpt>
100    <trkpt lat="58.4082267" lon="15.5642967"><ele>68.80</ele><time>2005-11-27T09:38:13.000Z</time><course>79.6</course><speed>4.7</speed><fix>3d</fix><sat>9</sat><hdop>0.9</hdop></trkpt>
101    <trkpt lat="58.4082300" lon="15.5643750"><ele>69.30</ele><time>2005-11-27T09:38:14.000Z</time><course>87.7</course><speed>4.8</speed><fix>3d</fix><sat>9</sat><hdop>0.9</hdop></trkpt>
102    <trkpt lat="58.4082250" lon="15.5644567"><ele>69.90</ele><time>2005-11-27T09:38:15.000Z</time><course>105.0</course><speed>4.8</speed><fix>3d</fix><sat>9</sat><hdop>0.9</hdop></trkpt>
103    <trkpt lat="58.4082067" lon="15.5645367"><ele>70.40</ele><time>2005-11-27T09:38:16.000Z</time><course>119.9</course><speed>5.0</speed><fix>3d</fix><sat>9</sat><hdop>0.9</hdop></trkpt>
104    <trkpt lat="58.4081783" lon="15.5646083"><ele>71.00</ele><time>2005-11-27T09:38:17.000Z</time><course>131.7</course><speed>5.2</speed><fix>3d</fix><sat>9</sat><hdop>0.9</hdop></trkpt>
105    <trkpt lat="58.4081433" lon="15.5646683"><ele>71.40</ele><time>2005-11-27T09:38:18.000Z</time><course>144.0</course><speed>5.3</speed><fix>3d</fix><sat>9</sat><hdop>0.9</hdop></trkpt>
106    <trkpt lat="58.4081000" lon="15.5647133"><ele>71.80</ele><time>2005-11-27T09:38:19.000Z</time><course>156.3</course><speed>5.5</speed><fix>3d</fix><sat>9</sat><hdop>0.9</hdop></trkpt>
107    <trkpt lat="58.4080550" lon="15.5647483"><ele>72.30</ele><time>2005-11-27T09:38:20.000Z</time><course>160.2</course><speed>5.2</speed><fix>3d</fix><sat>9</sat><hdop>0.9</hdop></trkpt>
108    <trkpt lat="58.4080133" lon="15.5647783"><ele>73.00</ele><time>2005-11-27T09:38:21.000Z</time><course>162.6</course><speed>4.9</speed><fix>3d</fix><sat>9</sat><hdop>0.9</hdop></trkpt>
109    <trkpt lat="58.4079733" lon="15.5648050"><ele>73.90</ele><time>2005-11-27T09:38:22.000Z</time><course>160.2</course><speed>4.4</speed><fix>3d</fix><sat>9</sat><hdop>0.9</hdop></trkpt>
110    <trkpt lat="58.4079417" lon="15.5648350"><ele>75.20</ele><time>2005-11-27T09:38:23.000Z</time><course>156.8</course><speed>3.9</speed><fix>3d</fix><sat>9</sat><hdop>0.9</hdop></trkpt>
111    <trkpt lat="58.4079133" lon="15.5648583"><ele>75.90</ele><time>2005-11-27T09:38:24.000Z</time><course>155.3</course><speed>3.0</speed><fix>3d</fix><sat>9</sat><hdop>0.9</hdop></trkpt>
112    <trkpt lat="58.4078950" lon="15.5648783"><ele>76.80</ele><time>2005-11-27T09:38:25.000Z</time><course>151.5</course><speed>1.6</speed><fix>3d</fix><sat>9</sat><hdop>0.9</hdop></trkpt>
113    <trkpt lat="58.4078833" lon="15.5648917"><ele>77.00</ele><time>2005-11-27T09:38:26.000Z</time><course>121.6</course><speed>0.3</speed><fix>3d</fix><sat>9</sat><hdop>0.9</hdop></trkpt>
114    <trkpt lat="58.4078767" lon="15.5648983"><ele>77.20</ele><time>2005-11-27T09:38:27.000Z</time><course>44.7</course><speed>0.1</speed><fix>3d</fix><sat>9</sat><hdop>0.9</hdop></trkpt>
115    <trkpt lat="58.4078717" lon="15.5649067"><ele>77.40</ele><time>2005-11-27T09:38:28.000Z</time><course>31.4</course><speed>0.2</speed><fix>3d</fix><sat>9</sat><hdop>0.9</hdop></trkpt>
116    <trkpt lat="58.4078667" lon="15.5649133"><ele>77.70</ele><time>2005-11-27T09:38:29.000Z</time><course>107.9</course><speed>0.1</speed><fix>3d</fix><sat>9</sat><hdop>0.9</hdop></trkpt>
117    <trkpt lat="58.4078600" lon="15.5649233"><ele>77.40</ele><time>2005-11-27T09:38:30.000Z</time><course>17.1</course><speed>0.2</speed><fix>3d</fix><sat>9</sat><hdop>0.9</hdop></trkpt>
118    <trkpt lat="58.4078550" lon="15.5649300"><ele>78.00</ele><time>2005-11-27T09:38:31.000Z</time><course>75.7</course><speed>0.2</speed><fix>3d</fix><sat>9</sat><hdop>0.9</hdop></trkpt>
119    <trkpt lat="58.4078517" lon="15.5649367"><ele>78.40</ele><time>2005-11-27T09:38:32.000Z</time><course>73.0</course><speed>0.1</speed><fix>3d</fix><sat>9</sat><hdop>0.9</hdop></trkpt>
120    <trkpt lat="58.4078483" lon="15.5649433"><ele>78.70</ele><time>2005-11-27T09:38:33.000Z</time><course>104.6</course><speed>0.2</speed><fix>3d</fix><sat>9</sat><hdop>0.9</hdop></trkpt>
121    <trkpt lat="58.4078450" lon="15.5649483"><ele>78.90</ele><time>2005-11-27T09:38:34.000Z</time><course>34.4</course><speed>0.1</speed><fix>3d</fix><sat>9</sat><hdop>0.9</hdop></trkpt>
122    <trkpt lat="58.4078417" lon="15.5649517"><ele>79.10</ele><time>2005-11-27T09:38:35.000Z</time><course>54.7</course><speed>0.1</speed><fix>3d</fix><sat>9</sat><hdop>0.9</hdop></trkpt>
123    <trkpt lat="58.4078383" lon="15.5649567"><ele>79.30</ele><time>2005-11-27T09:38:36.000Z</time><course>58.1</course><speed>0.1</speed><fix>3d</fix><sat>9</sat><hdop>0.9</hdop></trkpt>
124    <trkpt lat="58.4078367" lon="15.5649600"><ele>79.30</ele><time>2005-11-27T09:38:37.000Z</time><course>18.3</course><speed>0.1</speed><fix>3d</fix><sat>9</sat><hdop>0.9</hdop></trkpt>
125    <trkpt lat="58.4078350" lon="15.5649617"><ele>79.20</ele><time>2005-11-27T09:38:38.000Z</time><course>73.1</course><speed>0.1</speed><fix>3d</fix><sat>9</sat><hdop>0.9</hdop></trkpt>
126    <trkpt lat="58.4078333" lon="15.5649633"><ele>79.20</ele><time>2005-11-27T09:38:39.000Z</time><course>41.7</course><speed>0.1</speed><fix>3d</fix><sat>9</sat><hdop>0.9</hdop></trkpt>
127    <trkpt lat="58.4078333" lon="15.5649650"><ele>79.00</ele><time>2005-11-27T09:38:40.000Z</time><course>30.3</course><speed>0.1</speed><fix>3d</fix><sat>9</sat><hdop>0.9</hdop></trkpt>
128    <trkpt lat="58.4078333" lon="15.5649667"><ele>79.00</ele><time>2005-11-27T09:38:41.000Z</time><course>0.5</course><speed>0.1</speed><fix>3d</fix><sat>9</sat><hdop>0.9</hdop></trkpt>
129    <trkpt lat="58.4078333" lon="15.5649683"><ele>78.90</ele><time>2005-11-27T09:38:42.000Z</time><course>82.6</course><speed>0.1</speed><fix>3d</fix><sat>9</sat><hdop>0.9</hdop></trkpt>
130    <trkpt lat="58.4078333" lon="15.5649700"><ele>78.90</ele><time>2005-11-27T09:38:43.000Z</time><course>67.1</course><speed>0.2</speed><fix>3d</fix><sat>9</sat><hdop>0.9</hdop></trkpt>
131    <trkpt lat="58.4078350" lon="15.5649717"><ele>78.80</ele><time>2005-11-27T09:38:44.000Z</time><course>75.7</course><speed>0.1</speed><fix>3d</fix><sat>9</sat><hdop>0.9</hdop></trkpt>
132    <trkpt lat="58.4078367" lon="15.5649750"><ele>79.00</ele><time>2005-11-27T09:38:45.000Z</time><course>27.4</course><speed>0.1</speed><fix>3d</fix><sat>9</sat><hdop>0.9</hdop></trkpt>
133    <trkpt lat="58.4078383" lon="15.5649767"><ele>79.20</ele><time>2005-11-27T09:38:46.000Z</time><course>14.4</course><speed>0.1</speed><fix>3d</fix><sat>9</sat><hdop>0.9</hdop></trkpt>
134    <trkpt lat="58.4078383" lon="15.5649783"><ele>79.40</ele><time>2005-11-27T09:38:47.000Z</time><course>359.2</course><speed>0.2</speed><fix>3d</fix><sat>9</sat><hdop>0.9</hdop></trkpt>
135    <trkpt lat="58.4078400" lon="15.5649800"><ele>79.40</ele><time>2005-11-27T09:38:48.000Z</time><course>47.9</course><speed>0.1</speed><fix>3d</fix><sat>9</sat><hdop>0.9</hdop></trkpt>
136    <trkpt lat="58.4078400" lon="15.5649800"><ele>79.30</ele><time>2005-11-27T09:38:49.000Z</time><course>94.5</course><speed>0.1</speed><fix>3d</fix><sat>9</sat><hdop>0.9</hdop></trkpt>
137    <trkpt lat="58.4078417" lon="15.5649783"><ele>78.80</ele><time>2005-11-27T09:38:50.000Z</time><course>55.1</course><speed>0.1</speed><fix>3d</fix><sat>9</sat><hdop>0.9</hdop></trkpt>
138    <trkpt lat="58.4078450" lon="15.5649783"><ele>78.70</ele><time>2005-11-27T09:38:51.000Z</time><course>81.0</course><speed>0.1</speed><fix>3d</fix><sat>9</sat><hdop>0.9</hdop></trkpt>
139    <trkpt lat="58.4078483" lon="15.5649800"><ele>78.80</ele><time>2005-11-27T09:38:52.000Z</time><course>30.9</course><speed>0.1</speed><fix>3d</fix><sat>9</sat><hdop>0.9</hdop></trkpt>
140    <trkpt lat="58.4078500" lon="15.5649800"><ele>78.80</ele><time>2005-11-27T09:38:53.000Z</time><course>272.3</course><speed>0.1</speed><fix>3d</fix><sat>9</sat><hdop>1.0</hdop></trkpt>
141    <trkpt lat="58.4078517" lon="15.5649817"><ele>79.00</ele><time>2005-11-27T09:38:54.000Z</time><course>65.0</course><speed>0.1</speed><fix>3d</fix><sat>9</sat><hdop>1.0</hdop></trkpt>
142    <trkpt lat="58.4078550" lon="15.5649817"><ele>79.20</ele><time>2005-11-27T09:38:55.000Z</time><course>348.6</course><speed>0.1</speed><fix>3d</fix><sat>9</sat><hdop>1.0</hdop></trkpt>
143    <trkpt lat="58.4078567" lon="15.5649833"><ele>79.40</ele><time>2005-11-27T09:38:56.000Z</time><course>4.2</course><speed>0.2</speed><fix>3d</fix><sat>9</sat><hdop>1.0</hdop></trkpt>
144    <trkpt lat="58.4078617" lon="15.5649817"><ele>79.80</ele><time>2005-11-27T09:38:57.000Z</time><course>350.5</course><speed>0.2</speed><fix>3d</fix><sat>9</sat><hdop>1.0</hdop></trkpt>
145    <trkpt lat="58.4078633" lon="15.5649817"><ele>80.30</ele><time>2005-11-27T09:38:58.000Z</time><course>29.1</course><speed>0.1</speed><fix>3d</fix><sat>9</sat><hdop>1.0</hdop></trkpt>
146    <trkpt lat="58.4078667" lon="15.5649817"><ele>80.70</ele><time>2005-11-27T09:38:59.000Z</time><course>27.2</course><speed>0.1</speed><fix>3d</fix><sat>9</sat><hdop>1.0</hdop></trkpt>
147    <trkpt lat="58.4078683" lon="15.5649817"><ele>81.20</ele><time>2005-11-27T09:39:00.000Z</time><course>136.9</course><speed>0.1</speed><fix>3d</fix><sat>9</sat><hdop>1.0</hdop></trkpt>
148    <trkpt lat="58.4078700" lon="15.5649817"><ele>81.80</ele><time>2005-11-27T09:39:01.000Z</time><course>10.0</course><speed>0.1</speed><fix>3d</fix><sat>9</sat><hdop>1.0</hdop></trkpt>
149    <trkpt lat="58.4078717" lon="15.5649817"><ele>82.30</ele><time>2005-11-27T09:39:02.000Z</time><course>6.8</course><speed>0.1</speed><fix>3d</fix><sat>9</sat><hdop>1.0</hdop></trkpt>
150    <trkpt lat="58.4078733" lon="15.5649833"><ele>83.00</ele><time>2005-11-27T09:39:03.000Z</time><course>37.8</course><speed>0.1</speed><fix>3d</fix><sat>9</sat><hdop>1.0</hdop></trkpt>
151    <trkpt lat="58.4078750" lon="15.5649817"><ele>83.50</ele><time>2005-11-27T09:39:04.000Z</time><course>358.0</course><speed>0.2</speed><fix>3d</fix><sat>9</sat><hdop>1.0</hdop></trkpt>
152    <trkpt lat="58.4078767" lon="15.5649817"><ele>84.00</ele><time>2005-11-27T09:39:05.000Z</time><course>84.0</course><speed>0.1</speed><fix>3d</fix><sat>9</sat><hdop>1.0</hdop></trkpt>
153    <trkpt lat="58.4078783" lon="15.5649800"><ele>84.40</ele><time>2005-11-27T09:39:06.000Z</time><course>18.4</course><speed>0.2</speed><fix>3d</fix><sat>9</sat><hdop>1.0</hdop></trkpt>
154    <trkpt lat="58.4078817" lon="15.5649783"><ele>84.50</ele><time>2005-11-27T09:39:07.000Z</time><course>3.4</course><speed>0.2</speed><fix>3d</fix><sat>9</sat><hdop>1.0</hdop></trkpt>
155    <trkpt lat="58.4078833" lon="15.5649767"><ele>84.90</ele><time>2005-11-27T09:39:08.000Z</time><course>50.8</course><speed>0.1</speed><fix>3d</fix><sat>9</sat><hdop>1.0</hdop></trkpt>
156    <trkpt lat="58.4078833" lon="15.5649767"><ele>85.50</ele><time>2005-11-27T09:39:09.000Z</time><course>101.2</course><speed>0.1</speed><fix>3d</fix><sat>9</sat><hdop>1.0</hdop></trkpt>
157    <trkpt lat="58.4078850" lon="15.5649767"><ele>86.10</ele><time>2005-11-27T09:39:10.000Z</time><course>93.8</course><speed>0.1</speed><fix>3d</fix><sat>9</sat><hdop>1.0</hdop></trkpt>
158    <trkpt lat="58.4078850" lon="15.5649767"><ele>86.80</ele><time>2005-11-27T09:39:11.000Z</time><course>46.9</course><speed>0.1</speed><fix>3d</fix><sat>9</sat><hdop>1.0</hdop></trkpt>
159    <trkpt lat="58.4078850" lon="15.5649767"><ele>87.40</ele><time>2005-11-27T09:39:12.000Z</time><course>19.5</course><speed>0.1</speed><fix>3d</fix><sat>9</sat><hdop>1.0</hdop></trkpt>
160    <trkpt lat="58.4078867" lon="15.5649750"><ele>88.00</ele><time>2005-11-27T09:39:13.000Z</time><course>96.2</course><speed>0.1</speed><fix>3d</fix><sat>9</sat><hdop>1.0</hdop></trkpt>
161    <trkpt lat="58.4078883" lon="15.5649733"><ele>88.20</ele><time>2005-11-27T09:39:14.000Z</time><course>6.8</course><speed>0.1</speed><fix>3d</fix><sat>9</sat><hdop>1.0</hdop></trkpt>
162    <trkpt lat="58.4078900" lon="15.5649717"><ele>88.40</ele><time>2005-11-27T09:39:15.000Z</time><course>12.4</course><speed>0.1</speed><fix>3d</fix><sat>9</sat><hdop>1.0</hdop></trkpt>
163    <trkpt lat="58.4078900" lon="15.5649700"><ele>88.60</ele><time>2005-11-27T09:39:16.000Z</time><course>23.4</course><speed>0.1</speed><fix>3d</fix><sat>9</sat><hdop>1.0</hdop></trkpt>
164    <trkpt lat="58.4078917" lon="15.5649700"><ele>88.80</ele><time>2005-11-27T09:39:17.000Z</time><course>24.6</course><speed>0.1</speed><fix>3d</fix><sat>9</sat><hdop>1.0</hdop></trkpt>
165    <trkpt lat="58.4078917" lon="15.5649683"><ele>89.20</ele><time>2005-11-27T09:39:18.000Z</time><course>105.1</course><speed>0.1</speed><fix>3d</fix><sat>9</sat><hdop>1.0</hdop></trkpt>
166    <trkpt lat="58.4078917" lon="15.5649683"><ele>89.40</ele><time>2005-11-27T09:39:19.000Z</time><course>25.3</course><speed>0.1</speed><fix>3d</fix><sat>9</sat><hdop>1.0</hdop></trkpt>
167    <trkpt lat="58.4078917" lon="15.5649667"><ele>89.50</ele><time>2005-11-27T09:39:20.000Z</time><course>48.2</course><speed>0.1</speed><fix>3d</fix><sat>9</sat><hdop>1.0</hdop></trkpt>
168    <trkpt lat="58.4078917" lon="15.5649650"><ele>89.50</ele><time>2005-11-27T09:39:21.000Z</time><course>356.7</course><speed>0.1</speed><fix>3d</fix><sat>9</sat><hdop>1.0</hdop></trkpt>
169    <trkpt lat="58.4078917" lon="15.5649617"><ele>89.20</ele><time>2005-11-27T09:39:22.000Z</time><course>336.8</course><speed>0.1</speed><fix>3d</fix><sat>9</sat><hdop>1.0</hdop></trkpt>
170    <trkpt lat="58.4078900" lon="15.5649583"><ele>88.90</ele><time>2005-11-27T09:39:23.000Z</time><course>333.4</course><speed>0.1</speed><fix>3d</fix><sat>9</sat><hdop>1.0</hdop></trkpt>
171    <trkpt lat="58.4078900" lon="15.5649550"><ele>88.40</ele><time>2005-11-27T09:39:24.000Z</time><course>333.4</course><speed>0.1</speed><fix>3d</fix><sat>9</sat><hdop>1.0</hdop></trkpt>
172    <trkpt lat="58.4078883" lon="15.5649517"><ele>88.10</ele><time>2005-11-27T09:39:25.000Z</time><course>26.2</course><speed>0.1</speed><fix>3d</fix><sat>9</sat><hdop>1.0</hdop></trkpt>
173    <trkpt lat="58.4078867" lon="15.5649517"><ele>87.60</ele><time>2005-11-27T09:39:26.000Z</time><course>26.2</course><speed>0.1</speed><fix>3d</fix><sat>9</sat><hdop>1.0</hdop></trkpt>
174    <trkpt lat="58.4078850" lon="15.5649533"><ele>87.20</ele><time>2005-11-27T09:39:27.000Z</time><course>314.4</course><speed>0.1</speed><fix>3d</fix><sat>9</sat><hdop>1.0</hdop></trkpt>
175    <trkpt lat="58.4078850" lon="15.5649550"><ele>87.10</ele><time>2005-11-27T09:39:28.000Z</time><course>17.2</course><speed>0.1</speed><fix>3d</fix><sat>9</sat><hdop>1.0</hdop></trkpt>
176    <trkpt lat="58.4078850" lon="15.5649583"><ele>87.30</ele><time>2005-11-27T09:39:29.000Z</time><course>119.2</course><speed>0.1</speed><fix>3d</fix><sat>9</sat><hdop>1.0</hdop></trkpt>
177    <trkpt lat="58.4078817" lon="15.5649583"><ele>86.70</ele><time>2005-11-27T09:39:30.000Z</time><course>359.0</course><speed>0</speed><fix>3d</fix><sat>9</sat><hdop>1.0</hdop></trkpt>
178    <trkpt lat="58.4078783" lon="15.5649567"><ele>86.10</ele><time>2005-11-27T09:39:31.000Z</time><course>249.6</course><speed>0.1</speed><fix>3d</fix><sat>9</sat><hdop>1.0</hdop></trkpt>
179    <trkpt lat="58.4078767" lon="15.5649533"><ele>85.60</ele><time>2005-11-27T09:39:32.000Z</time><course>11.9</course><speed>0.1</speed><fix>3d</fix><sat>9</sat><hdop>1.0</hdop></trkpt>
180    <trkpt lat="58.4078767" lon="15.5649550"><ele>85.50</ele><time>2005-11-27T09:39:33.000Z</time><course>217.9</course><speed>0.1</speed><fix>3d</fix><sat>9</sat><hdop>1.0</hdop></trkpt>
181    <trkpt lat="58.4078733" lon="15.5649533"><ele>84.90</ele><time>2005-11-27T09:39:34.000Z</time><course>339.1</course><speed>0.1</speed><fix>3d</fix><sat>9</sat><hdop>1.0</hdop></trkpt>
182    <trkpt lat="58.4078717" lon="15.5649533"><ele>84.50</ele><time>2005-11-27T09:39:35.000Z</time><course>164.1</course><speed>0.1</speed><fix>3d</fix><sat>9</sat><hdop>1.0</hdop></trkpt>
183    <trkpt lat="58.4078700" lon="15.5649533"><ele>84.10</ele><time>2005-11-27T09:39:36.000Z</time><course>341.8</course><speed>0</speed><fix>3d</fix><sat>9</sat><hdop>1.0</hdop></trkpt>
184    <trkpt lat="58.4078683" lon="15.5649517"><ele>83.30</ele><time>2005-11-27T09:39:37.000Z</time><course>284.9</course><speed>0.1</speed><fix>3d</fix><sat>9</sat><hdop>1.0</hdop></trkpt>
185    <trkpt lat="58.4078683" lon="15.5649483"><ele>82.90</ele><time>2005-11-27T09:39:38.000Z</time><course>6.6</course><speed>0.2</speed><fix>3d</fix><sat>9</sat><hdop>1.0</hdop></trkpt>
186    <trkpt lat="58.4078667" lon="15.5649467"><ele>82.10</ele><time>2005-11-27T09:39:39.000Z</time><course>348.5</course><speed>0.1</speed><fix>3d</fix><sat>9</sat><hdop>1.0</hdop></trkpt>
187    <trkpt lat="58.4078667" lon="15.5649450"><ele>81.50</ele><time>2005-11-27T09:39:40.000Z</time><course>8.3</course><speed>0.1</speed><fix>3d</fix><sat>9</sat><hdop>1.0</hdop></trkpt>
188    <trkpt lat="58.4078633" lon="15.5649433"><ele>80.90</ele><time>2005-11-27T09:39:41.000Z</time><course>105.9</course><speed>0.1</speed><fix>3d</fix><sat>9</sat><hdop>1.0</hdop></trkpt>
189    <trkpt lat="58.4078617" lon="15.5649417"><ele>79.90</ele><time>2005-11-27T09:39:42.000Z</time><course>322.1</course><speed>0.1</speed><fix>3d</fix><sat>9</sat><hdop>1.0</hdop></trkpt>
190    <trkpt lat="58.4078583" lon="15.5649383"><ele>79.20</ele><time>2005-11-27T09:39:43.000Z</time><course>201.5</course><speed>0</speed><fix>3d</fix><sat>9</sat><hdop>1.0</hdop></trkpt>
191    <trkpt lat="58.4078567" lon="15.5649383"><ele>78.60</ele><time>2005-11-27T09:39:44.000Z</time><course>11.3</course><speed>0.1</speed><fix>3d</fix><sat>9</sat><hdop>1.0</hdop></trkpt>
192    <trkpt lat="58.4078533" lon="15.5649367"><ele>78.10</ele><time>2005-11-27T09:39:45.000Z</time><course>336.9</course><speed>0</speed><fix>3d</fix><sat>9</sat><hdop>1.0</hdop></trkpt>
193    <trkpt lat="58.4078517" lon="15.5649367"><ele>77.70</ele><time>2005-11-27T09:39:46.000Z</time><course>12.4</course><speed>0.1</speed><fix>3d</fix><sat>9</sat><hdop>1.0</hdop></trkpt>
194    <trkpt lat="58.4078500" lon="15.5649333"><ele>77.30</ele><time>2005-11-27T09:39:47.000Z</time><course>264.6</course><speed>0.1</speed><fix>3d</fix><sat>9</sat><hdop>1.0</hdop></trkpt>
195    <trkpt lat="58.4078483" lon="15.5649317"><ele>76.70</ele><time>2005-11-27T09:39:48.000Z</time><course>284.1</course><speed>0.1</speed><fix>3d</fix><sat>9</sat><hdop>1.0</hdop></trkpt>
196    <trkpt lat="58.4078467" lon="15.5649300"><ele>76.30</ele><time>2005-11-27T09:39:49.000Z</time><course>35.0</course><speed>0</speed><fix>3d</fix><sat>9</sat><hdop>1.0</hdop></trkpt>
197    <trkpt lat="58.4078450" lon="15.5649283"><ele>76.00</ele><time>2005-11-27T09:39:50.000Z</time><course>200.5</course><speed>0.1</speed><fix>3d</fix><sat>9</sat><hdop>1.0</hdop></trkpt>
198    <trkpt lat="58.4078450" lon="15.5649267"><ele>75.90</ele><time>2005-11-27T09:39:51.000Z</time><course>7.0</course><speed>0.1</speed><fix>3d</fix><sat>9</sat><hdop>1.0</hdop></trkpt>
199    <trkpt lat="58.4078450" lon="15.5649233"><ele>75.80</ele><time>2005-11-27T09:39:52.000Z</time><course>274.8</course><speed>0.1</speed><fix>3d</fix><sat>9</sat><hdop>1.0</hdop></trkpt>
200    <trkpt lat="58.4078450" lon="15.5649200"><ele>75.60</ele><time>2005-11-27T09:39:53.000Z</time><course>250.6</course><speed>0.1</speed><fix>3d</fix><sat>9</sat><hdop>1.0</hdop></trkpt>
201    <trkpt lat="58.4078450" lon="15.5649167"><ele>75.40</ele><time>2005-11-27T09:39:54.000Z</time><course>272.2</course><speed>0.1</speed><fix>3d</fix><sat>9</sat><hdop>1.0</hdop></trkpt>
202    <trkpt lat="58.4078433" lon="15.5649150"><ele>75.40</ele><time>2005-11-27T09:39:55.000Z</time><course>147.4</course><speed>0.3</speed><fix>3d</fix><sat>9</sat><hdop>1.0</hdop></trkpt>
203    <trkpt lat="58.4078383" lon="15.5649183"><ele>75.70</ele><time>2005-11-27T09:39:56.000Z</time><course>155.9</course><speed>0.9</speed><fix>3d</fix><sat>9</sat><hdop>1.0</hdop></trkpt>
204    <trkpt lat="58.4078300" lon="15.5649300"><ele>76.20</ele><time>2005-11-27T09:39:57.000Z</time><course>151.4</course><speed>1.7</speed><fix>3d</fix><sat>9</sat><hdop>1.0</hdop></trkpt>
205    <trkpt lat="58.4078117" lon="15.5649483"><ele>76.30</ele><time>2005-11-27T09:39:58.000Z</time><course>152.1</course><speed>2.6</speed><fix>3d</fix><sat>9</sat><hdop>1.0</hdop></trkpt>
206    <trkpt lat="58.4077883" lon="15.5649733"><ele>76.50</ele><time>2005-11-27T09:39:59.000Z</time><course>150.2</course><speed>3.2</speed><fix>3d</fix><sat>9</sat><hdop>1.0</hdop></trkpt>
207    <trkpt lat="58.4077600" lon="15.5650117"><ele>77.00</ele><time>2005-11-27T09:40:00.000Z</time><course>143.9</course><speed>4.6</speed><fix>3d</fix><sat>9</sat><hdop>1.0</hdop></trkpt>
208    <trkpt lat="58.4077217" lon="15.5650633"><ele>77.40</ele><time>2005-11-27T09:40:01.000Z</time><course>145.5</course><speed>5.5</speed><fix>3d</fix><sat>9</sat><hdop>1.0</hdop></trkpt>
209    <trkpt lat="58.4076800" lon="15.5651183"><ele>78.00</ele><time>2005-11-27T09:40:02.000Z</time><course>147.0</course><speed>6.0</speed><fix>3d</fix><sat>9</sat><hdop>1.0</hdop></trkpt>
210    <trkpt lat="58.4076283" lon="15.5651783"><ele>78.00</ele><time>2005-11-27T09:40:03.000Z</time><course>148.4</course><speed>7.0</speed><fix>3d</fix><sat>9</sat><hdop>1.0</hdop></trkpt>
211    <trkpt lat="58.4075700" lon="15.5652450"><ele>78.40</ele><time>2005-11-27T09:40:04.000Z</time><course>150.0</course><speed>7.8</speed><fix>3d</fix><sat>9</sat><hdop>1.0</hdop></trkpt>
212    <trkpt lat="58.4075050" lon="15.5653067"><ele>78.30</ele><time>2005-11-27T09:40:05.000Z</time><course>151.9</course><speed>8.3</speed><fix>3d</fix><sat>9</sat><hdop>1.0</hdop></trkpt>
213    <trkpt lat="58.4074350" lon="15.5653700"><ele>78.10</ele><time>2005-11-27T09:40:06.000Z</time><course>153.2</course><speed>8.6</speed><fix>3d</fix><sat>9</sat><hdop>1.0</hdop></trkpt>
214    <trkpt lat="58.4073617" lon="15.5654333"><ele>77.50</ele><time>2005-11-27T09:40:07.000Z</time><course>153.3</course><speed>9.3</speed><fix>3d</fix><sat>9</sat><hdop>1.0</hdop></trkpt>
215    <trkpt lat="58.4072833" lon="15.5655000"><ele>77.30</ele><time>2005-11-27T09:40:08.000Z</time><course>154.0</course><speed>9.4</speed><fix>3d</fix><sat>9</sat><hdop>1.0</hdop></trkpt>
216    <trkpt lat="58.4072033" lon="15.5655717"><ele>77.10</ele><time>2005-11-27T09:40:09.000Z</time><course>153.2</course><speed>10.0</speed><fix>3d</fix><sat>9</sat><hdop>1.0</hdop></trkpt>
217    <trkpt lat="58.4071200" lon="15.5656483"><ele>76.60</ele><time>2005-11-27T09:40:10.000Z</time><course>152.7</course><speed>10.0</speed><fix>3d</fix><sat>9</sat><hdop>1.0</hdop></trkpt>
218    <trkpt lat="58.4070367" lon="15.5657250"><ele>76.20</ele><time>2005-11-27T09:40:11.000Z</time><course>152.7</course><speed>10.4</speed><fix>3d</fix><sat>9</sat><hdop>1.0</hdop></trkpt>
219    <trkpt lat="58.4069500" lon="15.5658050"><ele>75.60</ele><time>2005-11-27T09:40:12.000Z</time><course>153.4</course><speed>10.5</speed><fix>3d</fix><sat>9</sat><hdop>1.0</hdop></trkpt>
220    <trkpt lat="58.4068633" lon="15.5658800"><ele>75.10</ele><time>2005-11-27T09:40:13.000Z</time><course>155.1</course><speed>10.3</speed><fix>3d</fix><sat>9</sat><hdop>1.0</hdop></trkpt>
221    <trkpt lat="58.4067733" lon="15.5659517"><ele>74.70</ele><time>2005-11-27T09:40:14.000Z</time><course>156.0</course><speed>10.7</speed><fix>3d</fix><sat>9</sat><hdop>1.0</hdop></trkpt>
222    <trkpt lat="58.4066833" lon="15.5660217"><ele>74.60</ele><time>2005-11-27T09:40:15.000Z</time><course>158.2</course><speed>10.9</speed><fix>3d</fix><sat>9</sat><hdop>1.0</hdop></trkpt>
223    <trkpt lat="58.4065900" lon="15.5660850"><ele>74.40</ele><time>2005-11-27T09:40:16.000Z</time><course>159.2</course><speed>10.9</speed><fix>3d</fix><sat>9</sat><hdop>1.0</hdop></trkpt>
224    <trkpt lat="58.4064900" lon="15.5661517"><ele>73.80</ele><time>2005-11-27T09:40:17.000Z</time><course>160.2</course><speed>11.5</speed><fix>3d</fix><sat>9</sat><hdop>1.0</hdop></trkpt>
225    <trkpt lat="58.4063917" lon="15.5662150"><ele>73.30</ele><time>2005-11-27T09:40:18.000Z</time><course>161.7</course><speed>11.4</speed><fix>3d</fix><sat>9</sat><hdop>1.0</hdop></trkpt>
226    <trkpt lat="58.4062917" lon="15.5662733"><ele>72.70</ele><time>2005-11-27T09:40:19.000Z</time><course>162.8</course><speed>11.2</speed><fix>3d</fix><sat>9</sat><hdop>1.0</hdop></trkpt>
227    <trkpt lat="58.4061933" lon="15.5663250"><ele>71.90</ele><time>2005-11-27T09:40:20.000Z</time><course>164.0</course><speed>11.3</speed><fix>3d</fix><sat>9</sat><hdop>1.0</hdop></trkpt>
228    <trkpt lat="58.4060933" lon="15.5663750"><ele>71.40</ele><time>2005-11-27T09:40:21.000Z</time><course>164.0</course><speed>11.3</speed><fix>3d</fix><sat>9</sat><hdop>1.0</hdop></trkpt>
229    <trkpt lat="58.4059900" lon="15.5664217"><ele>71.10</ele><time>2005-11-27T09:40:22.000Z</time><course>166.6</course><speed>11.3</speed><fix>3d</fix><sat>9</sat><hdop>1.0</hdop></trkpt>
230    <trkpt lat="58.4058883" lon="15.5664667"><ele>70.90</ele><time>2005-11-27T09:40:23.000Z</time><course>167.6</course><speed>10.9</speed><fix>3d</fix><sat>9</sat><hdop>1.0</hdop></trkpt>
231    <trkpt lat="58.4057900" lon="15.5665050"><ele>70.80</ele><time>2005-11-27T09:40:24.000Z</time><course>167.9</course><speed>10.6</speed><fix>3d</fix><sat>9</sat><hdop>1.0</hdop></trkpt>
232    <trkpt lat="58.4056950" lon="15.5665400"><ele>70.60</ele><time>2005-11-27T09:40:25.000Z</time><course>169.1</course><speed>10.4</speed><fix>3d</fix><sat>9</sat><hdop>1.0</hdop></trkpt>
233    <trkpt lat="58.4056033" lon="15.5665700"><ele>70.90</ele><time>2005-11-27T09:40:26.000Z</time><course>170.4</course><speed>9.9</speed><fix>3d</fix><sat>9</sat><hdop>1.0</hdop></trkpt>
234    <trkpt lat="58.4055183" lon="15.5665967"><ele>71.80</ele><time>2005-11-27T09:40:27.000Z</time><course>172.4</course><speed>9.1</speed><fix>3d</fix><sat>9</sat><hdop>1.0</hdop></trkpt>
235    <trkpt lat="58.4054400" lon="15.5666150"><ele>72.40</ele><time>2005-11-27T09:40:28.000Z</time><course>174.0</course><speed>8.1</speed><fix>3d</fix><sat>9</sat><hdop>1.0</hdop></trkpt>
236    <trkpt lat="58.4053750" lon="15.5666300"><ele>72.80</ele><time>2005-11-27T09:40:29.000Z</time><course>172.9</course><speed>6.5</speed><fix>3d</fix><sat>9</sat><hdop>1.0</hdop></trkpt>
237    <trkpt lat="58.4053250" lon="15.5666417"><ele>72.60</ele><time>2005-11-27T09:40:30.000Z</time><course>173.2</course><speed>4.6</speed><fix>3d</fix><sat>9</sat><hdop>1.0</hdop></trkpt>
238    <trkpt lat="58.4052900" lon="15.5666517"><ele>72.50</ele><time>2005-11-27T09:40:31.000Z</time><course>171.4</course><speed>3.3</speed><fix>3d</fix><sat>9</sat><hdop>1.0</hdop></trkpt>
239    <trkpt lat="58.4052633" lon="15.5666600"><ele>72.50</ele><time>2005-11-27T09:40:32.000Z</time><course>167.0</course><speed>2.9</speed><fix>3d</fix><sat>9</sat><hdop>1.0</hdop></trkpt>
240    <trkpt lat="58.4052383" lon="15.5666733"><ele>72.50</ele><time>2005-11-27T09:40:33.000Z</time><course>160.1</course><speed>3.0</speed><fix>3d</fix><sat>9</sat><hdop>1.0</hdop></trkpt>
241    <trkpt lat="58.4052133" lon="15.5666950"><ele>72.50</ele><time>2005-11-27T09:40:34.000Z</time><course>150.1</course><speed>3.2</speed><fix>3d</fix><sat>9</sat><hdop>1.0</hdop></trkpt>
242    <trkpt lat="58.4051900" lon="15.5667317"><ele>72.40</ele><time>2005-11-27T09:40:35.000Z</time><course>134.3</course><speed>3.5</speed><fix>3d</fix><sat>9</sat><hdop>1.0</hdop></trkpt>
243    <trkpt lat="58.4051700" lon="15.5667850"><ele>72.30</ele><time>2005-11-27T09:40:36.000Z</time><course>117.9</course><speed>4.0</speed><fix>3d</fix><sat>9</sat><hdop>1.0</hdop></trkpt>
244    <trkpt lat="58.4051567" lon="15.5668500"><ele>72.00</ele><time>2005-11-27T09:40:37.000Z</time><course>106.5</course><speed>4.2</speed><fix>3d</fix><sat>9</sat><hdop>1.0</hdop></trkpt>
245    <trkpt lat="58.4051517" lon="15.5669300"><ele>71.90</ele><time>2005-11-27T09:40:38.000Z</time><course>92.0</course><speed>4.9</speed><fix>3d</fix><sat>9</sat><hdop>1.0</hdop></trkpt>
246    <trkpt lat="58.4051567" lon="15.5670200"><ele>71.40</ele><time>2005-11-27T09:40:39.000Z</time><course>83.7</course><speed>5.9</speed><fix>3d</fix><sat>9</sat><hdop>1.0</hdop></trkpt>
247    <trkpt lat="58.4051633" lon="15.5671283"><ele>71.20</ele><time>2005-11-27T09:40:40.000Z</time><course>81.4</course><speed>6.6</speed><fix>3d</fix><sat>9</sat><hdop>1.0</hdop></trkpt>
248    <trkpt lat="58.4051750" lon="15.5672467"><ele>70.80</ele><time>2005-11-27T09:40:41.000Z</time><course>80.3</course><speed>7.4</speed><fix>3d</fix><sat>9</sat><hdop>1.0</hdop></trkpt>
249    <trkpt lat="58.4051883" lon="15.5673750"><ele>70.70</ele><time>2005-11-27T09:40:42.000Z</time><course>80.0</course><speed>7.8</speed><fix>3d</fix><sat>9</sat><hdop>1.0</hdop></trkpt>
250    <trkpt lat="58.4052000" lon="15.5675083"><ele>70.50</ele><time>2005-11-27T09:40:43.000Z</time><course>81.2</course><speed>7.8</speed><fix>3d</fix><sat>9</sat><hdop>1.0</hdop></trkpt>
251    <trkpt lat="58.4052100" lon="15.5676433"><ele>70.50</ele><time>2005-11-27T09:40:44.000Z</time><course>83.3</course><speed>7.5</speed><fix>3d</fix><sat>9</sat><hdop>1.0</hdop></trkpt>
252    <trkpt lat="58.4052200" lon="15.5677633"><ele>70.60</ele><time>2005-11-27T09:40:45.000Z</time><course>78.9</course><speed>6.5</speed><fix>3d</fix><sat>9</sat><hdop>1.0</hdop></trkpt>
253    <trkpt lat="58.4052283" lon="15.5678717"><ele>70.00</ele><time>2005-11-27T09:40:46.000Z</time><course>78.9</course><speed>6.5</speed><fix>3d</fix><sat>9</sat><hdop>1.0</hdop></trkpt>
254    <trkpt lat="58.4052333" lon="15.5679633"><ele>70.40</ele><time>2005-11-27T09:40:47.000Z</time><course>88.8</course><speed>4.8</speed><fix>3d</fix><sat>9</sat><hdop>1.0</hdop></trkpt>
255    <trkpt lat="58.4052350" lon="15.5680333"><ele>70.40</ele><time>2005-11-27T09:40:48.000Z</time><course>82.2</course><speed>3.6</speed><fix>3d</fix><sat>9</sat><hdop>1.0</hdop></trkpt>
256    <trkpt lat="58.4052417" lon="15.5680800"><ele>70.20</ele><time>2005-11-27T09:40:49.000Z</time><course>83.1</course><speed>2.4</speed><fix>3d</fix><sat>9</sat><hdop>1.0</hdop></trkpt>
257    <trkpt lat="58.4052483" lon="15.5681033"><ele>70.50</ele><time>2005-11-27T09:40:50.000Z</time><course>74.2</course><speed>0.8</speed><fix>3d</fix><sat>9</sat><hdop>1.0</hdop></trkpt>
258    <trkpt lat="58.4052517" lon="15.5681117"><ele>70.80</ele><time>2005-11-27T09:40:51.000Z</time><course>103.2</course><speed>0.1</speed><fix>3d</fix><sat>9</sat><hdop>1.0</hdop></trkpt>
259    <trkpt lat="58.4052550" lon="15.5681117"><ele>71.20</ele><time>2005-11-27T09:40:52.000Z</time><course>3.3</course><speed>0.1</speed><fix>3d</fix><sat>9</sat><hdop>1.0</hdop></trkpt>
260    <trkpt lat="58.4052583" lon="15.5681117"><ele>71.50</ele><time>2005-11-27T09:40:53.000Z</time><course>2.7</course><speed>0.1</speed><fix>3d</fix><sat>9</sat><hdop>1.0</hdop></trkpt>
261    <trkpt lat="58.4052650" lon="15.5681050"><ele>70.40</ele><time>2005-11-27T09:40:54.000Z</time><course>38.2</course><speed>0.1</speed><fix>3d</fix><sat>9</sat><hdop>1.0</hdop></trkpt>
262    <trkpt lat="58.4052700" lon="15.5681033"><ele>69.60</ele><time>2005-11-27T09:40:55.000Z</time><course>25.7</course><speed>0.1</speed><fix>3d</fix><sat>9</sat><hdop>1.0</hdop></trkpt>
263    <trkpt lat="58.4052750" lon="15.5681017"><ele>69.40</ele><time>2005-11-27T09:40:56.000Z</time><course>18.8</course><speed>0.1</speed><fix>3d</fix><sat>9</sat><hdop>1.0</hdop></trkpt>
264    <trkpt lat="58.4052783" lon="15.5680983"><ele>69.20</ele><time>2005-11-27T09:40:57.000Z</time><course>78.6</course><speed>0</speed><fix>3d</fix><sat>9</sat><hdop>1.0</hdop></trkpt>
265    <trkpt lat="58.4052817" lon="15.5680967"><ele>69.20</ele><time>2005-11-27T09:40:58.000Z</time><course>50.0</course><speed>0.1</speed><fix>3d</fix><sat>9</sat><hdop>1.0</hdop></trkpt>
266    <trkpt lat="58.4052850" lon="15.5680967"><ele>68.70</ele><time>2005-11-27T09:40:59.000Z</time><course>37.4</course><speed>0.1</speed><fix>3d</fix><sat>9</sat><hdop>1.0</hdop></trkpt>
267    <trkpt lat="58.4052867" lon="15.5680950"><ele>68.70</ele><time>2005-11-27T09:41:00.000Z</time><course>61.7</course><speed>0</speed><fix>3d</fix><sat>9</sat><hdop>1.0</hdop></trkpt>
268    <trkpt lat="58.4052883" lon="15.5680917"><ele>68.40</ele><time>2005-11-27T09:41:01.000Z</time><course>40.2</course><speed>0.1</speed><fix>3d</fix><sat>9</sat><hdop>1.0</hdop></trkpt>
269    <trkpt lat="58.4052900" lon="15.5680917"><ele>67.70</ele><time>2005-11-27T09:41:02.000Z</time><course>80.9</course><speed>0.5</speed><fix>3d</fix><sat>9</sat><hdop>1.0</hdop></trkpt>
270    <trkpt lat="58.4052900" lon="15.5681083"><ele>67.70</ele><time>2005-11-27T09:41:03.000Z</time><course>85.1</course><speed>1.3</speed><fix>3d</fix><sat>9</sat><hdop>1.0</hdop></trkpt>
271    <trkpt lat="58.4052917" lon="15.5681417"><ele>67.80</ele><time>2005-11-27T09:41:04.000Z</time><course>81.2</course><speed>2.3</speed><fix>3d</fix><sat>9</sat><hdop>1.0</hdop></trkpt>
272    <trkpt lat="58.4052967" lon="15.5681883"><ele>68.10</ele><time>2005-11-27T09:41:05.000Z</time><course>77.6</course><speed>3.2</speed><fix>3d</fix><sat>9</sat><hdop>1.0</hdop></trkpt>
273    <trkpt lat="58.4053083" lon="15.5682567"><ele>68.10</ele><time>2005-11-27T09:41:06.000Z</time><course>69.5</course><speed>4.5</speed><fix>3d</fix><sat>9</sat><hdop>1.0</hdop></trkpt>
274    <trkpt lat="58.4053250" lon="15.5683400"><ele>68.30</ele><time>2005-11-27T09:41:07.000Z</time><course>67.8</course><speed>5.6</speed><fix>3d</fix><sat>9</sat><hdop>1.0</hdop></trkpt>
275    <trkpt lat="58.4053417" lon="15.5684417"><ele>68.20</ele><time>2005-11-27T09:41:08.000Z</time><course>72.1</course><speed>6.6</speed><fix>3d</fix><sat>9</sat><hdop>1.0</hdop></trkpt>
276    <trkpt lat="58.4053600" lon="15.5685633"><ele>68.40</ele><time>2005-11-27T09:41:09.000Z</time><course>76.1</course><speed>7.5</speed><fix>3d</fix><sat>9</sat><hdop>1.0</hdop></trkpt>
277    <trkpt lat="58.4053750" lon="15.5686983"><ele>68.40</ele><time>2005-11-27T09:41:10.000Z</time><course>77.2</course><speed>8.1</speed><fix>3d</fix><sat>9</sat><hdop>1.0</hdop></trkpt>
278    <trkpt lat="58.4053900" lon="15.5688433"><ele>68.70</ele><time>2005-11-27T09:41:11.000Z</time><course>78.7</course><speed>8.7</speed><fix>3d</fix><sat>9</sat><hdop>1.0</hdop></trkpt>
279    <trkpt lat="58.4054033" lon="15.5689950"><ele>68.80</ele><time>2005-11-27T09:41:12.000Z</time><course>79.3</course><speed>8.7</speed><fix>3d</fix><sat>9</sat><hdop>1.0</hdop></trkpt>
280    <trkpt lat="58.4054167" lon="15.5691467"><ele>68.80</ele><time>2005-11-27T09:41:13.000Z</time><course>77.7</course><speed>8.8</speed><fix>3d</fix><sat>9</sat><hdop>1.0</hdop></trkpt>
281    <trkpt lat="58.4054317" lon="15.5693017"><ele>68.60</ele><time>2005-11-27T09:41:14.000Z</time><course>78.3</course><speed>9.2</speed><fix>3d</fix><sat>9</sat><hdop>1.0</hdop></trkpt>
282    <trkpt lat="58.4054467" lon="15.5694617"><ele>68.40</ele><time>2005-11-27T09:41:15.000Z</time><course>77.9</course><speed>9.5</speed><fix>3d</fix><sat>9</sat><hdop>1.0</hdop></trkpt>
283    <trkpt lat="58.4054633" lon="15.5696267"><ele>68.00</ele><time>2005-11-27T09:41:16.000Z</time><course>77.7</course><speed>10.0</speed><fix>3d</fix><sat>9</sat><hdop>1.0</hdop></trkpt>
284    <trkpt lat="58.4054783" lon="15.5697983"><ele>68.00</ele><time>2005-11-27T09:41:17.000Z</time><course>79.0</course><speed>9.9</speed><fix>3d</fix><sat>9</sat><hdop>1.0</hdop></trkpt>
285    <trkpt lat="58.4054950" lon="15.5699733"><ele>68.30</ele><time>2005-11-27T09:41:18.000Z</time><course>79.6</course><speed>10.3</speed><fix>3d</fix><sat>9</sat><hdop>1.0</hdop></trkpt>
286    <trkpt lat="58.4055117" lon="15.5701533"><ele>68.30</ele><time>2005-11-27T09:41:19.000Z</time><course>80.2</course><speed>10.6</speed><fix>3d</fix><sat>9</sat><hdop>1.0</hdop></trkpt>
287    <trkpt lat="58.4055300" lon="15.5703367"><ele>68.30</ele><time>2005-11-27T09:41:20.000Z</time><course>80.1</course><speed>10.7</speed><fix>3d</fix><sat>9</sat><hdop>1.0</hdop></trkpt>
288    <trkpt lat="58.4055467" lon="15.5705200"><ele>68.30</ele><time>2005-11-27T09:41:21.000Z</time><course>80.1</course><speed>10.8</speed><fix>3d</fix><sat>9</sat><hdop>1.0</hdop></trkpt>
289    <trkpt lat="58.4055650" lon="15.5707050"><ele>68.10</ele><time>2005-11-27T09:41:22.000Z</time><course>79.4</course><speed>10.9</speed><fix>3d</fix><sat>9</sat><hdop>1.0</hdop></trkpt>
290    <trkpt lat="58.4055850" lon="15.5708933"><ele>68.30</ele><time>2005-11-27T09:41:23.000Z</time><course>78.6</course><speed>11.2</speed><fix>3d</fix><sat>9</sat><hdop>1.0</hdop></trkpt>
291    <trkpt lat="58.4056050" lon="15.5710867"><ele>68.70</ele><time>2005-11-27T09:41:24.000Z</time><course>78.4</course><speed>11.4</speed><fix>3d</fix><sat>9</sat><hdop>1.0</hdop></trkpt>
292    <trkpt lat="58.4056250" lon="15.5712767"><ele>69.00</ele><time>2005-11-27T09:41:25.000Z</time><course>78.4</course><speed>11.4</speed><fix>3d</fix><sat>9</sat><hdop>1.0</hdop></trkpt>
293    <trkpt lat="58.4056450" lon="15.5714700"><ele>69.40</ele><time>2005-11-27T09:41:26.000Z</time><course>78.2</course><speed>11.8</speed><fix>3d</fix><sat>9</sat><hdop>1.0</hdop></trkpt>
294    <trkpt lat="58.4056667" lon="15.5716700"><ele>69.90</ele><time>2005-11-27T09:41:27.000Z</time><course>78.2</course><speed>11.8</speed><fix>3d</fix><sat>9</sat><hdop>1.0</hdop></trkpt>
295    <trkpt lat="58.4056883" lon="15.5718750"><ele>70.30</ele><time>2005-11-27T09:41:28.000Z</time><course>77.4</course><speed>12.0</speed><fix>3d</fix><sat>9</sat><hdop>1.0</hdop></trkpt>
296    <trkpt lat="58.4057117" lon="15.5720817"><ele>71.00</ele><time>2005-11-27T09:41:29.000Z</time><course>78.0</course><speed>12.2</speed><fix>3d</fix><sat>9</sat><hdop>1.0</hdop></trkpt>
297    <trkpt lat="58.4057350" lon="15.5722883"><ele>71.40</ele><time>2005-11-27T09:41:30.000Z</time><course>78.5</course><speed>12.0</speed><fix>3d</fix><sat>9</sat><hdop>1.0</hdop></trkpt>
298    <trkpt lat="58.4057550" lon="15.5724917"><ele>71.70</ele><time>2005-11-27T09:41:31.000Z</time><course>78.3</course><speed>11.8</speed><fix>3d</fix><sat>9</sat><hdop>1.0</hdop></trkpt>
299    <trkpt lat="58.4057767" lon="15.5726917"><ele>72.00</ele><time>2005-11-27T09:41:32.000Z</time><course>78.3</course><speed>11.7</speed><fix>3d</fix><sat>9</sat><hdop>1.0</hdop></trkpt>
300    <trkpt lat="58.4057967" lon="15.5728883"><ele>72.40</ele><time>2005-11-27T09:41:33.000Z</time><course>78.9</course><speed>11.5</speed><fix>3d</fix><sat>9</sat><hdop>1.0</hdop></trkpt>
301    <trkpt lat="58.4058167" lon="15.5730800"><ele>72.90</ele><time>2005-11-27T09:41:34.000Z</time><course>78.8</course><speed>11.2</speed><fix>3d</fix><sat>9</sat><hdop>1.0</hdop></trkpt>
302    <trkpt lat="58.4058333" lon="15.5732617"><ele>73.30</ele><time>2005-11-27T09:41:35.000Z</time><course>79.4</course><speed>10.3</speed><fix>3d</fix><sat>9</sat><hdop>1.0</hdop></trkpt>
303    <trkpt lat="58.4058500" lon="15.5734267"><ele>73.60</ele><time>2005-11-27T09:41:36.000Z</time><course>79.1</course><speed>9.2</speed><fix>3d</fix><sat>9</sat><hdop>1.0</hdop></trkpt>
304    <trkpt lat="58.4058633" lon="15.5735717"><ele>73.90</ele><time>2005-11-27T09:41:37.000Z</time><course>79.4</course><speed>8.2</speed><fix>3d</fix><sat>9</sat><hdop>1.0</hdop></trkpt>
305    <trkpt lat="58.4058733" lon="15.5736967"><ele>74.10</ele><time>2005-11-27T09:41:38.000Z</time><course>79.9</course><speed>6.9</speed><fix>3d</fix><sat>9</sat><hdop>1.0</hdop></trkpt>
306    <trkpt lat="58.4058833" lon="15.5737900"><ele>74.60</ele><time>2005-11-27T09:41:39.000Z</time><course>79.9</course><speed>4.8</speed><fix>3d</fix><sat>9</sat><hdop>1.0</hdop></trkpt>
307    <trkpt lat="58.4058883" lon="15.5738483"><ele>75.00</ele><time>2005-11-27T09:41:40.000Z</time><course>77.6</course><speed>2.7</speed><fix>3d</fix><sat>9</sat><hdop>1.0</hdop></trkpt>
308    <trkpt lat="58.4058933" lon="15.5738683"><ele>75.50</ele><time>2005-11-27T09:41:41.000Z</time><course>58.7</course><speed>0.8</speed><fix>3d</fix><sat>9</sat><hdop>1.0</hdop></trkpt>
309    <trkpt lat="58.4058933" lon="15.5738667"><ele>75.40</ele><time>2005-11-27T09:41:42.000Z</time><course>132.5</course><speed>0.2</speed><fix>3d</fix><sat>9</sat><hdop>1.0</hdop></trkpt>
310    <trkpt lat="58.4058933" lon="15.5738617"><ele>75.50</ele><time>2005-11-27T09:41:43.000Z</time><course>5.8</course><speed>0.2</speed><fix>3d</fix><sat>9</sat><hdop>1.0</hdop></trkpt>
311    <trkpt lat="58.4058933" lon="15.5738567"><ele>75.90</ele><time>2005-11-27T09:41:44.000Z</time><course>28.9</course><speed>0.1</speed><fix>3d</fix><sat>9</sat><hdop>1.0</hdop></trkpt>
312    <trkpt lat="58.4058950" lon="15.5738483"><ele>76.30</ele><time>2005-11-27T09:41:45.000Z</time><course>186.1</course><speed>0.1</speed><fix>3d</fix><sat>9</sat><hdop>1.0</hdop></trkpt>
313    <trkpt lat="58.4058967" lon="15.5738433"><ele>77.00</ele><time>2005-11-27T09:41:46.000Z</time><course>154.8</course><speed>0.1</speed><fix>3d</fix><sat>9</sat><hdop>1.0</hdop></trkpt>
314    <trkpt lat="58.4058967" lon="15.5738400"><ele>76.90</ele><time>2005-11-27T09:41:47.000Z</time><course>65.2</course><speed>0.1</speed><fix>3d</fix><sat>9</sat><hdop>1.0</hdop></trkpt>
315    <trkpt lat="58.4059000" lon="15.5738317"><ele>77.10</ele><time>2005-11-27T09:41:48.000Z</time><course>10.0</course><speed>0.1</speed><fix>3d</fix><sat>9</sat><hdop>1.0</hdop></trkpt>
316    <trkpt lat="58.4059017" lon="15.5738250"><ele>77.00</ele><time>2005-11-27T09:41:49.000Z</time><course>2.3</course><speed>0.1</speed><fix>3d</fix><sat>9</sat><hdop>1.0</hdop></trkpt>
317    <trkpt lat="58.4059033" lon="15.5738217"><ele>77.20</ele><time>2005-11-27T09:41:50.000Z</time><course>41.0</course><speed>0.1</speed><fix>3d</fix><sat>9</sat><hdop>1.0</hdop></trkpt>
318    <trkpt lat="58.4059050" lon="15.5738183"><ele>77.30</ele><time>2005-11-27T09:41:51.000Z</time><course>41.0</course><speed>0.1</speed><fix>3d</fix><sat>9</sat><hdop>1.0</hdop></trkpt>
319    <trkpt lat="58.4059050" lon="15.5738167"><ele>77.60</ele><time>2005-11-27T09:41:52.000Z</time><course>352.9</course><speed>0.1</speed><fix>3d</fix><sat>9</sat><hdop>1.0</hdop></trkpt>
320    <trkpt lat="58.4059050" lon="15.5738133"><ele>77.70</ele><time>2005-11-27T09:41:53.000Z</time><course>9.1</course><speed>0.1</speed><fix>3d</fix><sat>9</sat><hdop>1.0</hdop></trkpt>
321    <trkpt lat="58.4059067" lon="15.5738083"><ele>77.70</ele><time>2005-11-27T09:41:54.000Z</time><course>350.3</course><speed>0.1</speed><fix>3d</fix><sat>8</sat><hdop>1.0</hdop></trkpt>
322    <trkpt lat="58.4059083" lon="15.5738050"><ele>78.00</ele><time>2005-11-27T09:41:55.000Z</time><course>345.6</course><speed>0.1</speed><fix>3d</fix><sat>8</sat><hdop>1.0</hdop></trkpt>
323    <trkpt lat="58.4059100" lon="15.5738000"><ele>78.10</ele><time>2005-11-27T09:41:56.000Z</time><course>357.9</course><speed>0.1</speed><fix>3d</fix><sat>8</sat><hdop>1.0</hdop></trkpt>
324    <trkpt lat="58.4059100" lon="15.5737967"><ele>77.60</ele><time>2005-11-27T09:41:57.000Z</time><course>12.0</course><speed>0.2</speed><fix>3d</fix><sat>9</sat><hdop>1.0</hdop></trkpt>
325    <trkpt lat="58.4059117" lon="15.5737917"><ele>77.60</ele><time>2005-11-27T09:41:58.000Z</time><course>12.0</course><speed>0.2</speed><fix>3d</fix><sat>8</sat><hdop>1.0</hdop></trkpt>
326    <trkpt lat="58.4059167" lon="15.5737867"><ele>77.90</ele><time>2005-11-27T09:41:59.000Z</time><course>51.6</course><speed>0.1</speed><fix>3d</fix><sat>9</sat><hdop>1.0</hdop></trkpt>
327    <trkpt lat="58.4059200" lon="15.5737867"><ele>78.50</ele><time>2005-11-27T09:42:00.000Z</time><course>72.3</course><speed>0.4</speed><fix>3d</fix><sat>9</sat><hdop>1.0</hdop></trkpt>
328    <trkpt lat="58.4059217" lon="15.5737967"><ele>79.00</ele><time>2005-11-27T09:42:01.000Z</time><course>76.9</course><speed>1.0</speed><fix>3d</fix><sat>9</sat><hdop>1.0</hdop></trkpt>
329    <trkpt lat="58.4059250" lon="15.5738167"><ele>79.50</ele><time>2005-11-27T09:42:02.000Z</time><course>77.1</course><speed>1.4</speed><fix>3d</fix><sat>9</sat><hdop>1.0</hdop></trkpt>
330    <trkpt lat="58.4059300" lon="15.5738433"><ele>79.70</ele><time>2005-11-27T09:42:03.000Z</time><course>76.8</course><speed>2.0</speed><fix>3d</fix><sat>9</sat><hdop>1.0</hdop></trkpt>
331    <trkpt lat="58.4059350" lon="15.5738817"><ele>79.90</ele><time>2005-11-27T09:42:04.000Z</time><course>76.0</course><speed>2.6</speed><fix>3d</fix><sat>9</sat><hdop>1.0</hdop></trkpt>
332    <trkpt lat="58.4059417" lon="15.5739333"><ele>80.70</ele><time>2005-11-27T09:42:05.000Z</time><course>76.5</course><speed>3.3</speed><fix>3d</fix><sat>9</sat><hdop>1.0</hdop></trkpt>
333    <trkpt lat="58.4059500" lon="15.5740017"><ele>81.10</ele><time>2005-11-27T09:42:06.000Z</time><course>76.5</course><speed>3.3</speed><fix>3d</fix><sat>9</sat><hdop>1.0</hdop></trkpt>
334    <trkpt lat="58.4059617" lon="15.5740850"><ele>81.10</ele><time>2005-11-27T09:42:07.000Z</time><course>74.5</course><speed>5.4</speed><fix>3d</fix><sat>9</sat><hdop>1.0</hdop></trkpt>
335    <trkpt lat="58.4059733" lon="15.5741867"><ele>80.80</ele><time>2005-11-27T09:42:08.000Z</time><course>78.3</course><speed>6.2</speed><fix>3d</fix><sat>9</sat><hdop>1.0</hdop></trkpt>
336    <trkpt lat="58.4059833" lon="15.5743017"><ele>80.80</ele><time>2005-11-27T09:42:09.000Z</time><course>79.5</course><speed>7.0</speed><fix>3d</fix><sat>9</sat><hdop>1.0</hdop></trkpt>
337    <trkpt lat="58.4059967" lon="15.5744283"><ele>80.50</ele><time>2005-11-27T09:42:10.000Z</time><course>78.3</course><speed>7.8</speed><fix>3d</fix><sat>9</sat><hdop>1.0</hdop></trkpt>
338    <trkpt lat="58.4060117" lon="15.5745667"><ele>80.10</ele><time>2005-11-27T09:42:11.000Z</time><course>78.3</course><speed>7.8</speed><fix>3d</fix><sat>9</sat><hdop>1.0</hdop></trkpt>
339    <trkpt lat="58.4060283" lon="15.5747150"><ele>80.00</ele><time>2005-11-27T09:42:12.000Z</time><course>76.5</course><speed>8.9</speed><fix>3d</fix><sat>9</sat><hdop>1.0</hdop></trkpt>
340    <trkpt lat="58.4060450" lon="15.5748717"><ele>80.20</ele><time>2005-11-27T09:42:13.000Z</time><course>78.3</course><speed>9.5</speed><fix>3d</fix><sat>9</sat><hdop>1.0</hdop></trkpt>
341    <trkpt lat="58.4060617" lon="15.5750383"><ele>80.00</ele><time>2005-11-27T09:42:14.000Z</time><course>79.2</course><speed>10.2</speed><fix>3d</fix><sat>9</sat><hdop>1.0</hdop></trkpt>
342    <trkpt lat="58.4060783" lon="15.5752167"><ele>79.80</ele><time>2005-11-27T09:42:15.000Z</time><course>80.5</course><speed>10.6</speed><fix>3d</fix><sat>9</sat><hdop>1.0</hdop></trkpt>
343    <trkpt lat="58.4060933" lon="15.5754000"><ele>79.50</ele><time>2005-11-27T09:42:16.000Z</time><course>80.2</course><speed>10.8</speed><fix>3d</fix><sat>9</sat><hdop>1.0</hdop></trkpt>
344    <trkpt lat="58.4061100" lon="15.5755867"><ele>79.30</ele><time>2005-11-27T09:42:17.000Z</time><course>80.0</course><speed>11.1</speed><fix>3d</fix><sat>9</sat><hdop>1.0</hdop></trkpt>
345    <trkpt lat="58.4061267" lon="15.5757783"><ele>78.50</ele><time>2005-11-27T09:42:18.000Z</time><course>79.0</course><speed>11.1</speed><fix>3d</fix><sat>9</sat><hdop>1.0</hdop></trkpt>
346    <trkpt lat="58.4061450" lon="15.5759667"><ele>77.70</ele><time>2005-11-27T09:42:19.000Z</time><course>78.1</course><speed>11.0</speed><fix>3d</fix><sat>9</sat><hdop>1.0</hdop></trkpt>
347    <trkpt lat="58.4061633" lon="15.5761550"><ele>77.60</ele><time>2005-11-27T09:42:20.000Z</time><course>77.5</course><speed>10.9</speed><fix>3d</fix><sat>9</sat><hdop>1.0</hdop></trkpt>
348    <trkpt lat="58.4061833" lon="15.5763367"><ele>77.50</ele><time>2005-11-27T09:42:21.000Z</time><course>77.8</course><speed>10.6</speed><fix>3d</fix><sat>9</sat><hdop>1.0</hdop></trkpt>
349    <trkpt lat="58.4062033" lon="15.5765083"><ele>77.20</ele><time>2005-11-27T09:42:22.000Z</time><course>75.4</course><speed>10.3</speed><fix>3d</fix><sat>9</sat><hdop>1.0</hdop></trkpt>
350    <trkpt lat="58.4062283" lon="15.5766750"><ele>77.00</ele><time>2005-11-27T09:42:23.000Z</time><course>72.2</course><speed>9.9</speed><fix>3d</fix><sat>9</sat><hdop>1.0</hdop></trkpt>
351    <trkpt lat="58.4062617" lon="15.5768350"><ele>77.00</ele><time>2005-11-27T09:42:24.000Z</time><course>66.0</course><speed>10.1</speed><fix>3d</fix><sat>9</sat><hdop>1.0</hdop></trkpt>
352    <trkpt lat="58.4063017" lon="15.5769933"><ele>76.70</ele><time>2005-11-27T09:42:25.000Z</time><course>64.4</course><speed>10.3</speed><fix>3d</fix><sat>9</sat><hdop>1.0</hdop></trkpt>
353    <trkpt lat="58.4063467" lon="15.5771533"><ele>76.40</ele><time>2005-11-27T09:42:26.000Z</time><course>64.4</course><speed>10.3</speed><fix>3d</fix><sat>9</sat><hdop>1.0</hdop></trkpt>
354    <trkpt lat="58.4063967" lon="15.5773117"><ele>76.50</ele><time>2005-11-27T09:42:27.000Z</time><course>56.5</course><speed>10.7</speed><fix>3d</fix><sat>9</sat><hdop>1.0</hdop></trkpt>
355    <trkpt lat="58.4064533" lon="15.5774633"><ele>76.70</ele><time>2005-11-27T09:42:28.000Z</time><course>53.1</course><speed>10.8</speed><fix>3d</fix><sat>9</sat><hdop>1.0</hdop></trkpt>
356    <trkpt lat="58.4065133" lon="15.5776117"><ele>76.40</ele><time>2005-11-27T09:42:29.000Z</time><course>49.7</course><speed>11.2</speed><fix>3d</fix><sat>9</sat><hdop>1.0</hdop></trkpt>
357    <trkpt lat="58.4065817" lon="15.5777583"><ele>76.30</ele><time>2005-11-27T09:42:30.000Z</time><course>47.2</course><speed>11.6</speed><fix>3d</fix><sat>9</sat><hdop>1.0</hdop></trkpt>
358    <trkpt lat="58.4066533" lon="15.5779067"><ele>76.00</ele><time>2005-11-27T09:42:31.000Z</time><course>46.6</course><speed>11.9</speed><fix>3d</fix><sat>9</sat><hdop>1.0</hdop></trkpt>
359    <trkpt lat="58.4067283" lon="15.5780533"><ele>75.50</ele><time>2005-11-27T09:42:32.000Z</time><course>45.1</course><speed>12.0</speed><fix>3d</fix><sat>9</sat><hdop>1.0</hdop></trkpt>
360    <trkpt lat="58.4068033" lon="15.5782000"><ele>74.90</ele><time>2005-11-27T09:42:33.000Z</time><course>45.7</course><speed>12.3</speed><fix>3d</fix><sat>9</sat><hdop>1.0</hdop></trkpt>
361    <trkpt lat="58.4068783" lon="15.5783517"><ele>74.20</ele><time>2005-11-27T09:42:34.000Z</time><course>45.9</course><speed>12.5</speed><fix>3d</fix><sat>9</sat><hdop>1.0</hdop></trkpt>
362    <trkpt lat="58.4069567" lon="15.5785017"><ele>73.80</ele><time>2005-11-27T09:42:35.000Z</time><course>45.0</course><speed>12.4</speed><fix>3d</fix><sat>9</sat><hdop>1.0</hdop></trkpt>
363    <trkpt lat="58.4070350" lon="15.5786500"><ele>73.40</ele><time>2005-11-27T09:42:36.000Z</time><course>45.1</course><speed>12.3</speed><fix>3d</fix><sat>9</sat><hdop>1.0</hdop></trkpt>
364    <trkpt lat="58.4071100" lon="15.5787967"><ele>73.10</ele><time>2005-11-27T09:42:37.000Z</time><course>45.6</course><speed>12.2</speed><fix>3d</fix><sat>9</sat><hdop>1.0</hdop></trkpt>
365    <trkpt lat="58.4071850" lon="15.5789450"><ele>72.70</ele><time>2005-11-27T09:42:38.000Z</time><course>46.6</course><speed>12.0</speed><fix>3d</fix><sat>9</sat><hdop>1.0</hdop></trkpt>
366    <trkpt lat="58.4072567" lon="15.5790933"><ele>72.90</ele><time>2005-11-27T09:42:39.000Z</time><course>48.4</course><speed>11.8</speed><fix>3d</fix><sat>9</sat><hdop>1.0</hdop></trkpt>
367    <trkpt lat="58.4073250" lon="15.5792483"><ele>72.80</ele><time>2005-11-27T09:42:40.000Z</time><course>52.3</course><speed>11.8</speed><fix>3d</fix><sat>9</sat><hdop>1.0</hdop></trkpt>
368    <trkpt lat="58.4073833" lon="15.5794117"><ele>72.90</ele><time>2005-11-27T09:42:41.000Z</time><course>57.9</course><speed>11.6</speed><fix>3d</fix><sat>9</sat><hdop>1.0</hdop></trkpt>
369    <trkpt lat="58.4074350" lon="15.5795817"><ele>73.00</ele><time>2005-11-27T09:42:42.000Z</time><course>57.9</course><speed>11.6</speed><fix>3d</fix><sat>8</sat><hdop>1.0</hdop></trkpt>
370    <trkpt lat="58.4074733" lon="15.5797583"><ele>73.20</ele><time>2005-11-27T09:42:43.000Z</time><course>70.2</course><speed>10.9</speed><fix>3d</fix><sat>9</sat><hdop>1.0</hdop></trkpt>
371    <trkpt lat="58.4075017" lon="15.5799450"><ele>73.20</ele><time>2005-11-27T09:42:44.000Z</time><course>76.2</course><speed>11.6</speed><fix>3d</fix><sat>9</sat><hdop>1.0</hdop></trkpt>
372    <trkpt lat="58.4075183" lon="15.5801400"><ele>73.10</ele><time>2005-11-27T09:42:45.000Z</time><course>83.1</course><speed>11.4</speed><fix>3d</fix><sat>9</sat><hdop>1.0</hdop></trkpt>
373    <trkpt lat="58.4075217" lon="15.5803300"><ele>72.60</ele><time>2005-11-27T09:42:46.000Z</time><course>83.1</course><speed>11.4</speed><fix>3d</fix><sat>9</sat><hdop>1.0</hdop></trkpt>
374    <trkpt lat="58.4075133" lon="15.5805117"><ele>72.30</ele><time>2005-11-27T09:42:47.000Z</time><course>96.9</course><speed>10.4</speed><fix>3d</fix><sat>9</sat><hdop>1.0</hdop></trkpt>
375    <trkpt lat="58.4074967" lon="15.5806833"><ele>72.10</ele><time>2005-11-27T09:42:48.000Z</time><course>102.2</course><speed>10.0</speed><fix>3d</fix><sat>9</sat><hdop>1.0</hdop></trkpt>
376    <trkpt lat="58.4074717" lon="15.5808483"><ele>72.50</ele><time>2005-11-27T09:42:49.000Z</time><course>110.1</course><speed>9.5</speed><fix>3d</fix><sat>9</sat><hdop>1.0</hdop></trkpt>
377    <trkpt lat="58.4074333" lon="15.5809933"><ele>73.00</ele><time>2005-11-27T09:42:50.000Z</time><course>117.7</course><speed>9.0</speed><fix>3d</fix><sat>9</sat><hdop>1.0</hdop></trkpt>
378    <trkpt lat="58.4073850" lon="15.5811200"><ele>73.40</ele><time>2005-11-27T09:42:51.000Z</time><course>129.0</course><speed>8.8</speed><fix>3d</fix><sat>9</sat><hdop>1.0</hdop></trkpt>
379    <trkpt lat="58.4073233" lon="15.5812167"><ele>73.30</ele><time>2005-11-27T09:42:52.000Z</time><course>143.0</course><speed>8.2</speed><fix>3d</fix><sat>9</sat><hdop>1.0</hdop></trkpt>
380    <trkpt lat="58.4072600" lon="15.5812783"><ele>73.10</ele><time>2005-11-27T09:42:53.000Z</time><course>155.4</course><speed>7.2</speed><fix>3d</fix><sat>9</sat><hdop>1.0</hdop></trkpt>
381    <trkpt lat="58.4072000" lon="15.5813183"><ele>73.20</ele><time>2005-11-27T09:42:54.000Z</time><course>162.7</course><speed>6.5</speed><fix>3d</fix><sat>9</sat><hdop>1.0</hdop></trkpt>
382    <trkpt lat="58.4071483" lon="15.5813367"><ele>73.00</ele><time>2005-11-27T09:42:55.000Z</time><course>174.0</course><speed>5.4</speed><fix>3d</fix><sat>9</sat><hdop>1.0</hdop></trkpt>
383    <trkpt lat="58.4071083" lon="15.5813417"><ele>72.50</ele><time>2005-11-27T09:42:56.000Z</time><course>174.0</course><speed>5.4</speed><fix>3d</fix><sat>9</sat><hdop>1.0</hdop></trkpt>
384    <trkpt lat="58.4070800" lon="15.5813450"><ele>72.40</ele><time>2005-11-27T09:42:57.000Z</time><course>181.7</course><speed>1.9</speed><fix>3d</fix><sat>9</sat><hdop>1.0</hdop></trkpt>
385    <trkpt lat="58.4070667" lon="15.5813467"><ele>72.80</ele><time>2005-11-27T09:42:58.000Z</time><course>186.4</course><speed>1.0</speed><fix>3d</fix><sat>9</sat><hdop>1.0</hdop></trkpt>
386    <trkpt lat="58.4070567" lon="15.5813383"><ele>71.20</ele><time>2005-11-27T09:42:59.000Z</time><course>187.6</course><speed>1.2</speed><fix>3d</fix><sat>9</sat><hdop>1.0</hdop></trkpt>
387    <trkpt lat="58.4070450" lon="15.5813367"><ele>70.50</ele><time>2005-11-27T09:43:00.000Z</time><course>182.1</course><speed>0.9</speed><fix>3d</fix><sat>9</sat><hdop>1.0</hdop></trkpt>
388    <trkpt lat="58.4070350" lon="15.5813333"><ele>69.30</ele><time>2005-11-27T09:43:01.000Z</time><course>206.5</course><speed>0.5</speed><fix>3d</fix><sat>9</sat><hdop>1.0</hdop></trkpt>
389    <trkpt lat="58.4070283" lon="15.5813333"><ele>68.90</ele><time>2005-11-27T09:43:02.000Z</time><course>238.9</course><speed>0.2</speed><fix>3d</fix><sat>9</sat><hdop>1.0</hdop></trkpt>
390    <trkpt lat="58.4070250" lon="15.5813350"><ele>68.70</ele><time>2005-11-27T09:43:03.000Z</time><course>9.5</course><speed>0</speed><fix>3d</fix><sat>9</sat><hdop>1.0</hdop></trkpt>
391    <trkpt lat="58.4070217" lon="15.5813367"><ele>68.30</ele><time>2005-11-27T09:43:04.000Z</time><course>303.4</course><speed>0.1</speed><fix>3d</fix><sat>9</sat><hdop>1.0</hdop></trkpt>
392    <trkpt lat="58.4070167" lon="15.5813383"><ele>68.00</ele><time>2005-11-27T09:43:05.000Z</time><course>31.9</course><speed>0</speed><fix>3d</fix><sat>9</sat><hdop>1.0</hdop></trkpt>
393    <trkpt lat="58.4070117" lon="15.5813417"><ele>68.10</ele><time>2005-11-27T09:43:06.000Z</time><course>1.5</course><speed>0</speed><fix>3d</fix><sat>9</sat><hdop>1.0</hdop></trkpt>
394    <trkpt lat="58.4070067" lon="15.5813433"><ele>68.10</ele><time>2005-11-27T09:43:07.000Z</time><course>184.4</course><speed>0.2</speed><fix>3d</fix><sat>9</sat><hdop>1.0</hdop></trkpt>
395    <trkpt lat="58.4070017" lon="15.5813450"><ele>68.20</ele><time>2005-11-27T09:43:08.000Z</time><course>185.4</course><speed>0.5</speed><fix>3d</fix><sat>9</sat><hdop>1.0</hdop></trkpt>
396    <trkpt lat="58.4069900" lon="15.5813450"><ele>68.10</ele><time>2005-11-27T09:43:09.000Z</time><course>189.9</course><speed>1.3</speed><fix>3d</fix><sat>9</sat><hdop>1.0</hdop></trkpt>
397    <trkpt lat="58.4069700" lon="15.5813400"><ele>67.90</ele><time>2005-11-27T09:43:10.000Z</time><course>189.5</course><speed>2.2</speed><fix>3d</fix><sat>9</sat><hdop>1.0</hdop></trkpt>
398    <trkpt lat="58.4069433" lon="15.5813333"><ele>67.50</ele><time>2005-11-27T09:43:11.000Z</time><course>189.4</course><speed>3.3</speed><fix>3d</fix><sat>9</sat><hdop>1.0</hdop></trkpt>
399    <trkpt lat="58.4069067" lon="15.5813183"><ele>67.20</ele><time>2005-11-27T09:43:12.000Z</time><course>192.9</course><speed>4.4</speed><fix>3d</fix><sat>9</sat><hdop>1.0</hdop></trkpt>
400    <trkpt lat="58.4068617" lon="15.5812933"><ele>66.40</ele><time>2005-11-27T09:43:13.000Z</time><course>197.0</course><speed>5.6</speed><fix>3d</fix><sat>9</sat><hdop>1.0</hdop></trkpt>
401    <trkpt lat="58.4068067" lon="15.5812600"><ele>66.30</ele><time>2005-11-27T09:43:14.000Z</time><course>199.8</course><speed>6.5</speed><fix>3d</fix><sat>9</sat><hdop>1.0</hdop></trkpt>
402    <trkpt lat="58.4067500" lon="15.5812150"><ele>66.40</ele><time>2005-11-27T09:43:15.000Z</time><course>203.4</course><speed>7.2</speed><fix>3d</fix><sat>9</sat><hdop>1.0</hdop></trkpt>
403    <trkpt lat="58.4066883" lon="15.5811583"><ele>66.70</ele><time>2005-11-27T09:43:16.000Z</time><course>205.2</course><speed>7.9</speed><fix>3d</fix><sat>9</sat><hdop>1.0</hdop></trkpt>
404    <trkpt lat="58.4066200" lon="15.5811000"><ele>67.40</ele><time>2005-11-27T09:43:17.000Z</time><course>204.1</course><speed>8.5</speed><fix>3d</fix><sat>9</sat><hdop>1.0</hdop></trkpt>
405    <trkpt lat="58.4065483" lon="15.5810383"><ele>67.50</ele><time>2005-11-27T09:43:18.000Z</time><course>201.8</course><speed>8.7</speed><fix>3d</fix><sat>9</sat><hdop>1.0</hdop></trkpt>
406    <trkpt lat="58.4064717" lon="15.5809833"><ele>67.40</ele><time>2005-11-27T09:43:19.000Z</time><course>197.3</course><speed>9.3</speed><fix>3d</fix><sat>9</sat><hdop>1.0</hdop></trkpt>
407    <trkpt lat="58.4063883" lon="15.5809417"><ele>67.40</ele><time>2005-11-27T09:43:20.000Z</time><course>191.1</course><speed>9.6</speed><fix>3d</fix><sat>9</sat><hdop>1.0</hdop></trkpt>
408    <trkpt lat="58.4063017" lon="15.5809217"><ele>67.80</ele><time>2005-11-27T09:43:21.000Z</time><course>184.0</course><speed>9.8</speed><fix>3d</fix><sat>9</sat><hdop>1.0</hdop></trkpt>
409    <trkpt lat="58.4062117" lon="15.5809200"><ele>67.80</ele><time>2005-11-27T09:43:22.000Z</time><course>176.6</course><speed>10.0</speed><fix>3d</fix><sat>9</sat><hdop>1.0</hdop></trkpt>
410    <trkpt lat="58.4061200" lon="15.5809433"><ele>68.00</ele><time>2005-11-27T09:43:23.000Z</time><course>169.1</course><speed>10.2</speed><fix>3d</fix><sat>9</sat><hdop>1.0</hdop></trkpt>
411    <trkpt lat="58.4060300" lon="15.5809917"><ele>68.10</ele><time>2005-11-27T09:43:24.000Z</time><course>161.3</course><speed>10.5</speed><fix>3d</fix><sat>9</sat><hdop>1.0</hdop></trkpt>
412    <trkpt lat="58.4059400" lon="15.5810633"><ele>68.30</ele><time>2005-11-27T09:43:25.000Z</time><course>153.9</course><speed>10.8</speed><fix>3d</fix><sat>9</sat><hdop>1.0</hdop></trkpt>
413    <trkpt lat="58.4058583" lon="15.5811550"><ele>68.30</ele><time>2005-11-27T09:43:26.000Z</time><course>146.4</course><speed>10.4</speed><fix>3d</fix><sat>9</sat><hdop>1.0</hdop></trkpt>
414    <trkpt lat="58.4057817" lon="15.5812667"><ele>68.20</ele><time>2005-11-27T09:43:27.000Z</time><course>139.4</course><speed>10.6</speed><fix>3d</fix><sat>9</sat><hdop>1.0</hdop></trkpt>
415    <trkpt lat="58.4057133" lon="15.5814000"><ele>68.10</ele><time>2005-11-27T09:43:28.000Z</time><course>131.6</course><speed>10.8</speed><fix>3d</fix><sat>9</sat><hdop>1.0</hdop></trkpt>
416    <trkpt lat="58.4056567" lon="15.5815533"><ele>68.80</ele><time>2005-11-27T09:43:29.000Z</time><course>124.6</course><speed>10.8</speed><fix>3d</fix><sat>9</sat><hdop>1.0</hdop></trkpt>
417    <trkpt lat="58.4056083" lon="15.5817183"><ele>69.10</ele><time>2005-11-27T09:43:30.000Z</time><course>116.2</course><speed>11.0</speed><fix>3d</fix><sat>9</sat><hdop>1.0</hdop></trkpt>
418    <trkpt lat="58.4055717" lon="15.5818950"><ele>69.40</ele><time>2005-11-27T09:43:31.000Z</time><course>111.3</course><speed>11.1</speed><fix>3d</fix><sat>9</sat><hdop>1.0</hdop></trkpt>
419    <trkpt lat="58.4055467" lon="15.5820867"><ele>70.70</ele><time>2005-11-27T09:43:32.000Z</time><course>104.5</course><speed>11.1</speed><fix>3d</fix><sat>9</sat><hdop>1.0</hdop></trkpt>
420    <trkpt lat="58.4055300" lon="15.5822800"><ele>70.60</ele><time>2005-11-27T09:43:33.000Z</time><course>98.9</course><speed>11.4</speed><fix>3d</fix><sat>9</sat><hdop>1.0</hdop></trkpt>
421    <trkpt lat="58.4055233" lon="15.5824767"><ele>71.00</ele><time>2005-11-27T09:43:34.000Z</time><course>94.1</course><speed>11.3</speed><fix>3d</fix><sat>9</sat><hdop>1.0</hdop></trkpt>
422    <trkpt lat="58.4055233" lon="15.5826750"><ele>71.30</ele><time>2005-11-27T09:43:35.000Z</time><course>88.5</course><speed>11.5</speed><fix>3d</fix><sat>9</sat><hdop>1.0</hdop></trkpt>
423    <trkpt lat="58.4055317" lon="15.5828733"><ele>71.50</ele><time>2005-11-27T09:43:36.000Z</time><course>83.6</course><speed>11.4</speed><fix>3d</fix><sat>9</sat><hdop>1.0</hdop></trkpt>
424    <trkpt lat="58.4055500" lon="15.5830650"><ele>72.00</ele><time>2005-11-27T09:43:37.000Z</time><course>78.8</course><speed>11.1</speed><fix>3d</fix><sat>9</sat><hdop>1.0</hdop></trkpt>
425    <trkpt lat="58.4055783" lon="15.5832533"><ele>72.50</ele><time>2005-11-27T09:43:38.000Z</time><course>73.2</course><speed>11.3</speed><fix>3d</fix><sat>9</sat><hdop>1.0</hdop></trkpt>
426    <trkpt lat="58.4056167" lon="15.5834383"><ele>73.10</ele><time>2005-11-27T09:43:39.000Z</time><course>68.4</course><speed>11.3</speed><fix>3d</fix><sat>9</sat><hdop>1.0</hdop></trkpt>
427    <trkpt lat="58.4056633" lon="15.5836133"><ele>73.60</ele><time>2005-11-27T09:43:40.000Z</time><course>61.9</course><speed>11.3</speed><fix>3d</fix><sat>9</sat><hdop>1.0</hdop></trkpt>
428    <trkpt lat="58.4057183" lon="15.5837817"><ele>73.60</ele><time>2005-11-27T09:43:41.000Z</time><course>56.9</course><speed>11.3</speed><fix>3d</fix><sat>9</sat><hdop>1.0</hdop></trkpt>
429    <trkpt lat="58.4057783" lon="15.5839350"><ele>73.40</ele><time>2005-11-27T09:43:42.000Z</time><course>50.7</course><speed>11.3</speed><fix>3d</fix><sat>9</sat><hdop>1.0</hdop></trkpt>
430    <trkpt lat="58.4058500" lon="15.5840767"><ele>72.90</ele><time>2005-11-27T09:43:43.000Z</time><course>45.1</course><speed>11.3</speed><fix>3d</fix><sat>9</sat><hdop>1.0</hdop></trkpt>
431    <trkpt lat="58.4059300" lon="15.5842017"><ele>72.60</ele><time>2005-11-27T09:43:44.000Z</time><course>45.1</course><speed>11.3</speed><fix>3d</fix><sat>8</sat><hdop>1.0</hdop></trkpt>
432    <trkpt lat="58.4060167" lon="15.5843083"><ele>72.30</ele><time>2005-11-27T09:43:45.000Z</time><course>31.6</course><speed>11.4</speed><fix>3d</fix><sat>9</sat><hdop>1.0</hdop></trkpt>
433    <trkpt lat="58.4061050" lon="15.5843983"><ele>71.50</ele><time>2005-11-27T09:43:46.000Z</time><course>26.8</course><speed>11.2</speed><fix>3d</fix><sat>9</sat><hdop>1.0</hdop></trkpt>
434    <trkpt lat="58.4061950" lon="15.5844767"><ele>71.00</ele><time>2005-11-27T09:43:47.000Z</time><course>25.6</course><speed>11.0</speed><fix>3d</fix><sat>9</sat><hdop>1.0</hdop></trkpt>
435    <trkpt lat="58.4062833" lon="15.5845600"><ele>70.40</ele><time>2005-11-27T09:43:48.000Z</time><course>28.5</course><speed>10.9</speed><fix>3d</fix><sat>9</sat><hdop>1.0</hdop></trkpt>
436    <trkpt lat="58.4063667" lon="15.5846533"><ele>70.00</ele><time>2005-11-27T09:43:49.000Z</time><course>34.5</course><speed>10.8</speed><fix>3d</fix><sat>9</sat><hdop>1.0</hdop></trkpt>
437    <trkpt lat="58.4064417" lon="15.5847633"><ele>69.70</ele><time>2005-11-27T09:43:50.000Z</time><course>40.9</course><speed>10.5</speed><fix>3d</fix><sat>9</sat><hdop>1.0</hdop></trkpt>
438    <trkpt lat="58.4065067" lon="15.5848950"><ele>69.10</ele><time>2005-11-27T09:43:51.000Z</time><course>50.9</course><speed>10.8</speed><fix>3d</fix><sat>9</sat><hdop>1.0</hdop></trkpt>
439    <trkpt lat="58.4065617" lon="15.5850433"><ele>69.10</ele><time>2005-11-27T09:43:52.000Z</time><course>59.1</course><speed>10.3</speed><fix>3d</fix><sat>9</sat><hdop>1.0</hdop></trkpt>
440    <trkpt lat="58.4066000" lon="15.5852050"><ele>69.10</ele><time>2005-11-27T09:43:53.000Z</time><course>68.9</course><speed>10.3</speed><fix>3d</fix><sat>9</sat><hdop>1.0</hdop></trkpt>
441    <trkpt lat="58.4066283" lon="15.5853833"><ele>69.30</ele><time>2005-11-27T09:43:54.000Z</time><course>75.0</course><speed>11.0</speed><fix>3d</fix><sat>9</sat><hdop>1.0</hdop></trkpt>
442    <trkpt lat="58.4066500" lon="15.5855733"><ele>69.60</ele><time>2005-11-27T09:43:55.000Z</time><course>77.7</course><speed>11.3</speed><fix>3d</fix><sat>9</sat><hdop>1.0</hdop></trkpt>
443    <trkpt lat="58.4066700" lon="15.5857650"><ele>69.90</ele><time>2005-11-27T09:43:56.000Z</time><course>77.0</course><speed>11.7</speed><fix>3d</fix><sat>9</sat><hdop>1.0</hdop></trkpt>
444    <trkpt lat="58.4066933" lon="15.5859667"><ele>70.30</ele><time>2005-11-27T09:43:57.000Z</time><course>77.3</course><speed>12.1</speed><fix>3d</fix><sat>9</sat><hdop>1.0</hdop></trkpt>
445    <trkpt lat="58.4067150" lon="15.5861750"><ele>70.50</ele><time>2005-11-27T09:43:58.000Z</time><course>77.1</course><speed>12.4</speed><fix>3d</fix><sat>9</sat><hdop>1.0</hdop></trkpt>
446    <trkpt lat="58.4067417" lon="15.5863867"><ele>71.20</ele><time>2005-11-27T09:43:59.000Z</time><course>75.5</course><speed>12.7</speed><fix>3d</fix><sat>9</sat><hdop>1.0</hdop></trkpt>
447    <trkpt lat="58.4067650" lon="15.5866033"><ele>71.20</ele><time>2005-11-27T09:44:00.000Z</time><course>77.4</course><speed>12.9</speed><fix>3d</fix><sat>9</sat><hdop>1.0</hdop></trkpt>
448    <trkpt lat="58.4067917" lon="15.5868217"><ele>71.60</ele><time>2005-11-27T09:44:01.000Z</time><course>75.7</course><speed>12.9</speed><fix>3d</fix><sat>9</sat><hdop>1.0</hdop></trkpt>
449    <trkpt lat="58.4068183" lon="15.5870433"><ele>72.10</ele><time>2005-11-27T09:44:02.000Z</time><course>75.8</course><speed>12.9</speed><fix>3d</fix><sat>9</sat><hdop>1.0</hdop></trkpt>
450    <trkpt lat="58.4068433" lon="15.5872600"><ele>72.60</ele><time>2005-11-27T09:44:03.000Z</time><course>76.6</course><speed>12.7</speed><fix>3d</fix><sat>9</sat><hdop>1.0</hdop></trkpt>
451    <trkpt lat="58.4068683" lon="15.5874733"><ele>73.30</ele><time>2005-11-27T09:44:04.000Z</time><course>76.6</course><speed>12.6</speed><fix>3d</fix><sat>9</sat><hdop>1.0</hdop></trkpt>
452    <trkpt lat="58.4068933" lon="15.5876800"><ele>73.80</ele><time>2005-11-27T09:44:05.000Z</time><course>77.6</course><speed>12.0</speed><fix>3d</fix><sat>9</sat><hdop>1.0</hdop></trkpt>
453    <trkpt lat="58.4069117" lon="15.5878767"><ele>74.00</ele><time>2005-11-27T09:44:06.000Z</time><course>77.6</course><speed>12.0</speed><fix>3d</fix><sat>9</sat><hdop>1.0</hdop></trkpt>
454    <trkpt lat="58.4069267" lon="15.5880567"><ele>73.80</ele><time>2005-11-27T09:44:07.000Z</time><course>81.3</course><speed>10.3</speed><fix>3d</fix><sat>9</sat><hdop>1.0</hdop></trkpt>
455    <trkpt lat="58.4069400" lon="15.5882333"><ele>73.60</ele><time>2005-11-27T09:44:08.000Z</time><course>80.6</course><speed>10.3</speed><fix>3d</fix><sat>9</sat><hdop>1.0</hdop></trkpt>
456    <trkpt lat="58.4069567" lon="15.5884033"><ele>73.40</ele><time>2005-11-27T09:44:09.000Z</time><course>77.2</course><speed>10.2</speed><fix>3d</fix><sat>9</sat><hdop>1.0</hdop></trkpt>
457    <trkpt lat="58.4069733" lon="15.5885683"><ele>73.40</ele><time>2005-11-27T09:44:10.000Z</time><course>77.7</course><speed>9.5</speed><fix>3d</fix><sat>9</sat><hdop>1.0</hdop></trkpt>
458    <trkpt lat="58.4069867" lon="15.5887217"><ele>73.90</ele><time>2005-11-27T09:44:11.000Z</time><course>77.7</course><speed>9.5</speed><fix>3d</fix><sat>9</sat><hdop>1.0</hdop></trkpt>
459    <trkpt lat="58.4069983" lon="15.5888600"><ele>73.80</ele><time>2005-11-27T09:44:12.000Z</time><course>77.9</course><speed>8.1</speed><fix>3d</fix><sat>9</sat><hdop>1.0</hdop></trkpt>
460    <trkpt lat="58.4070100" lon="15.5889833"><ele>73.80</ele><time>2005-11-27T09:44:13.000Z</time><course>79.0</course><speed>7.0</speed><fix>3d</fix><sat>9</sat><hdop>1.0</hdop></trkpt>
461    <trkpt lat="58.4070200" lon="15.5890917"><ele>73.00</ele><time>2005-11-27T09:44:14.000Z</time><course>78.9</course><speed>6.1</speed><fix>3d</fix><sat>9</sat><hdop>1.0</hdop></trkpt>
462    <trkpt lat="58.4070283" lon="15.5891833"><ele>71.80</ele><time>2005-11-27T09:44:15.000Z</time><course>78.1</course><speed>5.0</speed><fix>3d</fix><sat>9</sat><hdop>1.0</hdop></trkpt>
463    <trkpt lat="58.4070300" lon="15.5892583"><ele>71.40</ele><time>2005-11-27T09:44:16.000Z</time><course>87.6</course><speed>4.2</speed><fix>3d</fix><sat>9</sat><hdop>1.0</hdop></trkpt>
464    <trkpt lat="58.4070283" lon="15.5893267"><ele>71.00</ele><time>2005-11-27T09:44:17.000Z</time><course>96.3</course><speed>3.6</speed><fix>3d</fix><sat>9</sat><hdop>1.0</hdop></trkpt>
465    <trkpt lat="58.4070233" lon="15.5893683"><ele>71.40</ele><time>2005-11-27T09:44:18.000Z</time><course>106.1</course><speed>2.4</speed><fix>3d</fix><sat>9</sat><hdop>1.0</hdop></trkpt>
466    <trkpt lat="58.4070267" lon="15.5893667"><ele>71.20</ele><time>2005-11-27T09:44:19.000Z</time><course>112.2</course><speed>0.2</speed><fix>3d</fix><sat>9</sat><hdop>1.0</hdop></trkpt>
467    <trkpt lat="58.4070233" lon="15.5893633"><ele>69.60</ele><time>2005-11-27T09:44:20.000Z</time><course>338.3</course><speed>0.1</speed><fix>3d</fix><sat>9</sat><hdop>1.0</hdop></trkpt>
468    <trkpt lat="58.4070233" lon="15.5893483"><ele>67.80</ele><time>2005-11-27T09:44:21.000Z</time><course>340.0</course><speed>0.2</speed><fix>3d</fix><sat>9</sat><hdop>1.0</hdop></trkpt>
469    <trkpt lat="58.4070200" lon="15.5893500"><ele>65.80</ele><time>2005-11-27T09:44:22.000Z</time><course>350.7</course><speed>0.1</speed><fix>3d</fix><sat>9</sat><hdop>1.0</hdop></trkpt>
470    <trkpt lat="58.4070167" lon="15.5893383"><ele>62.80</ele><time>2005-11-27T09:44:23.000Z</time><course>180.9</course><speed>0.2</speed><fix>3d</fix><sat>9</sat><hdop>1.0</hdop></trkpt>
471    <trkpt lat="58.4070117" lon="15.5893283"><ele>58.30</ele><time>2005-11-27T09:44:24.000Z</time><course>160.7</course><speed>0.3</speed><fix>3d</fix><sat>9</sat><hdop>1.0</hdop></trkpt>
472    <trkpt lat="58.4070050" lon="15.5893200"><ele>54.40</ele><time>2005-11-27T09:44:25.000Z</time><course>181.0</course><speed>0.4</speed><fix>3d</fix><sat>9</sat><hdop>1.0</hdop></trkpt>
473    <trkpt lat="58.4070000" lon="15.5893100"><ele>51.10</ele><time>2005-11-27T09:44:26.000Z</time><course>180.6</course><speed>0.4</speed><fix>3d</fix><sat>9</sat><hdop>1.0</hdop></trkpt>
474    <trkpt lat="58.4069917" lon="15.5893050"><ele>47.80</ele><time>2005-11-27T09:44:27.000Z</time><course>178.8</course><speed>0.4</speed><fix>3d</fix><sat>8</sat><hdop>1.0</hdop></trkpt>
475    <trkpt lat="58.4069867" lon="15.5892983"><ele>45.30</ele><time>2005-11-27T09:44:28.000Z</time><course>179.2</course><speed>0.4</speed><fix>3d</fix><sat>9</sat><hdop>1.0</hdop></trkpt>
476    <trkpt lat="58.4069800" lon="15.5892950"><ele>43.00</ele><time>2005-11-27T09:44:29.000Z</time><course>182.9</course><speed>0.4</speed><fix>3d</fix><sat>9</sat><hdop>1.0</hdop></trkpt>
477    <trkpt lat="58.4069750" lon="15.5893017"><ele>40.80</ele><time>2005-11-27T09:44:30.000Z</time><course>119.5</course><speed>1.0</speed><fix>3d</fix><sat>9</sat><hdop>1.0</hdop></trkpt>
478    <trkpt lat="58.4069700" lon="15.5893200"><ele>38.90</ele><time>2005-11-27T09:44:31.000Z</time><course>101.1</course><speed>1.4</speed><fix>3d</fix><sat>9</sat><hdop>1.0</hdop></trkpt>
479    <trkpt lat="58.4069667" lon="15.5893467"><ele>37.20</ele><time>2005-11-27T09:44:32.000Z</time><course>97.1</course><speed>2.0</speed><fix>3d</fix><sat>9</sat><hdop>1.0</hdop></trkpt>
480    <trkpt lat="58.4069733" lon="15.5893800"><ele>37.90</ele><time>2005-11-27T09:44:33.000Z</time><course>83.0</course><speed>2.4</speed><fix>3d</fix><sat>9</sat><hdop>1.0</hdop></trkpt>
481    <trkpt lat="58.4069850" lon="15.5894217"><ele>38.30</ele><time>2005-11-27T09:44:34.000Z</time><course>71.5</course><speed>2.8</speed><fix>3d</fix><sat>9</sat><hdop>1.0</hdop></trkpt>
482    <trkpt lat="58.4069983" lon="15.5894650"><ele>39.60</ele><time>2005-11-27T09:44:35.000Z</time><course>70.4</course><speed>2.8</speed><fix>3d</fix><sat>9</sat><hdop>1.0</hdop></trkpt>
483    <trkpt lat="58.4070117" lon="15.5895083"><ele>41.90</ele><time>2005-11-27T09:44:36.000Z</time><course>74.6</course><speed>2.9</speed><fix>3d</fix><sat>9</sat><hdop>1.0</hdop></trkpt>
484    <trkpt lat="58.4070250" lon="15.5895583"><ele>43.90</ele><time>2005-11-27T09:44:37.000Z</time><course>74.0</course><speed>3.1</speed><fix>3d</fix><sat>9</sat><hdop>1.0</hdop></trkpt>
485    <trkpt lat="58.4070400" lon="15.5896117"><ele>46.10</ele><time>2005-11-27T09:44:38.000Z</time><course>71.2</course><speed>3.7</speed><fix>3d</fix><sat>9</sat><hdop>1.0</hdop></trkpt>
486    <trkpt lat="58.4070550" lon="15.5896717"><ele>48.50</ele><time>2005-11-27T09:44:39.000Z</time><course>73.2</course><speed>3.6</speed><fix>3d</fix><sat>9</sat><hdop>1.0</hdop></trkpt>
487    <trkpt lat="58.4070700" lon="15.5897317"><ele>50.80</ele><time>2005-11-27T09:44:40.000Z</time><course>72.6</course><speed>3.6</speed><fix>3d</fix><sat>9</sat><hdop>1.0</hdop></trkpt>
488    <trkpt lat="58.4070800" lon="15.5897883"><ele>52.70</ele><time>2005-11-27T09:44:41.000Z</time><course>72.6</course><speed>3.6</speed><fix>3d</fix><sat>9</sat><hdop>1.0</hdop></trkpt>
489    <trkpt lat="58.4070917" lon="15.5898417"><ele>54.80</ele><time>2005-11-27T09:44:42.000Z</time><course>74.6</course><speed>3.2</speed><fix>3d</fix><sat>9</sat><hdop>1.0</hdop></trkpt>
490    <trkpt lat="58.4071017" lon="15.5899000"><ele>55.20</ele><time>2005-11-27T09:44:43.000Z</time><course>76.9</course><speed>3.8</speed><fix>3d</fix><sat>9</sat><hdop>1.0</hdop></trkpt>
491    <trkpt lat="58.4071100" lon="15.5899667"><ele>55.60</ele><time>2005-11-27T09:44:44.000Z</time><course>80.8</course><speed>4.5</speed><fix>3d</fix><sat>9</sat><hdop>1.0</hdop></trkpt>
492    <trkpt lat="58.4071183" lon="15.5900533"><ele>56.20</ele><time>2005-11-27T09:44:45.000Z</time><course>81.0</course><speed>5.6</speed><fix>3d</fix><sat>9</sat><hdop>1.0</hdop></trkpt>
493    <trkpt lat="58.4071250" lon="15.5901617"><ele>56.30</ele><time>2005-11-27T09:44:46.000Z</time><course>81.8</course><speed>6.7</speed><fix>3d</fix><sat>9</sat><hdop>1.0</hdop></trkpt>
494    <trkpt lat="58.4071367" lon="15.5902833"><ele>56.80</ele><time>2005-11-27T09:44:47.000Z</time><course>82.1</course><speed>7.3</speed><fix>3d</fix><sat>9</sat><hdop>1.0</hdop></trkpt>
495    <trkpt lat="58.4071483" lon="15.5904133"><ele>58.00</ele><time>2005-11-27T09:44:48.000Z</time><course>81.5</course><speed>7.8</speed><fix>3d</fix><sat>9</sat><hdop>1.0</hdop></trkpt>
496    <trkpt lat="58.4071600" lon="15.5905517"><ele>59.10</ele><time>2005-11-27T09:44:49.000Z</time><course>81.3</course><speed>8.4</speed><fix>3d</fix><sat>9</sat><hdop>1.0</hdop></trkpt>
497    <trkpt lat="58.4071733" lon="15.5907017"><ele>60.20</ele><time>2005-11-27T09:44:50.000Z</time><course>81.4</course><speed>9.0</speed><fix>3d</fix><sat>9</sat><hdop>1.0</hdop></trkpt>
498    <trkpt lat="58.4071883" lon="15.5908617"><ele>61.20</ele><time>2005-11-27T09:44:51.000Z</time><course>81.5</course><speed>9.4</speed><fix>3d</fix><sat>9</sat><hdop>1.0</hdop></trkpt>
499    <trkpt lat="58.4072033" lon="15.5910317"><ele>61.90</ele><time>2005-11-27T09:44:52.000Z</time><course>81.9</course><speed>10.0</speed><fix>3d</fix><sat>9</sat><hdop>1.0</hdop></trkpt>
500    <trkpt lat="58.4072183" lon="15.5912083"><ele>62.80</ele><time>2005-11-27T09:44:53.000Z</time><course>81.8</course><speed>10.4</speed><fix>3d</fix><sat>9</sat><hdop>1.0</hdop></trkpt>
501    <trkpt lat="58.4072300" lon="15.5913900"><ele>63.40</ele><time>2005-11-27T09:44:54.000Z</time><course>83.1</course><speed>10.6</speed><fix>3d</fix><sat>9</sat><hdop>1.0</hdop></trkpt>
502    <trkpt lat="58.4072450" lon="15.5915767"><ele>64.30</ele><time>2005-11-27T09:44:55.000Z</time><course>81.7</course><speed>11.0</speed><fix>3d</fix><sat>9</sat><hdop>1.0</hdop></trkpt>
503    <trkpt lat="58.4072600" lon="15.5917667"><ele>64.90</ele><time>2005-11-27T09:44:56.000Z</time><course>81.8</course><speed>11.1</speed><fix>3d</fix><sat>9</sat><hdop>1.0</hdop></trkpt>
504    <trkpt lat="58.4072733" lon="15.5919583"><ele>65.40</ele><time>2005-11-27T09:44:57.000Z</time><course>83.9</course><speed>11.3</speed><fix>3d</fix><sat>9</sat><hdop>1.0</hdop></trkpt>
505    <trkpt lat="58.4072867" lon="15.5921500"><ele>65.90</ele><time>2005-11-27T09:44:58.000Z</time><course>82.5</course><speed>11.2</speed><fix>3d</fix><sat>9</sat><hdop>1.0</hdop></trkpt>
506    <trkpt lat="58.4073050" lon="15.5923417"><ele>66.70</ele><time>2005-11-27T09:44:59.000Z</time><course>79.5</course><speed>11.3</speed><fix>3d</fix><sat>9</sat><hdop>1.0</hdop></trkpt>
507    <trkpt lat="58.4073200" lon="15.5925350"><ele>67.30</ele><time>2005-11-27T09:45:00.000Z</time><course>84.3</course><speed>11.5</speed><fix>3d</fix><sat>9</sat><hdop>1.0</hdop></trkpt>
508    <trkpt lat="58.4073350" lon="15.5927300"><ele>68.20</ele><time>2005-11-27T09:45:01.000Z</time><course>84.1</course><speed>11.5</speed><fix>3d</fix><sat>9</sat><hdop>1.0</hdop></trkpt>
509    <trkpt lat="58.4073483" lon="15.5929250"><ele>69.00</ele><time>2005-11-27T09:45:02.000Z</time><course>84.5</course><speed>11.4</speed><fix>3d</fix><sat>9</sat><hdop>1.0</hdop></trkpt>
510    <trkpt lat="58.4073550" lon="15.5931233"><ele>69.30</ele><time>2005-11-27T09:45:03.000Z</time><course>85.2</course><speed>11.5</speed><fix>3d</fix><sat>9</sat><hdop>1.0</hdop></trkpt>
511    <trkpt lat="58.4073617" lon="15.5933217"><ele>69.40</ele><time>2005-11-27T09:45:04.000Z</time><course>85.6</course><speed>11.5</speed><fix>3d</fix><sat>9</sat><hdop>1.0</hdop></trkpt>
512    <trkpt lat="58.4073683" lon="15.5935200"><ele>69.70</ele><time>2005-11-27T09:45:05.000Z</time><course>85.3</course><speed>11.6</speed><fix>3d</fix><sat>9</sat><hdop>1.0</hdop></trkpt>
513    <trkpt lat="58.4073733" lon="15.5937200"><ele>70.30</ele><time>2005-11-27T09:45:06.000Z</time><course>88.1</course><speed>11.5</speed><fix>3d</fix><sat>9</sat><hdop>1.0</hdop></trkpt>
514    <trkpt lat="58.4073767" lon="15.5939167"><ele>71.00</ele><time>2005-11-27T09:45:07.000Z</time><course>86.8</course><speed>11.4</speed><fix>3d</fix><sat>9</sat><hdop>1.0</hdop></trkpt>
515    <trkpt lat="58.4073800" lon="15.5941117"><ele>71.50</ele><time>2005-11-27T09:45:08.000Z</time><course>87.7</course><speed>11.3</speed><fix>3d</fix><sat>9</sat><hdop>1.0</hdop></trkpt>
516    <trkpt lat="58.4073817" lon="15.5943000"><ele>72.00</ele><time>2005-11-27T09:45:09.000Z</time><course>88.6</course><speed>10.9</speed><fix>3d</fix><sat>9</sat><hdop>1.0</hdop></trkpt>
517    <trkpt lat="58.4073817" lon="15.5944850"><ele>72.40</ele><time>2005-11-27T09:45:10.000Z</time><course>89.6</course><speed>10.6</speed><fix>3d</fix><sat>9</sat><hdop>1.0</hdop></trkpt>
518    <trkpt lat="58.4073833" lon="15.5946633"><ele>72.80</ele><time>2005-11-27T09:45:11.000Z</time><course>89.2</course><speed>10.3</speed><fix>3d</fix><sat>9</sat><hdop>1.0</hdop></trkpt>
519    <trkpt lat="58.4073833" lon="15.5948383"><ele>73.40</ele><time>2005-11-27T09:45:12.000Z</time><course>89.5</course><speed>10.0</speed><fix>3d</fix><sat>9</sat><hdop>1.0</hdop></trkpt>
520    <trkpt lat="58.4073833" lon="15.5950050"><ele>74.10</ele><time>2005-11-27T09:45:13.000Z</time><course>88.5</course><speed>9.6</speed><fix>3d</fix><sat>9</sat><hdop>1.0</hdop></trkpt>
521    <trkpt lat="58.4073850" lon="15.5951633"><ele>74.90</ele><time>2005-11-27T09:45:14.000Z</time><course>88.2</course><speed>8.8</speed><fix>3d</fix><sat>9</sat><hdop>1.0</hdop></trkpt>
522    <trkpt lat="58.4073867" lon="15.5953083"><ele>75.20</ele><time>2005-11-27T09:45:15.000Z</time><course>87.5</course><speed>8.2</speed><fix>3d</fix><sat>9</sat><hdop>1.0</hdop></trkpt>
523    <trkpt lat="58.4073867" lon="15.5954400"><ele>75.30</ele><time>2005-11-27T09:45:16.000Z</time><course>87.5</course><speed>7.3</speed><fix>3d</fix><sat>8</sat><hdop>1.0</hdop></trkpt>
524    <trkpt lat="58.4073883" lon="15.5955567"><ele>75.70</ele><time>2005-11-27T09:45:17.000Z</time><course>87.5</course><speed>6.8</speed><fix>3d</fix><sat>9</sat><hdop>1.0</hdop></trkpt>
525    <trkpt lat="58.4073900" lon="15.5956717"><ele>76.10</ele><time>2005-11-27T09:45:18.000Z</time><course>86.5</course><speed>6.7</speed><fix>3d</fix><sat>9</sat><hdop>1.0</hdop></trkpt>
526    <trkpt lat="58.4073950" lon="15.5957850"><ele>75.90</ele><time>2005-11-27T09:45:19.000Z</time><course>83.7</course><speed>6.8</speed><fix>3d</fix><sat>9</sat><hdop>1.0</hdop></trkpt>
527    <trkpt lat="58.4074033" lon="15.5958967"><ele>75.60</ele><time>2005-11-27T09:45:20.000Z</time><course>82.8</course><speed>6.7</speed><fix>3d</fix><sat>9</sat><hdop>1.0</hdop></trkpt>
528    <trkpt lat="58.4074117" lon="15.5960117"><ele>75.00</ele><time>2005-11-27T09:45:21.000Z</time><course>81.9</course><speed>6.9</speed><fix>3d</fix><sat>9</sat><hdop>1.0</hdop></trkpt>
529    <trkpt lat="58.4074200" lon="15.5961283"><ele>74.40</ele><time>2005-11-27T09:45:22.000Z</time><course>85.1</course><speed>7.0</speed><fix>3d</fix><sat>9</sat><hdop>1.0</hdop></trkpt>
530    <trkpt lat="58.4074283" lon="15.5962500"><ele>74.00</ele><time>2005-11-27T09:45:23.000Z</time><course>85.0</course><speed>7.4</speed><fix>3d</fix><sat>9</sat><hdop>1.0</hdop></trkpt>
531    <trkpt lat="58.4074350" lon="15.5963767"><ele>73.10</ele><time>2005-11-27T09:45:24.000Z</time><course>84.3</course><speed>7.7</speed><fix>3d</fix><sat>9</sat><hdop>1.0</hdop></trkpt>
532    <trkpt lat="58.4074433" lon="15.5965133"><ele>72.40</ele><time>2005-11-27T09:45:25.000Z</time><course>85.3</course><speed>8.2</speed><fix>3d</fix><sat>9</sat><hdop>1.0</hdop></trkpt>
533    <trkpt lat="58.4074500" lon="15.5966567"><ele>72.70</ele><time>2005-11-27T09:45:26.000Z</time><course>85.3</course><speed>8.2</speed><fix>3d</fix><sat>9</sat><hdop>1.0</hdop></trkpt>
534    <trkpt lat="58.4074533" lon="15.5968083"><ele>72.60</ele><time>2005-11-27T09:45:27.000Z</time><course>86.2</course><speed>9.2</speed><fix>3d</fix><sat>9</sat><hdop>1.0</hdop></trkpt>
535    <trkpt lat="58.4074583" lon="15.5969700"><ele>73.40</ele><time>2005-11-27T09:45:28.000Z</time><course>85.7</course><speed>9.4</speed><fix>3d</fix><sat>9</sat><hdop>1.0</hdop></trkpt>
536    <trkpt lat="58.4074667" lon="15.5971350"><ele>72.90</ele><time>2005-11-27T09:45:29.000Z</time><course>84.8</course><speed>9.9</speed><fix>3d</fix><sat>9</sat><hdop>1.0</hdop></trkpt>
537    <trkpt lat="58.4074750" lon="15.5973033"><ele>72.60</ele><time>2005-11-27T09:45:30.000Z</time><course>84.1</course><speed>9.9</speed><fix>3d</fix><sat>9</sat><hdop>1.0</hdop></trkpt>
538    <trkpt lat="58.4074850" lon="15.5974750"><ele>72.70</ele><time>2005-11-27T09:45:31.000Z</time><course>83.2</course><speed>10.1</speed><fix>3d</fix><sat>9</sat><hdop>1.0</hdop></trkpt>
539    <trkpt lat="58.4074950" lon="15.5976483"><ele>72.80</ele><time>2005-11-27T09:45:32.000Z</time><course>82.1</course><speed>10.3</speed><fix>3d</fix><sat>9</sat><hdop>1.0</hdop></trkpt>
540    <trkpt lat="58.4075067" lon="15.5978233"><ele>72.50</ele><time>2005-11-27T09:45:33.000Z</time><course>83.0</course><speed>10.5</speed><fix>3d</fix><sat>9</sat><hdop>1.0</hdop></trkpt>
541    <trkpt lat="58.4075167" lon="15.5980033"><ele>71.80</ele><time>2005-11-27T09:45:34.000Z</time><course>82.1</course><speed>10.6</speed><fix>3d</fix><sat>9</sat><hdop>1.0</hdop></trkpt>
542    <trkpt lat="58.4075283" lon="15.5981850"><ele>71.10</ele><time>2005-11-27T09:45:35.000Z</time><course>82.3</course><speed>11.0</speed><fix>3d</fix><sat>9</sat><hdop>1.0</hdop></trkpt>
543    <trkpt lat="58.4075417" lon="15.5983750"><ele>70.70</ele><time>2005-11-27T09:45:36.000Z</time><course>81.7</course><speed>11.5</speed><fix>3d</fix><sat>9</sat><hdop>1.0</hdop></trkpt>
544    <trkpt lat="58.4075567" lon="15.5985667"><ele>70.10</ele><time>2005-11-27T09:45:37.000Z</time><course>80.3</course><speed>11.5</speed><fix>3d</fix><sat>9</sat><hdop>1.0</hdop></trkpt>
545    <trkpt lat="58.4075733" lon="15.5987617"><ele>69.70</ele><time>2005-11-27T09:45:38.000Z</time><course>80.9</course><speed>11.7</speed><fix>3d</fix><sat>9</sat><hdop>1.0</hdop></trkpt>
546    <trkpt lat="58.4075933" lon="15.5989583"><ele>69.80</ele><time>2005-11-27T09:45:39.000Z</time><course>78.2</course><speed>11.8</speed><fix>3d</fix><sat>9</sat><hdop>1.0</hdop></trkpt>
547    <trkpt lat="58.4076117" lon="15.5991583"><ele>69.30</ele><time>2005-11-27T09:45:40.000Z</time><course>81.2</course><speed>12.2</speed><fix>3d</fix><sat>9</sat><hdop>1.0</hdop></trkpt>
548    <trkpt lat="58.4076317" lon="15.5993583"><ele>68.60</ele><time>2005-11-27T09:45:41.000Z</time><course>80.0</course><speed>12.1</speed><fix>3d</fix><sat>9</sat><hdop>1.0</hdop></trkpt>
549    <trkpt lat="58.4076583" lon="15.5995550"><ele>69.40</ele><time>2005-11-27T09:45:42.000Z</time><course>76.4</course><speed>11.9</speed><fix>3d</fix><sat>9</sat><hdop>1.0</hdop></trkpt>
550    <trkpt lat="58.4076767" lon="15.5997600"><ele>69.60</ele><time>2005-11-27T09:45:43.000Z</time><course>79.5</course><speed>12.0</speed><fix>3d</fix><sat>8</sat><hdop>1.5</hdop></trkpt>
551    <trkpt lat="58.4076950" lon="15.5999667"><ele>70.00</ele><time>2005-11-27T09:45:44.000Z</time><course>77.3</course><speed>11.9</speed><fix>3d</fix><sat>8</sat><hdop>1.5</hdop></trkpt>
552    <trkpt lat="58.4077150" lon="15.6001700"><ele>70.50</ele><time>2005-11-27T09:45:45.000Z</time><course>79.9</course><speed>12.1</speed><fix>3d</fix><sat>8</sat><hdop>1.5</hdop></trkpt>
553    <trkpt lat="58.4077317" lon="15.6003767"><ele>70.70</ele><time>2005-11-27T09:45:46.000Z</time><course>80.1</course><speed>12.1</speed><fix>3d</fix><sat>8</sat><hdop>1.5</hdop></trkpt>
554    <trkpt lat="58.4077500" lon="15.6005833"><ele>70.70</ele><time>2005-11-27T09:45:47.000Z</time><course>80.2</course><speed>12.2</speed><fix>3d</fix><sat>8</sat><hdop>1.5</hdop></trkpt>
555    <trkpt lat="58.4077700" lon="15.6007867"><ele>70.70</ele><time>2005-11-27T09:45:48.000Z</time><course>78.4</course><speed>12.1</speed><fix>3d</fix><sat>8</sat><hdop>1.5</hdop></trkpt>
556    <trkpt lat="58.4077933" lon="15.6009900"><ele>71.40</ele><time>2005-11-27T09:45:49.000Z</time><course>79.9</course><speed>12.2</speed><fix>3d</fix><sat>8</sat><hdop>1.5</hdop></trkpt>
557    <trkpt lat="58.4078100" lon="15.6011933"><ele>71.10</ele><time>2005-11-27T09:45:50.000Z</time><course>78.3</course><speed>11.9</speed><fix>3d</fix><sat>9</sat><hdop>1.0</hdop></trkpt>
558    <trkpt lat="58.4078267" lon="15.6013967"><ele>71.00</ele><time>2005-11-27T09:45:51.000Z</time><course>78.2</course><speed>11.7</speed><fix>3d</fix><sat>9</sat><hdop>1.0</hdop></trkpt>
559    <trkpt lat="58.4078450" lon="15.6015933"><ele>70.80</ele><time>2005-11-27T09:45:52.000Z</time><course>78.2</course><speed>11.7</speed><fix>3d</fix><sat>9</sat><hdop>1.0</hdop></trkpt>
560    <trkpt lat="58.4078600" lon="15.6017867"><ele>70.80</ele><time>2005-11-27T09:45:53.000Z</time><course>78.4</course><speed>11.3</speed><fix>3d</fix><sat>9</sat><hdop>1.0</hdop></trkpt>
561    <trkpt lat="58.4078767" lon="15.6019700"><ele>70.90</ele><time>2005-11-27T09:45:54.000Z</time><course>79.3</course><speed>10.6</speed><fix>3d</fix><sat>9</sat><hdop>1.0</hdop></trkpt>
562    <trkpt lat="58.4078917" lon="15.6021333"><ele>71.00</ele><time>2005-11-27T09:45:55.000Z</time><course>79.3</course><speed>9.2</speed><fix>3d</fix><sat>9</sat><hdop>1.0</hdop></trkpt>
563    <trkpt lat="58.4079050" lon="15.6022767"><ele>71.00</ele><time>2005-11-27T09:45:56.000Z</time><course>80.7</course><speed>8.3</speed><fix>3d</fix><sat>9</sat><hdop>1.0</hdop></trkpt>
564    <trkpt lat="58.4079117" lon="15.6024050"><ele>70.80</ele><time>2005-11-27T09:45:57.000Z</time><course>82.5</course><speed>7.4</speed><fix>3d</fix><sat>9</sat><hdop>1.0</hdop></trkpt>
565    <trkpt lat="58.4079167" lon="15.6025150"><ele>70.40</ele><time>2005-11-27T09:45:58.000Z</time><course>83.2</course><speed>6.0</speed><fix>3d</fix><sat>9</sat><hdop>1.0</hdop></trkpt>
566    <trkpt lat="58.4079233" lon="15.6026067"><ele>70.00</ele><time>2005-11-27T09:45:59.000Z</time><course>82.2</course><speed>5.7</speed><fix>3d</fix><sat>9</sat><hdop>1.0</hdop></trkpt>
567    <trkpt lat="58.4079300" lon="15.6026917"><ele>70.00</ele><time>2005-11-27T09:46:00.000Z</time><course>79.1</course><speed>4.9</speed><fix>3d</fix><sat>9</sat><hdop>1.0</hdop></trkpt>
568    <trkpt lat="58.4079383" lon="15.6027600"><ele>69.90</ele><time>2005-11-27T09:46:01.000Z</time><course>75.7</course><speed>3.9</speed><fix>3d</fix><sat>9</sat><hdop>1.0</hdop></trkpt>
569    <trkpt lat="58.4079450" lon="15.6028033"><ele>69.80</ele><time>2005-11-27T09:46:02.000Z</time><course>72.2</course><speed>2.3</speed><fix>3d</fix><sat>9</sat><hdop>1.0</hdop></trkpt>
570    <trkpt lat="58.4079467" lon="15.6028200"><ele>69.80</ele><time>2005-11-27T09:46:03.000Z</time><course>69.4</course><speed>0.5</speed><fix>3d</fix><sat>9</sat><hdop>1.0</hdop></trkpt>
571    <trkpt lat="58.4079467" lon="15.6028167"><ele>69.60</ele><time>2005-11-27T09:46:04.000Z</time><course>231.0</course><speed>0</speed><fix>3d</fix><sat>9</sat><hdop>1.0</hdop></trkpt>
572    <trkpt lat="58.4079467" lon="15.6028100"><ele>68.80</ele><time>2005-11-27T09:46:05.000Z</time><course>0.9</course><speed>0</speed><fix>3d</fix><sat>9</sat><hdop>1.0</hdop></trkpt>
573    <trkpt lat="58.4079450" lon="15.6028017"><ele>67.40</ele><time>2005-11-27T09:46:06.000Z</time><course>5.4</course><speed>0</speed><fix>3d</fix><sat>9</sat><hdop>1.0</hdop></trkpt>
574    <trkpt lat="58.4079433" lon="15.6027950"><ele>66.30</ele><time>2005-11-27T09:46:07.000Z</time><course>319.0</course><speed>0</speed><fix>3d</fix><sat>9</sat><hdop>1.0</hdop></trkpt>
575    <trkpt lat="58.4079417" lon="15.6027883"><ele>65.60</ele><time>2005-11-27T09:46:08.000Z</time><course>228.7</course><speed>0.1</speed><fix>3d</fix><sat>9</sat><hdop>1.0</hdop></trkpt>
576    <trkpt lat="58.4079417" lon="15.6027817"><ele>64.80</ele><time>2005-11-27T09:46:09.000Z</time><course>233.9</course><speed>0.1</speed><fix>3d</fix><sat>9</sat><hdop>1.0</hdop></trkpt>
577    <trkpt lat="58.4079417" lon="15.6027750"><ele>63.90</ele><time>2005-11-27T09:46:10.000Z</time><course>222.3</course><speed>0.1</speed><fix>3d</fix><sat>9</sat><hdop>1.0</hdop></trkpt>
578    <trkpt lat="58.4079400" lon="15.6027683"><ele>62.80</ele><time>2005-11-27T09:46:11.000Z</time><course>227.2</course><speed>0.1</speed><fix>3d</fix><sat>9</sat><hdop>1.0</hdop></trkpt>
579    <trkpt lat="58.4079400" lon="15.6027633"><ele>62.50</ele><time>2005-11-27T09:46:12.000Z</time><course>219.9</course><speed>0.1</speed><fix>3d</fix><sat>9</sat><hdop>1.0</hdop></trkpt>
580    <trkpt lat="58.4079400" lon="15.6027567"><ele>61.90</ele><time>2005-11-27T09:46:13.000Z</time><course>233.1</course><speed>0.1</speed><fix>3d</fix><sat>9</sat><hdop>1.0</hdop></trkpt>
581    <trkpt lat="58.4079400" lon="15.6027550"><ele>61.50</ele><time>2005-11-27T09:46:14.000Z</time><course>82.9</course><speed>0.2</speed><fix>3d</fix><sat>9</sat><hdop>1.0</hdop></trkpt>
582    <trkpt lat="58.4079417" lon="15.6027650"><ele>60.90</ele><time>2005-11-27T09:46:15.000Z</time><course>73.6</course><speed>1.3</speed><fix>3d</fix><sat>9</sat><hdop>1.0</hdop></trkpt>
583    <trkpt lat="58.4079467" lon="15.6027967"><ele>60.50</ele><time>2005-11-27T09:46:16.000Z</time><course>75.1</course><speed>2.4</speed><fix>3d</fix><sat>9</sat><hdop>1.0</hdop></trkpt>
584    <trkpt lat="58.4079550" lon="15.6028450"><ele>60.90</ele><time>2005-11-27T09:46:17.000Z</time><course>74.1</course><speed>3.4</speed><fix>3d</fix><sat>9</sat><hdop>1.0</hdop></trkpt>
585    <trkpt lat="58.4079683" lon="15.6029117"><ele>61.00</ele><time>2005-11-27T09:46:18.000Z</time><course>69.5</course><speed>4.6</speed><fix>3d</fix><sat>9</sat><hdop>1.0</hdop></trkpt>
586    <trkpt lat="58.4079833" lon="15.6029967"><ele>61.10</ele><time>2005-11-27T09:46:19.000Z</time><course>73.1</course><speed>5.6</speed><fix>3d</fix><sat>9</sat><hdop>1.0</hdop></trkpt>
587    <trkpt lat="58.4080017" lon="15.6030967"><ele>61.50</ele><time>2005-11-27T09:46:20.000Z</time><course>68.8</course><speed>6.6</speed><fix>3d</fix><sat>9</sat><hdop>1.0</hdop></trkpt>
588    <trkpt lat="58.4080233" lon="15.6032150"><ele>62.20</ele><time>2005-11-27T09:46:21.000Z</time><course>71.9</course><speed>7.4</speed><fix>3d</fix><sat>9</sat><hdop>1.0</hdop></trkpt>
589    <trkpt lat="58.4080467" lon="15.6033467"><ele>62.90</ele><time>2005-11-27T09:46:22.000Z</time><course>73.4</course><speed>8.1</speed><fix>3d</fix><sat>9</sat><hdop>1.0</hdop></trkpt>
590    <trkpt lat="58.4080683" lon="15.6034950"><ele>64.00</ele><time>2005-11-27T09:46:23.000Z</time><course>75.9</course><speed>9.0</speed><fix>3d</fix><sat>9</sat><hdop>1.0</hdop></trkpt>
591    <trkpt lat="58.4080917" lon="15.6036550"><ele>65.00</ele><time>2005-11-27T09:46:24.000Z</time><course>74.9</course><speed>9.4</speed><fix>3d</fix><sat>9</sat><hdop>1.0</hdop></trkpt>
592    <trkpt lat="58.4081150" lon="15.6038133"><ele>65.50</ele><time>2005-11-27T09:46:25.000Z</time><course>73.9</course><speed>9.6</speed><fix>3d</fix><sat>9</sat><hdop>1.0</hdop></trkpt>
593    <trkpt lat="58.4081400" lon="15.6039800"><ele>65.80</ele><time>2005-11-27T09:46:26.000Z</time><course>73.6</course><speed>9.9</speed><fix>3d</fix><sat>9</sat><hdop>1.0</hdop></trkpt>
594    <trkpt lat="58.4081650" lon="15.6041533"><ele>66.40</ele><time>2005-11-27T09:46:27.000Z</time><course>75.3</course><speed>10.3</speed><fix>3d</fix><sat>9</sat><hdop>1.0</hdop></trkpt>
595    <trkpt lat="58.4081917" lon="15.6043350"><ele>67.50</ele><time>2005-11-27T09:46:28.000Z</time><course>75.5</course><speed>10.9</speed><fix>3d</fix><sat>9</sat><hdop>1.0</hdop></trkpt>
596    <trkpt lat="58.4082183" lon="15.6045217"><ele>68.10</ele><time>2005-11-27T09:46:29.000Z</time><course>75.2</course><speed>11.1</speed><fix>3d</fix><sat>9</sat><hdop>1.0</hdop></trkpt>
597    <trkpt lat="58.4082450" lon="15.6047100"><ele>68.60</ele><time>2005-11-27T09:46:30.000Z</time><course>74.4</course><speed>11.2</speed><fix>3d</fix><sat>9</sat><hdop>1.0</hdop></trkpt>
598    <trkpt lat="58.4082717" lon="15.6049000"><ele>69.10</ele><time>2005-11-27T09:46:31.000Z</time><course>74.5</course><speed>11.4</speed><fix>3d</fix><sat>9</sat><hdop>1.0</hdop></trkpt>
599    <trkpt lat="58.4083000" lon="15.6050933"><ele>69.60</ele><time>2005-11-27T09:46:32.000Z</time><course>74.6</course><speed>11.6</speed><fix>3d</fix><sat>9</sat><hdop>1.0</hdop></trkpt>
600    <trkpt lat="58.4083267" lon="15.6052883"><ele>69.80</ele><time>2005-11-27T09:46:33.000Z</time><course>74.7</course><speed>11.7</speed><fix>3d</fix><sat>9</sat><hdop>1.0</hdop></trkpt>
601    <trkpt lat="58.4083533" lon="15.6054817"><ele>69.90</ele><time>2005-11-27T09:46:34.000Z</time><course>73.8</course><speed>11.5</speed><fix>3d</fix><sat>9</sat><hdop>1.0</hdop></trkpt>
602    <trkpt lat="58.4083817" lon="15.6056750"><ele>70.20</ele><time>2005-11-27T09:46:35.000Z</time><course>75.4</course><speed>11.7</speed><fix>3d</fix><sat>9</sat><hdop>1.0</hdop></trkpt>
603    <trkpt lat="58.4084083" lon="15.6058700"><ele>70.10</ele><time>2005-11-27T09:46:36.000Z</time><course>74.3</course><speed>11.8</speed><fix>3d</fix><sat>9</sat><hdop>1.0</hdop></trkpt>
604    <trkpt lat="58.4084367" lon="15.6060633"><ele>70.00</ele><time>2005-11-27T09:46:37.000Z</time><course>74.5</course><speed>11.6</speed><fix>3d</fix><sat>9</sat><hdop>1.0</hdop></trkpt>
605    <trkpt lat="58.4084650" lon="15.6062567"><ele>70.00</ele><time>2005-11-27T09:46:38.000Z</time><course>74.4</course><speed>11.8</speed><fix>3d</fix><sat>9</sat><hdop>1.0</hdop></trkpt>
606    <trkpt lat="58.4084933" lon="15.6064533"><ele>70.10</ele><time>2005-11-27T09:46:39.000Z</time><course>75.1</course><speed>11.6</speed><fix>3d</fix><sat>9</sat><hdop>1.0</hdop></trkpt>
607    <trkpt lat="58.4085200" lon="15.6066433"><ele>70.00</ele><time>2005-11-27T09:46:40.000Z</time><course>74.6</course><speed>11.7</speed><fix>3d</fix><sat>9</sat><hdop>1.0</hdop></trkpt>
608    <trkpt lat="58.4085483" lon="15.6068383"><ele>70.00</ele><time>2005-11-27T09:46:41.000Z</time><course>74.2</course><speed>11.8</speed><fix>3d</fix><sat>9</sat><hdop>1.0</hdop></trkpt>
609    <trkpt lat="58.4085767" lon="15.6070350"><ele>70.30</ele><time>2005-11-27T09:46:42.000Z</time><course>74.8</course><speed>11.7</speed><fix>3d</fix><sat>9</sat><hdop>1.0</hdop></trkpt>
610    <trkpt lat="58.4086050" lon="15.6072283"><ele>70.30</ele><time>2005-11-27T09:46:43.000Z</time><course>74.5</course><speed>11.5</speed><fix>3d</fix><sat>9</sat><hdop>1.0</hdop></trkpt>
611    <trkpt lat="58.4086333" lon="15.6074183"><ele>70.50</ele><time>2005-11-27T09:46:44.000Z</time><course>74.2</course><speed>11.4</speed><fix>3d</fix><sat>9</sat><hdop>1.0</hdop></trkpt>
612    <trkpt lat="58.4086600" lon="15.6076033"><ele>70.50</ele><time>2005-11-27T09:46:45.000Z</time><course>75.3</course><speed>11.1</speed><fix>3d</fix><sat>9</sat><hdop>1.0</hdop></trkpt>
613    <trkpt lat="58.4086867" lon="15.6077850"><ele>70.40</ele><time>2005-11-27T09:46:46.000Z</time><course>74.9</course><speed>11.1</speed><fix>3d</fix><sat>9</sat><hdop>1.0</hdop></trkpt>
614    <trkpt lat="58.4087117" lon="15.6079667"><ele>70.40</ele><time>2005-11-27T09:46:47.000Z</time><course>74.9</course><speed>11.1</speed><fix>3d</fix><sat>9</sat><hdop>1.0</hdop></trkpt>
615    <trkpt lat="58.4087367" lon="15.6081450"><ele>70.50</ele><time>2005-11-27T09:46:48.000Z</time><course>74.4</course><speed>10.6</speed><fix>3d</fix><sat>9</sat><hdop>1.0</hdop></trkpt>
616    <trkpt lat="58.4087633" lon="15.6083183"><ele>70.50</ele><time>2005-11-27T09:46:49.000Z</time><course>75.1</course><speed>10.5</speed><fix>3d</fix><sat>9</sat><hdop>1.0</hdop></trkpt>
617    <trkpt lat="58.4087867" lon="15.6084983"><ele>70.90</ele><time>2005-11-27T09:46:50.000Z</time><course>76.6</course><speed>10.6</speed><fix>3d</fix><sat>9</sat><hdop>1.0</hdop></trkpt>
618    <trkpt lat="58.4088117" lon="15.6086750"><ele>71.00</ele><time>2005-11-27T09:46:51.000Z</time><course>75.3</course><speed>10.5</speed><fix>3d</fix><sat>9</sat><hdop>1.0</hdop></trkpt>
619    <trkpt lat="58.4088367" lon="15.6088467"><ele>71.00</ele><time>2005-11-27T09:46:52.000Z</time><course>73.7</course><speed>10.2</speed><fix>3d</fix><sat>9</sat><hdop>1.0</hdop></trkpt>
620    <trkpt lat="58.4088633" lon="15.6090133"><ele>71.00</ele><time>2005-11-27T09:46:53.000Z</time><course>73.8</course><speed>10.0</speed><fix>3d</fix><sat>9</sat><hdop>1.0</hdop></trkpt>
621    <trkpt lat="58.4088883" lon="15.6091767"><ele>71.10</ele><time>2005-11-27T09:46:54.000Z</time><course>74.0</course><speed>9.8</speed><fix>3d</fix><sat>9</sat><hdop>1.0</hdop></trkpt>
622    <trkpt lat="58.4089133" lon="15.6093367"><ele>71.60</ele><time>2005-11-27T09:46:55.000Z</time><course>74.2</course><speed>9.6</speed><fix>3d</fix><sat>9</sat><hdop>1.0</hdop></trkpt>
623    <trkpt lat="58.4089333" lon="15.6095000"><ele>72.10</ele><time>2005-11-27T09:46:56.000Z</time><course>74.2</course><speed>9.6</speed><fix>3d</fix><sat>9</sat><hdop>1.0</hdop></trkpt>
624    <trkpt lat="58.4089467" lon="15.6096733"><ele>71.90</ele><time>2005-11-27T09:46:57.000Z</time><course>83.2</course><speed>10.5</speed><fix>3d</fix><sat>9</sat><hdop>1.0</hdop></trkpt>
625    <trkpt lat="58.4089500" lon="15.6098583"><ele>72.00</ele><time>2005-11-27T09:46:58.000Z</time><course>88.9</course><speed>10.8</speed><fix>3d</fix><sat>9</sat><hdop>1.0</hdop></trkpt>
626    <trkpt lat="58.4089450" lon="15.6100483"><ele>71.10</ele><time>2005-11-27T09:46:59.000Z</time><course>91.9</course><speed>11.2</speed><fix>3d</fix><sat>9</sat><hdop>1.0</hdop></trkpt>
627    <trkpt lat="58.4089383" lon="15.6102433"><ele>70.60</ele><time>2005-11-27T09:47:00.000Z</time><course>92.2</course><speed>11.4</speed><fix>3d</fix><sat>9</sat><hdop>1.0</hdop></trkpt>
628    <trkpt lat="58.4089333" lon="15.6104383"><ele>70.60</ele><time>2005-11-27T09:47:01.000Z</time><course>93.1</course><speed>11.6</speed><fix>3d</fix><sat>9</sat><hdop>1.0</hdop></trkpt>
629    <trkpt lat="58.4089250" lon="15.6106383"><ele>70.00</ele><time>2005-11-27T09:47:02.000Z</time><course>93.1</course><speed>11.6</speed><fix>3d</fix><sat>9</sat><hdop>1.0</hdop></trkpt>
630    <trkpt lat="58.4089167" lon="15.6108433"><ele>69.50</ele><time>2005-11-27T09:47:03.000Z</time><course>93.1</course><speed>12.1</speed><fix>3d</fix><sat>9</sat><hdop>1.0</hdop></trkpt>
631    <trkpt lat="58.4089083" lon="15.6110467"><ele>69.10</ele><time>2005-11-27T09:47:04.000Z</time><course>93.1</course><speed>12.1</speed><fix>3d</fix><sat>8</sat><hdop>1.1</hdop></trkpt>
632    <trkpt lat="58.4089000" lon="15.6112500"><ele>67.90</ele><time>2005-11-27T09:47:05.000Z</time><course>93.8</course><speed>11.8</speed><fix>3d</fix><sat>9</sat><hdop>1.0</hdop></trkpt>
633    <trkpt lat="58.4088900" lon="15.6114517"><ele>66.30</ele><time>2005-11-27T09:47:06.000Z</time><course>94.0</course><speed>11.8</speed><fix>3d</fix><sat>9</sat><hdop>1.0</hdop></trkpt>
634    <trkpt lat="58.4088817" lon="15.6116583"><ele>66.30</ele><time>2005-11-27T09:47:07.000Z</time><course>95.8</course><speed>12.6</speed><fix>3d</fix><sat>9</sat><hdop>1.0</hdop></trkpt>
635    <trkpt lat="58.4088700" lon="15.6118717"><ele>66.30</ele><time>2005-11-27T09:47:08.000Z</time><course>95.6</course><speed>12.3</speed><fix>3d</fix><sat>9</sat><hdop>1.0</hdop></trkpt>
636    <trkpt lat="58.4088600" lon="15.6120583"><ele>66.00</ele><time>2005-11-27T09:47:09.000Z</time><course>97.6</course><speed>10.2</speed><fix>3d</fix><sat>9</sat><hdop>1.0</hdop></trkpt>
637    <trkpt lat="58.4088500" lon="15.6122183"><ele>66.70</ele><time>2005-11-27T09:47:10.000Z</time><course>100.8</course><speed>9.0</speed><fix>3d</fix><sat>9</sat><hdop>1.0</hdop></trkpt>
638    <trkpt lat="58.4088450" lon="15.6123467"><ele>68.00</ele><time>2005-11-27T09:47:11.000Z</time><course>99.2</course><speed>7.5</speed><fix>3d</fix><sat>9</sat><hdop>1.0</hdop></trkpt>
639    <trkpt lat="58.4088383" lon="15.6124500"><ele>68.70</ele><time>2005-11-27T09:47:12.000Z</time><course>97.6</course><speed>5.8</speed><fix>3d</fix><sat>9</sat><hdop>1.0</hdop></trkpt>
640    <trkpt lat="58.4088367" lon="15.6125317"><ele>69.80</ele><time>2005-11-27T09:47:13.000Z</time><course>97.6</course><speed>5.8</speed><fix>3d</fix><sat>9</sat><hdop>1.0</hdop></trkpt>
641    <trkpt lat="58.4088367" lon="15.6125833"><ele>71.20</ele><time>2005-11-27T09:47:14.000Z</time><course>95.6</course><speed>2.6</speed><fix>3d</fix><sat>9</sat><hdop>1.0</hdop></trkpt>
642    <trkpt lat="58.4088333" lon="15.6126083"><ele>71.00</ele><time>2005-11-27T09:47:15.000Z</time><course>105.8</course><speed>0.7</speed><fix>3d</fix><sat>8</sat><hdop>1.5</hdop></trkpt>
643    <trkpt lat="58.4088267" lon="15.6126033"><ele>69.10</ele><time>2005-11-27T09:47:16.000Z</time><course>105.8</course><speed>0.7</speed><fix>3d</fix><sat>8</sat><hdop>1.5</hdop></trkpt>
644    <trkpt lat="58.4088200" lon="15.6125967"><ele>66.80</ele><time>2005-11-27T09:47:17.000Z</time><course>141.7</course><speed>0.2</speed><fix>3d</fix><sat>8</sat><hdop>1.5</hdop></trkpt>
645    <trkpt lat="58.4088167" lon="15.6125950"><ele>65.40</ele><time>2005-11-27T09:47:18.000Z</time><course>144.1</course><speed>0.2</speed><fix>3d</fix><sat>9</sat><hdop>1.0</hdop></trkpt>
646    <trkpt lat="58.4088183" lon="15.6125917"><ele>65.00</ele><time>2005-11-27T09:47:19.000Z</time><course>10.0</course><speed>0.1</speed><fix>3d</fix><sat>9</sat><hdop>1.0</hdop></trkpt>
647    <trkpt lat="58.4088167" lon="15.6125850"><ele>63.70</ele><time>2005-11-27T09:47:20.000Z</time><course>217.4</course><speed>0.1</speed><fix>3d</fix><sat>9</sat><hdop>1.0</hdop></trkpt>
648    <trkpt lat="58.4088150" lon="15.6125767"><ele>62.50</ele><time>2005-11-27T09:47:21.000Z</time><course>266.5</course><speed>0.1</speed><fix>3d</fix><sat>9</sat><hdop>1.0</hdop></trkpt>
649    <trkpt lat="58.4088150" lon="15.6125667"><ele>61.70</ele><time>2005-11-27T09:47:22.000Z</time><course>190.8</course><speed>0.1</speed><fix>3d</fix><sat>8</sat><hdop>1.5</hdop></trkpt>
650    <trkpt lat="58.4088150" lon="15.6125567"><ele>61.60</ele><time>2005-11-27T09:47:23.000Z</time><course>198.9</course><speed>0.2</speed><fix>3d</fix><sat>8</sat><hdop>1.5</hdop></trkpt>
651    <trkpt lat="58.4088133" lon="15.6125467"><ele>60.80</ele><time>2005-11-27T09:47:24.000Z</time><course>190.8</course><speed>0.2</speed><fix>3d</fix><sat>8</sat><hdop>1.5</hdop></trkpt>
652    <trkpt lat="58.4088133" lon="15.6125400"><ele>60.70</ele><time>2005-11-27T09:47:25.000Z</time><course>161.5</course><speed>0.2</speed><fix>3d</fix><sat>8</sat><hdop>1.5</hdop></trkpt>
653    <trkpt lat="58.4088167" lon="15.6125400"><ele>61.80</ele><time>2005-11-27T09:47:26.000Z</time><course>82.7</course><speed>0.4</speed><fix>3d</fix><sat>8</sat><hdop>1.5</hdop></trkpt>
654    <trkpt lat="58.4088200" lon="15.6125500"><ele>62.70</ele><time>2005-11-27T09:47:27.000Z</time><course>90.8</course><speed>1.3</speed><fix>3d</fix><sat>8</sat><hdop>1.5</hdop></trkpt>
655    <trkpt lat="58.4088217" lon="15.6125817"><ele>63.40</ele><time>2005-11-27T09:47:28.000Z</time><course>91.6</course><speed>2.4</speed><fix>3d</fix><sat>8</sat><hdop>1.5</hdop></trkpt>
656    <trkpt lat="58.4088267" lon="15.6126367"><ele>65.00</ele><time>2005-11-27T09:47:29.000Z</time><course>91.4</course><speed>3.7</speed><fix>3d</fix><sat>9</sat><hdop>1.0</hdop></trkpt>
657    <trkpt lat="58.4088333" lon="15.6127117"><ele>67.30</ele><time>2005-11-27T09:47:30.000Z</time><course>86.3</course><speed>4.8</speed><fix>3d</fix><sat>9</sat><hdop>1.0</hdop></trkpt>
658    <trkpt lat="58.4088450" lon="15.6127967"><ele>68.80</ele><time>2005-11-27T09:47:31.000Z</time><course>79.2</course><speed>5.5</speed><fix>3d</fix><sat>9</sat><hdop>1.0</hdop></trkpt>
659    <trkpt lat="58.4088567" lon="15.6128983"><ele>69.70</ele><time>2005-11-27T09:47:32.000Z</time><course>83.6</course><speed>6.5</speed><fix>3d</fix><sat>9</sat><hdop>1.0</hdop></trkpt>
660    <trkpt lat="58.4088633" lon="15.6130200"><ele>70.30</ele><time>2005-11-27T09:47:33.000Z</time><course>87.3</course><speed>7.5</speed><fix>3d</fix><sat>9</sat><hdop>1.0</hdop></trkpt>
661    <trkpt lat="58.4088700" lon="15.6131483"><ele>70.60</ele><time>2005-11-27T09:47:34.000Z</time><course>87.0</course><speed>7.8</speed><fix>3d</fix><sat>9</sat><hdop>1.0</hdop></trkpt>
662    <trkpt lat="58.4088767" lon="15.6132883"><ele>71.70</ele><time>2005-11-27T09:47:35.000Z</time><course>87.9</course><speed>8.2</speed><fix>3d</fix><sat>9</sat><hdop>1.0</hdop></trkpt>
663    <trkpt lat="58.4088800" lon="15.6134383"><ele>73.20</ele><time>2005-11-27T09:47:36.000Z</time><course>89.9</course><speed>8.5</speed><fix>3d</fix><sat>9</sat><hdop>1.0</hdop></trkpt>
664    <trkpt lat="58.4088800" lon="15.6135850"><ele>73.90</ele><time>2005-11-27T09:47:37.000Z</time><course>90.7</course><speed>8.4</speed><fix>3d</fix><sat>9</sat><hdop>1.0</hdop></trkpt>
665    <trkpt lat="58.4088767" lon="15.6137300"><ele>74.10</ele><time>2005-11-27T09:47:38.000Z</time><course>92.0</course><speed>8.5</speed><fix>3d</fix><sat>9</sat><hdop>1.0</hdop></trkpt>
666    <trkpt lat="58.4088783" lon="15.6138667"><ele>75.30</ele><time>2005-11-27T09:47:39.000Z</time><course>91.3</course><speed>7.7</speed><fix>3d</fix><sat>9</sat><hdop>1.0</hdop></trkpt>
667    <trkpt lat="58.4088817" lon="15.6139900"><ele>77.70</ele><time>2005-11-27T09:47:40.000Z</time><course>90.4</course><speed>6.7</speed><fix>3d</fix><sat>9</sat><hdop>1.0</hdop></trkpt>
668    <trkpt lat="58.4088850" lon="15.6140967"><ele>79.60</ele><time>2005-11-27T09:47:41.000Z</time><course>90.9</course><speed>5.8</speed><fix>3d</fix><sat>9</sat><hdop>1.0</hdop></trkpt>
669    <trkpt lat="58.4088850" lon="15.6141850"><ele>80.50</ele><time>2005-11-27T09:47:42.000Z</time><course>89.3</course><speed>4.8</speed><fix>3d</fix><sat>8</sat><hdop>1.5</hdop></trkpt>
670    <trkpt lat="58.4088917" lon="15.6142517"><ele>82.50</ele><time>2005-11-27T09:47:43.000Z</time><course>88.3</course><speed>3.5</speed><fix>3d</fix><sat>9</sat><hdop>1.0</hdop></trkpt>
671    <trkpt lat="58.4088983" lon="15.6142917"><ele>84.90</ele><time>2005-11-27T09:47:44.000Z</time><course>83.4</course><speed>1.7</speed><fix>3d</fix><sat>9</sat><hdop>1.0</hdop></trkpt>
672    <trkpt lat="58.4089033" lon="15.6143033"><ele>86.20</ele><time>2005-11-27T09:47:45.000Z</time><course>28.1</course><speed>0.5</speed><fix>3d</fix><sat>9</sat><hdop>1.0</hdop></trkpt>
673    <trkpt lat="58.4089000" lon="15.6143017"><ele>84.70</ele><time>2005-11-27T09:47:46.000Z</time><course>11.2</course><speed>0.3</speed><fix>3d</fix><sat>9</sat><hdop>1.0</hdop></trkpt>
674    <trkpt lat="58.4088950" lon="15.6143050"><ele>83.60</ele><time>2005-11-27T09:47:47.000Z</time><course>25.2</course><speed>0.3</speed><fix>3d</fix><sat>9</sat><hdop>1.0</hdop></trkpt>
675    <trkpt lat="58.4088933" lon="15.6143050"><ele>83.20</ele><time>2005-11-27T09:47:48.000Z</time><course>14.7</course><speed>0.2</speed><fix>3d</fix><sat>9</sat><hdop>1.0</hdop></trkpt>
676    <trkpt lat="58.4088900" lon="15.6143067"><ele>82.30</ele><time>2005-11-27T09:47:49.000Z</time><course>75.9</course><speed>0.2</speed><fix>3d</fix><sat>9</sat><hdop>1.0</hdop></trkpt>
677    <trkpt lat="58.4088867" lon="15.6143083"><ele>81.60</ele><time>2005-11-27T09:47:50.000Z</time><course>2.1</course><speed>0.3</speed><fix>3d</fix><sat>9</sat><hdop>1.0</hdop></trkpt>
678    <trkpt lat="58.4088833" lon="15.6143100"><ele>80.70</ele><time>2005-11-27T09:47:51.000Z</time><course>1.0</course><speed>0.1</speed><fix>3d</fix><sat>9</sat><hdop>1.0</hdop></trkpt>
679    <trkpt lat="58.4088800" lon="15.6143117"><ele>80.20</ele><time>2005-11-27T09:47:52.000Z</time><course>358.4</course><speed>0.2</speed><fix>3d</fix><sat>9</sat><hdop>1.0</hdop></trkpt>
680    <trkpt lat="58.4088783" lon="15.6143117"><ele>79.60</ele><time>2005-11-27T09:47:53.000Z</time><course>338.0</course><speed>0.1</speed><fix>3d</fix><sat>9</sat><hdop>1.0</hdop></trkpt>
681    <trkpt lat="58.4088750" lon="15.6143150"><ele>79.20</ele><time>2005-11-27T09:47:54.000Z</time><course>91.4</course><speed>0.1</speed><fix>3d</fix><sat>9</sat><hdop>1.0</hdop></trkpt>
682    <trkpt lat="58.4088700" lon="15.6143183"><ele>78.40</ele><time>2005-11-27T09:47:55.000Z</time><course>144.6</course><speed>0.2</speed><fix>3d</fix><sat>9</sat><hdop>1.0</hdop></trkpt>
683    <trkpt lat="58.4088650" lon="15.6143217"><ele>77.50</ele><time>2005-11-27T09:47:56.000Z</time><course>116.8</course><speed>0.1</speed><fix>3d</fix><sat>9</sat><hdop>1.0</hdop></trkpt>
684    <trkpt lat="58.4088617" lon="15.6143250"><ele>76.80</ele><time>2005-11-27T09:47:57.000Z</time><course>20.1</course><speed>0.1</speed><fix>3d</fix><sat>9</sat><hdop>1.0</hdop></trkpt>
685    <trkpt lat="58.4088567" lon="15.6143283"><ele>76.10</ele><time>2005-11-27T09:47:58.000Z</time><course>60.0</course><speed>0.1</speed><fix>3d</fix><sat>9</sat><hdop>1.0</hdop></trkpt>
686    <trkpt lat="58.4088533" lon="15.6143333"><ele>75.40</ele><time>2005-11-27T09:47:59.000Z</time><course>54.4</course><speed>0.1</speed><fix>3d</fix><sat>9</sat><hdop>1.0</hdop></trkpt>
687    <trkpt lat="58.4088483" lon="15.6143367"><ele>74.50</ele><time>2005-11-27T09:48:00.000Z</time><course>160.1</course><speed>0.1</speed><fix>3d</fix><sat>9</sat><hdop>1.0</hdop></trkpt>
688    <trkpt lat="58.4088433" lon="15.6143400"><ele>73.70</ele><time>2005-11-27T09:48:01.000Z</time><course>26.9</course><speed>0.1</speed><fix>3d</fix><sat>9</sat><hdop>1.0</hdop></trkpt>
689    <trkpt lat="58.4088383" lon="15.6143433"><ele>72.40</ele><time>2005-11-27T09:48:02.000Z</time><course>152.0</course><speed>0.2</speed><fix>3d</fix><sat>9</sat><hdop>1.0</hdop></trkpt>
690    <trkpt lat="58.4088300" lon="15.6143483"><ele>70.90</ele><time>2005-11-27T09:48:03.000Z</time><course>144.4</course><speed>0.3</speed><fix>3d</fix><sat>9</sat><hdop>1.0</hdop></trkpt>
691    <trkpt lat="58.4088250" lon="15.6143517"><ele>69.70</ele><time>2005-11-27T09:48:04.000Z</time><course>208.2</course><speed>0.1</speed><fix>3d</fix><sat>9</sat><hdop>1.0</hdop></trkpt>
692    <trkpt lat="58.4088183" lon="15.6143567"><ele>68.30</ele><time>2005-11-27T09:48:05.000Z</time><course>137.5</course><speed>0.3</speed><fix>3d</fix><sat>9</sat><hdop>1.0</hdop></trkpt>
693    <trkpt lat="58.4088100" lon="15.6143600"><ele>66.30</ele><time>2005-11-27T09:48:06.000Z</time><course>129.5</course><speed>0.4</speed><fix>3d</fix><sat>8</sat><hdop>1.5</hdop></trkpt>
694    <trkpt lat="58.4088033" lon="15.6143717"><ele>64.60</ele><time>2005-11-27T09:48:07.000Z</time><course>98.2</course><speed>1.0</speed><fix>3d</fix><sat>8</sat><hdop>1.5</hdop></trkpt>
695    <trkpt lat="58.4088000" lon="15.6143983"><ele>63.60</ele><time>2005-11-27T09:48:08.000Z</time><course>98.7</course><speed>2.1</speed><fix>3d</fix><sat>9</sat><hdop>1.0</hdop></trkpt>
696    <trkpt lat="58.4087933" lon="15.6144433"><ele>62.50</ele><time>2005-11-27T09:48:09.000Z</time><course>98.6</course><speed>3.2</speed><fix>3d</fix><sat>9</sat><hdop>1.0</hdop></trkpt>
697    <trkpt lat="58.4087850" lon="15.6145033"><ele>60.90</ele><time>2005-11-27T09:48:10.000Z</time><course>98.6</course><speed>3.2</speed><fix>3d</fix><sat>8</sat><hdop>1.5</hdop></trkpt>
698    <trkpt lat="58.4087783" lon="15.6145667"><ele>59.50</ele><time>2005-11-27T09:48:11.000Z</time><course>97.6</course><speed>4.0</speed><fix>3d</fix><sat>8</sat><hdop>1.5</hdop></trkpt>
699    <trkpt lat="58.4087783" lon="15.6146317"><ele>60.40</ele><time>2005-11-27T09:48:12.000Z</time><course>97.4</course><speed>3.8</speed><fix>3d</fix><sat>9</sat><hdop>1.0</hdop></trkpt>
700    <trkpt lat="58.4087783" lon="15.6146950"><ele>61.20</ele><time>2005-11-27T09:48:13.000Z</time><course>92.8</course><speed>3.8</speed><fix>3d</fix><sat>9</sat><hdop>1.0</hdop></trkpt>
701    <trkpt lat="58.4087800" lon="15.6147600"><ele>60.30</ele><time>2005-11-27T09:48:14.000Z</time><course>83.3</course><speed>4.1</speed><fix>3d</fix><sat>8</sat><hdop>1.5</hdop></trkpt>
702    <trkpt lat="58.4087900" lon="15.6148233"><ele>60.40</ele><time>2005-11-27T09:48:15.000Z</time><course>83.3</course><speed>4.1</speed><fix>3d</fix><sat>9</sat><hdop>1.0</hdop></trkpt>
703    <trkpt lat="58.4088133" lon="15.6148817"><ele>60.30</ele><time>2005-11-27T09:48:16.000Z</time><course>71.2</course><speed>3.9</speed><fix>3d</fix><sat>9</sat><hdop>1.0</hdop></trkpt>
704    <trkpt lat="58.4088483" lon="15.6149317"><ele>60.20</ele><time>2005-11-27T09:48:17.000Z</time><course>37.1</course><speed>4.8</speed><fix>3d</fix><sat>9</sat><hdop>1.0</hdop></trkpt>
705    <trkpt lat="58.4088883" lon="15.6149800"><ele>60.00</ele><time>2005-11-27T09:48:18.000Z</time><course>32.6</course><speed>5.8</speed><fix>3d</fix><sat>9</sat><hdop>1.0</hdop></trkpt>
706    <trkpt lat="58.4089333" lon="15.6150383"><ele>59.70</ele><time>2005-11-27T09:48:19.000Z</time><course>38.8</course><speed>6.2</speed><fix>3d</fix><sat>9</sat><hdop>1.0</hdop></trkpt>
707    <trkpt lat="58.4089833" lon="15.6151117"><ele>60.20</ele><time>2005-11-27T09:48:20.000Z</time><course>43.5</course><speed>7.1</speed><fix>3d</fix><sat>9</sat><hdop>1.0</hdop></trkpt>
708    <trkpt lat="58.4090333" lon="15.6151983"><ele>60.50</ele><time>2005-11-27T09:48:21.000Z</time><course>48.6</course><speed>7.8</speed><fix>3d</fix><sat>9</sat><hdop>1.0</hdop></trkpt>
709    <trkpt lat="58.4090867" lon="15.6152967"><ele>60.80</ele><time>2005-11-27T09:48:22.000Z</time><course>46.7</course><speed>8.2</speed><fix>3d</fix><sat>9</sat><hdop>1.0</hdop></trkpt>
710    <trkpt lat="58.4091417" lon="15.6154000"><ele>61.90</ele><time>2005-11-27T09:48:23.000Z</time><course>46.4</course><speed>8.4</speed><fix>3d</fix><sat>9</sat><hdop>1.0</hdop></trkpt>
711    <trkpt lat="58.4091933" lon="15.6155017"><ele>63.00</ele><time>2005-11-27T09:48:24.000Z</time><course>50.5</course><speed>7.4</speed><fix>3d</fix><sat>9</sat><hdop>1.0</hdop></trkpt>
712    <trkpt lat="58.4092333" lon="15.6155950"><ele>63.70</ele><time>2005-11-27T09:48:25.000Z</time><course>50.0</course><speed>6.5</speed><fix>3d</fix><sat>9</sat><hdop>1.0</hdop></trkpt>
713    <trkpt lat="58.4092767" lon="15.6156767"><ele>65.10</ele><time>2005-11-27T09:48:26.000Z</time><course>49.2</course><speed>6.4</speed><fix>3d</fix><sat>9</sat><hdop>1.0</hdop></trkpt>
714    <trkpt lat="58.4093217" lon="15.6157500"><ele>66.30</ele><time>2005-11-27T09:48:27.000Z</time><course>45.2</course><speed>6.0</speed><fix>3d</fix><sat>9</sat><hdop>1.0</hdop></trkpt>
715    <trkpt lat="58.4093683" lon="15.6158100"><ele>68.70</ele><time>2005-11-27T09:48:28.000Z</time><course>43.6</course><speed>5.1</speed><fix>3d</fix><sat>9</sat><hdop>1.0</hdop></trkpt>
716    <trkpt lat="58.4094083" lon="15.6158500"><ele>70.80</ele><time>2005-11-27T09:48:29.000Z</time><course>33.2</course><speed>4.3</speed><fix>3d</fix><sat>9</sat><hdop>1.0</hdop></trkpt>
717    <trkpt lat="58.4094317" lon="15.6158667"><ele>71.90</ele><time>2005-11-27T09:48:30.000Z</time><course>22.9</course><speed>2.6</speed><fix>3d</fix><sat>9</sat><hdop>1.0</hdop></trkpt>
718    <trkpt lat="58.4094483" lon="15.6158750"><ele>74.40</ele><time>2005-11-27T09:48:31.000Z</time><course>1.5</course><speed>0.6</speed><fix>3d</fix><sat>9</sat><hdop>1.0</hdop></trkpt>
719    <trkpt lat="58.4094700" lon="15.6158867"><ele>77.50</ele><time>2005-11-27T09:48:32.000Z</time><course>2.6</course><speed>0.4</speed><fix>3d</fix><sat>9</sat><hdop>1.0</hdop></trkpt>
720    <trkpt lat="58.4094833" lon="15.6158933"><ele>80.00</ele><time>2005-11-27T09:48:33.000Z</time><course>60.2</course><speed>0.2</speed><fix>3d</fix><sat>9</sat><hdop>1.0</hdop></trkpt>
721    <trkpt lat="58.4094967" lon="15.6158983"><ele>82.60</ele><time>2005-11-27T09:48:34.000Z</time><course>14.8</course><speed>0.3</speed><fix>3d</fix><sat>9</sat><hdop>1.0</hdop></trkpt>
722    <trkpt lat="58.4095050" lon="15.6159000"><ele>84.90</ele><time>2005-11-27T09:48:35.000Z</time><course>34.5</course><speed>0.2</speed><fix>3d</fix><sat>9</sat><hdop>1.0</hdop></trkpt>
723    <trkpt lat="58.4095100" lon="15.6159067"><ele>86.70</ele><time>2005-11-27T09:48:36.000Z</time><course>26.1</course><speed>0.3</speed><fix>3d</fix><sat>9</sat><hdop>1.0</hdop></trkpt>
724    <trkpt lat="58.4095150" lon="15.6159117"><ele>88.10</ele><time>2005-11-27T09:48:37.000Z</time><course>39.3</course><speed>0.4</speed><fix>3d</fix><sat>9</sat><hdop>1.0</hdop></trkpt>
725    <trkpt lat="58.4095167" lon="15.6159150"><ele>89.80</ele><time>2005-11-27T09:48:38.000Z</time><course>354.6</course><speed>0.4</speed><fix>3d</fix><sat>9</sat><hdop>1.0</hdop></trkpt>
726    <trkpt lat="58.4095200" lon="15.6159183"><ele>91.40</ele><time>2005-11-27T09:48:39.000Z</time><course>17.4</course><speed>0.3</speed><fix>3d</fix><sat>9</sat><hdop>1.0</hdop></trkpt>
727    <trkpt lat="58.4095183" lon="15.6159250"><ele>92.30</ele><time>2005-11-27T09:48:40.000Z</time><course>17.4</course><speed>0.3</speed><fix>3d</fix><sat>8</sat><hdop>1.5</hdop></trkpt>
728    <trkpt lat="58.4095200" lon="15.6159317"><ele>93.10</ele><time>2005-11-27T09:48:41.000Z</time><course>33.9</course><speed>0.4</speed><fix>3d</fix><sat>8</sat><hdop>1.5</hdop></trkpt>
729    <trkpt lat="58.4095317" lon="15.6159517"><ele>94.00</ele><time>2005-11-27T09:48:42.000Z</time><course>41.4</course><speed>0.9</speed><fix>3d</fix><sat>8</sat><hdop>1.5</hdop></trkpt>
730    <trkpt lat="58.4095550" lon="15.6159883"><ele>95.70</ele><time>2005-11-27T09:48:43.000Z</time><course>49.0</course><speed>3.3</speed><fix>3d</fix><sat>9</sat><hdop>1.0</hdop></trkpt>
731    <trkpt lat="58.4095800" lon="15.6160400"><ele>97.50</ele><time>2005-11-27T09:48:44.000Z</time><course>61.4</course><speed>4.3</speed><fix>3d</fix><sat>9</sat><hdop>1.0</hdop></trkpt>
732    <trkpt lat="58.4096117" lon="15.6161050"><ele>98.50</ele><time>2005-11-27T09:48:45.000Z</time><course>54.0</course><speed>5.4</speed><fix>3d</fix><sat>9</sat><hdop>1.0</hdop></trkpt>
733    <trkpt lat="58.4096533" lon="15.6161817"><ele>99.50</ele><time>2005-11-27T09:48:46.000Z</time><course>47.9</course><speed>6.5</speed><fix>3d</fix><sat>9</sat><hdop>1.0</hdop></trkpt>
734    <trkpt lat="58.4096983" lon="15.6162733"><ele>100.50</ele><time>2005-11-27T09:48:47.000Z</time><course>49.2</course><speed>7.4</speed><fix>3d</fix><sat>9</sat><hdop>1.0</hdop></trkpt>
735    <trkpt lat="58.4097450" lon="15.6163717"><ele>101.10</ele><time>2005-11-27T09:48:48.000Z</time><course>48.5</course><speed>7.8</speed><fix>3d</fix><sat>9</sat><hdop>1.0</hdop></trkpt>
736    <trkpt lat="58.4097983" lon="15.6164700"><ele>102.10</ele><time>2005-11-27T09:48:49.000Z</time><course>46.9</course><speed>8.2</speed><fix>3d</fix><sat>9</sat><hdop>1.0</hdop></trkpt>
737    <trkpt lat="58.4098617" lon="15.6165683"><ele>103.50</ele><time>2005-11-27T09:48:50.000Z</time><course>44.7</course><speed>8.4</speed><fix>3d</fix><sat>9</sat><hdop>1.0</hdop></trkpt>
738    <trkpt lat="58.4099200" lon="15.6166617"><ele>104.10</ele><time>2005-11-27T09:48:51.000Z</time><course>44.7</course><speed>7.7</speed><fix>3d</fix><sat>9</sat><hdop>1.0</hdop></trkpt>
739    <trkpt lat="58.4099600" lon="15.6167533"><ele>104.90</ele><time>2005-11-27T09:48:52.000Z</time><course>52.1</course><speed>6.2</speed><fix>3d</fix><sat>9</sat><hdop>1.0</hdop></trkpt>
740    <trkpt lat="58.4099850" lon="15.6168200"><ele>105.80</ele><time>2005-11-27T09:48:53.000Z</time><course>51.4</course><speed>4.2</speed><fix>3d</fix><sat>9</sat><hdop>1.0</hdop></trkpt>
741    <trkpt lat="58.4099950" lon="15.6168517"><ele>105.40</ele><time>2005-11-27T09:48:54.000Z</time><course>44.6</course><speed>2.2</speed><fix>3d</fix><sat>9</sat><hdop>1.0</hdop></trkpt>
742    <trkpt lat="58.4100050" lon="15.6168650"><ele>105.40</ele><time>2005-11-27T09:48:55.000Z</time><course>37.3</course><speed>1.6</speed><fix>3d</fix><sat>9</sat><hdop>1.0</hdop></trkpt>
743    <trkpt lat="58.4100033" lon="15.6168600"><ele>103.40</ele><time>2005-11-27T09:48:56.000Z</time><course>49.9</course><speed>1.3</speed><fix>3d</fix><sat>9</sat><hdop>1.0</hdop></trkpt>
744    <trkpt lat="58.4100050" lon="15.6168650"><ele>102.40</ele><time>2005-11-27T09:48:57.000Z</time><course>52.0</course><speed>1.5</speed><fix>3d</fix><sat>9</sat><hdop>1.0</hdop></trkpt>
745    <trkpt lat="58.4100117" lon="15.6168817"><ele>101.60</ele><time>2005-11-27T09:48:58.000Z</time><course>49.0</course><speed>2.1</speed><fix>3d</fix><sat>9</sat><hdop>1.0</hdop></trkpt>
746    <trkpt lat="58.4100200" lon="15.6169050"><ele>100.80</ele><time>2005-11-27T09:48:59.000Z</time><course>50.3</course><speed>2.9</speed><fix>3d</fix><sat>9</sat><hdop>1.0</hdop></trkpt>
747    <trkpt lat="58.4100317" lon="15.6169450"><ele>99.40</ele><time>2005-11-27T09:49:00.000Z</time><course>52.7</course><speed>3.9</speed><fix>3d</fix><sat>9</sat><hdop>1.0</hdop></trkpt>
748    <trkpt lat="58.4100533" lon="15.6170083"><ele>99.00</ele><time>2005-11-27T09:49:01.000Z</time><course>53.5</course><speed>4.8</speed><fix>3d</fix><sat>9</sat><hdop>1.0</hdop></trkpt>
749    <trkpt lat="58.4100767" lon="15.6170850"><ele>98.50</ele><time>2005-11-27T09:49:02.000Z</time><course>60.9</course><speed>5.7</speed><fix>3d</fix><sat>9</sat><hdop>1.0</hdop></trkpt>
750    <trkpt lat="58.4101050" lon="15.6171750"><ele>98.30</ele><time>2005-11-27T09:49:03.000Z</time><course>57.7</course><speed>6.3</speed><fix>3d</fix><sat>9</sat><hdop>1.0</hdop></trkpt>
751    <trkpt lat="58.4101433" lon="15.6172717"><ele>98.40</ele><time>2005-11-27T09:49:04.000Z</time><course>52.9</course><speed>6.8</speed><fix>3d</fix><sat>9</sat><hdop>1.0</hdop></trkpt>
752    <trkpt lat="58.4101933" lon="15.6173750"><ele>99.00</ele><time>2005-11-27T09:49:05.000Z</time><course>50.5</course><speed>7.3</speed><fix>3d</fix><sat>9</sat><hdop>1.0</hdop></trkpt>
753    <trkpt lat="58.4102383" lon="15.6174750"><ele>99.20</ele><time>2005-11-27T09:49:06.000Z</time><course>52.5</course><speed>7.3</speed><fix>3d</fix><sat>9</sat><hdop>1.0</hdop></trkpt>
754    <trkpt lat="58.4102817" lon="15.6175717"><ele>98.70</ele><time>2005-11-27T09:49:07.000Z</time><course>45.7</course><speed>7.3</speed><fix>3d</fix><sat>9</sat><hdop>1.0</hdop></trkpt>
755    <trkpt lat="58.4103250" lon="15.6176667"><ele>98.40</ele><time>2005-11-27T09:49:08.000Z</time><course>47.9</course><speed>7.3</speed><fix>3d</fix><sat>9</sat><hdop>1.0</hdop></trkpt>
756    <trkpt lat="58.4103667" lon="15.6177750"><ele>97.90</ele><time>2005-11-27T09:49:09.000Z</time><course>52.9</course><speed>7.7</speed><fix>3d</fix><sat>9</sat><hdop>1.0</hdop></trkpt>
757    <trkpt lat="58.4103950" lon="15.6178800"><ele>96.50</ele><time>2005-11-27T09:49:10.000Z</time><course>59.0</course><speed>7.2</speed><fix>3d</fix><sat>9</sat><hdop>1.0</hdop></trkpt>
758    <trkpt lat="58.4104250" lon="15.6179800"><ele>95.20</ele><time>2005-11-27T09:49:11.000Z</time><course>56.8</course><speed>6.9</speed><fix>3d</fix><sat>9</sat><hdop>1.0</hdop></trkpt>
759    <trkpt lat="58.4104400" lon="15.6180900"><ele>93.50</ele><time>2005-11-27T09:49:12.000Z</time><course>68.8</course><speed>7.0</speed><fix>3d</fix><sat>9</sat><hdop>1.0</hdop></trkpt>
760    <trkpt lat="58.4104417" lon="15.6182100"><ele>89.00</ele><time>2005-11-27T09:49:13.000Z</time><course>72.4</course><speed>6.6</speed><fix>3d</fix><sat>9</sat><hdop>1.0</hdop></trkpt>
761    <trkpt lat="58.4104400" lon="15.6183250"><ele>85.60</ele><time>2005-11-27T09:49:14.000Z</time><course>75.7</course><speed>6.4</speed><fix>3d</fix><sat>9</sat><hdop>1.0</hdop></trkpt>
762    <trkpt lat="58.4104400" lon="15.6184333"><ele>83.20</ele><time>2005-11-27T09:49:15.000Z</time><course>79.7</course><speed>6.0</speed><fix>3d</fix><sat>9</sat><hdop>1.0</hdop></trkpt>
763    <trkpt lat="58.4104383" lon="15.6185317"><ele>80.30</ele><time>2005-11-27T09:49:16.000Z</time><course>79.7</course><speed>6.0</speed><fix>3d</fix><sat>9</sat><hdop>1.0</hdop></trkpt>
764    <trkpt lat="58.4104383" lon="15.6186400"><ele>78.30</ele><time>2005-11-27T09:49:17.000Z</time><course>78.4</course><speed>6.6</speed><fix>3d</fix><sat>9</sat><hdop>1.0</hdop></trkpt>
765    <trkpt lat="58.4104417" lon="15.6187517"><ele>75.50</ele><time>2005-11-27T09:49:18.000Z</time><course>76.8</course><speed>6.4</speed><fix>3d</fix><sat>9</sat><hdop>1.0</hdop></trkpt>
766    <trkpt lat="58.4104467" lon="15.6188617"><ele>73.00</ele><time>2005-11-27T09:49:19.000Z</time><course>79.2</course><speed>6.3</speed><fix>3d</fix><sat>9</sat><hdop>1.0</hdop></trkpt>
767    <trkpt lat="58.4104500" lon="15.6189750"><ele>71.50</ele><time>2005-11-27T09:49:20.000Z</time><course>83.0</course><speed>6.8</speed><fix>3d</fix><sat>9</sat><hdop>1.0</hdop></trkpt>
768    <trkpt lat="58.4104517" lon="15.6190983"><ele>70.90</ele><time>2005-11-27T09:49:21.000Z</time><course>85.3</course><speed>6.7</speed><fix>3d</fix><sat>9</sat><hdop>1.0</hdop></trkpt>
769    <trkpt lat="58.4104550" lon="15.6192150"><ele>69.40</ele><time>2005-11-27T09:49:22.000Z</time><course>77.0</course><speed>6.4</speed><fix>3d</fix><sat>9</sat><hdop>1.0</hdop></trkpt>
770    <trkpt lat="58.4104667" lon="15.6193317"><ele>68.60</ele><time>2005-11-27T09:49:23.000Z</time><course>74.9</course><speed>6.5</speed><fix>3d</fix><sat>9</sat><hdop>1.0</hdop></trkpt>
771    <trkpt lat="58.4104817" lon="15.6194467"><ele>67.40</ele><time>2005-11-27T09:49:24.000Z</time><course>69.4</course><speed>6.8</speed><fix>3d</fix><sat>9</sat><hdop>1.0</hdop></trkpt>
772    <trkpt lat="58.4104950" lon="15.6195633"><ele>66.20</ele><time>2005-11-27T09:49:25.000Z</time><course>70.3</course><speed>6.8</speed><fix>3d</fix><sat>9</sat><hdop>1.0</hdop></trkpt>
773    <trkpt lat="58.4105050" lon="15.6196800"><ele>64.80</ele><time>2005-11-27T09:49:26.000Z</time><course>73.6</course><speed>6.7</speed><fix>3d</fix><sat>9</sat><hdop>1.0</hdop></trkpt>
774    <trkpt lat="58.4105183" lon="15.6197967"><ele>64.10</ele><time>2005-11-27T09:49:27.000Z</time><course>74.4</course><speed>6.9</speed><fix>3d</fix><sat>9</sat><hdop>1.0</hdop></trkpt>
775    <trkpt lat="58.4105333" lon="15.6199217"><ele>65.00</ele><time>2005-11-27T09:49:28.000Z</time><course>76.2</course><speed>7.3</speed><fix>3d</fix><sat>9</sat><hdop>1.0</hdop></trkpt>
776    <trkpt lat="58.4105483" lon="15.6200433"><ele>65.30</ele><time>2005-11-27T09:49:29.000Z</time><course>79.0</course><speed>7.5</speed><fix>3d</fix><sat>9</sat><hdop>1.0</hdop></trkpt>
777    <trkpt lat="58.4105567" lon="15.6201833"><ele>64.90</ele><time>2005-11-27T09:49:30.000Z</time><course>79.8</course><speed>8.1</speed><fix>3d</fix><sat>8</sat><hdop>1.5</hdop></trkpt>
778    <trkpt lat="58.4105583" lon="15.6203200"><ele>64.30</ele><time>2005-11-27T09:49:31.000Z</time><course>84.4</course><speed>7.5</speed><fix>3d</fix><sat>8</sat><hdop>1.5</hdop></trkpt>
779    <trkpt lat="58.4105617" lon="15.6204467"><ele>64.00</ele><time>2005-11-27T09:49:32.000Z</time><course>84.4</course><speed>7.5</speed><fix>3d</fix><sat>8</sat><hdop>1.5</hdop></trkpt>
780    <trkpt lat="58.4105600" lon="15.6205733"><ele>63.50</ele><time>2005-11-27T09:49:33.000Z</time><course>87.9</course><speed>6.9</speed><fix>3d</fix><sat>8</sat><hdop>1.5</hdop></trkpt>
781    <trkpt lat="58.4105567" lon="15.6206917"><ele>62.20</ele><time>2005-11-27T09:49:34.000Z</time><course>85.0</course><speed>5.8</speed><fix>3d</fix><sat>8</sat><hdop>1.5</hdop></trkpt>
782    <trkpt lat="58.4105633" lon="15.6208017"><ele>61.30</ele><time>2005-11-27T09:49:35.000Z</time><course>78.2</course><speed>5.9</speed><fix>3d</fix><sat>8</sat><hdop>1.5</hdop></trkpt>
783    <trkpt lat="58.4105800" lon="15.6209033"><ele>61.50</ele><time>2005-11-27T09:49:36.000Z</time><course>72.5</course><speed>5.3</speed><fix>3d</fix><sat>8</sat><hdop>1.5</hdop></trkpt>
784    <trkpt lat="58.4105933" lon="15.6209967"><ele>60.10</ele><time>2005-11-27T09:49:37.000Z</time><course>74.8</course><speed>5.0</speed><fix>3d</fix><sat>9</sat><hdop>1.0</hdop></trkpt>
785    <trkpt lat="58.4106000" lon="15.6210867"><ele>58.70</ele><time>2005-11-27T09:49:38.000Z</time><course>72.5</course><speed>4.8</speed><fix>3d</fix><sat>9</sat><hdop>1.0</hdop></trkpt>
786    <trkpt lat="58.4106033" lon="15.6211700"><ele>57.20</ele><time>2005-11-27T09:49:39.000Z</time><course>82.3</course><speed>4.8</speed><fix>3d</fix><sat>9</sat><hdop>1.0</hdop></trkpt>
787    <trkpt lat="58.4106017" lon="15.6212583"><ele>56.90</ele><time>2005-11-27T09:49:40.000Z</time><course>88.5</course><speed>4.9</speed><fix>3d</fix><sat>9</sat><hdop>1.0</hdop></trkpt>
788    <trkpt lat="58.4106050" lon="15.6213500"><ele>57.10</ele><time>2005-11-27T09:49:41.000Z</time><course>84.2</course><speed>4.7</speed><fix>3d</fix><sat>9</sat><hdop>1.0</hdop></trkpt>
789    <trkpt lat="58.4106050" lon="15.6214350"><ele>56.00</ele><time>2005-11-27T09:49:42.000Z</time><course>84.6</course><speed>4.4</speed><fix>3d</fix><sat>9</sat><hdop>1.0</hdop></trkpt>
790    <trkpt lat="58.4106067" lon="15.6215183"><ele>54.50</ele><time>2005-11-27T09:49:43.000Z</time><course>85.0</course><speed>4.2</speed><fix>3d</fix><sat>9</sat><hdop>1.0</hdop></trkpt>
791    <trkpt lat="58.4106100" lon="15.6215917"><ele>54.50</ele><time>2005-11-27T09:49:44.000Z</time><course>91.2</course><speed>4.0</speed><fix>3d</fix><sat>9</sat><hdop>1.0</hdop></trkpt>
792    <trkpt lat="58.4106050" lon="15.6216500"><ele>53.70</ele><time>2005-11-27T09:49:45.000Z</time><course>80.9</course><speed>3.1</speed><fix>3d</fix><sat>9</sat><hdop>1.0</hdop></trkpt>
793    <trkpt lat="58.4106033" lon="15.6216850"><ele>53.40</ele><time>2005-11-27T09:49:46.000Z</time><course>76.6</course><speed>1.7</speed><fix>3d</fix><sat>9</sat><hdop>1.0</hdop></trkpt>
794    <trkpt lat="58.4106033" lon="15.6217017"><ele>54.40</ele><time>2005-11-27T09:49:47.000Z</time><course>76.6</course><speed>1.7</speed><fix>3d</fix><sat>9</sat><hdop>1.0</hdop></trkpt>
795    <trkpt lat="58.4106033" lon="15.6217017"><ele>54.30</ele><time>2005-11-27T09:49:48.000Z</time><course>40.2</course><speed>0.4</speed><fix>3d</fix><sat>9</sat><hdop>1.0</hdop></trkpt>
796    <trkpt lat="58.4105983" lon="15.6217000"><ele>54.90</ele><time>2005-11-27T09:49:49.000Z</time><course>11.4</course><speed>0.1</speed><fix>3d</fix><sat>9</sat><hdop>1.0</hdop></trkpt>
797    <trkpt lat="58.4105917" lon="15.6216983"><ele>55.30</ele><time>2005-11-27T09:49:50.000Z</time><course>191.8</course><speed>0.3</speed><fix>3d</fix><sat>9</sat><hdop>1.0</hdop></trkpt>
798    <trkpt lat="58.4105850" lon="15.6216983"><ele>55.50</ele><time>2005-11-27T09:49:51.000Z</time><course>44.2</course><speed>0.2</speed><fix>3d</fix><sat>9</sat><hdop>1.0</hdop></trkpt>
799    <trkpt lat="58.4105833" lon="15.6217000"><ele>55.60</ele><time>2005-11-27T09:49:52.000Z</time><course>47.5</course><speed>0.3</speed><fix>3d</fix><sat>9</sat><hdop>1.0</hdop></trkpt>
800    <trkpt lat="58.4105833" lon="15.6217033"><ele>55.80</ele><time>2005-11-27T09:49:53.000Z</time><course>332.2</course><speed>0.2</speed><fix>3d</fix><sat>9</sat><hdop>1.0</hdop></trkpt>
801    <trkpt lat="58.4105817" lon="15.6217067"><ele>55.80</ele><time>2005-11-27T09:49:54.000Z</time><course>57.9</course><speed>0.4</speed><fix>3d</fix><sat>9</sat><hdop>1.0</hdop></trkpt>
802    <trkpt lat="58.4105783" lon="15.6217083"><ele>55.50</ele><time>2005-11-27T09:49:55.000Z</time><course>158.5</course><speed>0.1</speed><fix>3d</fix><sat>9</sat><hdop>1.0</hdop></trkpt>
803    <trkpt lat="58.4105800" lon="15.6217150"><ele>57.20</ele><time>2005-11-27T09:49:56.000Z</time><course>24.1</course><speed>0.2</speed><fix>3d</fix><sat>9</sat><hdop>1.0</hdop></trkpt>
804    <trkpt lat="58.4105817" lon="15.6217167"><ele>59.40</ele><time>2005-11-27T09:49:57.000Z</time><course>34.3</course><speed>0.3</speed><fix>3d</fix><sat>8</sat><hdop>1.1</hdop></trkpt>
805    <trkpt lat="58.4105800" lon="15.6217167"><ele>60.90</ele><time>2005-11-27T09:49:58.000Z</time><course>166.7</course><speed>0.2</speed><fix>3d</fix><sat>8</sat><hdop>1.1</hdop></trkpt>
806    <trkpt lat="58.4105783" lon="15.6217183"><ele>62.30</ele><time>2005-11-27T09:49:59.000Z</time><course>172.1</course><speed>0.1</speed><fix>3d</fix><sat>9</sat><hdop>1.0</hdop></trkpt>
807    <trkpt lat="58.4105783" lon="15.6217150"><ele>63.60</ele><time>2005-11-27T09:50:00.000Z</time><course>247.6</course><speed>0.2</speed><fix>3d</fix><sat>9</sat><hdop>1.0</hdop></trkpt>
808    <trkpt lat="58.4105750" lon="15.6217100"><ele>64.30</ele><time>2005-11-27T09:50:01.000Z</time><course>187.4</course><speed>0.1</speed><fix>3d</fix><sat>9</sat><hdop>1.0</hdop></trkpt>
809    <trkpt lat="58.4105733" lon="15.6217100"><ele>65.00</ele><time>2005-11-27T09:50:02.000Z</time><course>253.4</course><speed>0.1</speed><fix>3d</fix><sat>9</sat><hdop>1.0</hdop></trkpt>
810    <trkpt lat="58.4105717" lon="15.6217100"><ele>65.20</ele><time>2005-11-27T09:50:03.000Z</time><course>138.5</course><speed>0.1</speed><fix>3d</fix><sat>9</sat><hdop>1.0</hdop></trkpt>
811    <trkpt lat="58.4105700" lon="15.6217050"><ele>65.50</ele><time>2005-11-27T09:50:04.000Z</time><course>212.3</course><speed>0.2</speed><fix>3d</fix><sat>9</sat><hdop>1.0</hdop></trkpt>
812    <trkpt lat="58.4105717" lon="15.6217017"><ele>66.30</ele><time>2005-11-27T09:50:05.000Z</time><course>337.5</course><speed>0.2</speed><fix>3d</fix><sat>9</sat><hdop>1.0</hdop></trkpt>
813    <trkpt lat="58.4105750" lon="15.6217017"><ele>66.80</ele><time>2005-11-27T09:50:06.000Z</time><course>40.1</course><speed>0.2</speed><fix>3d</fix><sat>9</sat><hdop>1.0</hdop></trkpt>
814    <trkpt lat="58.4105733" lon="15.6217000"><ele>67.10</ele><time>2005-11-27T09:50:07.000Z</time><course>17.6</course><speed>0.1</speed><fix>3d</fix><sat>8</sat><hdop>1.1</hdop></trkpt>
815    <trkpt lat="58.4105700" lon="15.6216967"><ele>67.00</ele><time>2005-11-27T09:50:08.000Z</time><course>95.8</course><speed>0.1</speed><fix>3d</fix><sat>8</sat><hdop>1.1</hdop></trkpt>
816    <trkpt lat="58.4105667" lon="15.6216883"><ele>67.30</ele><time>2005-11-27T09:50:09.000Z</time><course>236.3</course><speed>0.4</speed><fix>3d</fix><sat>7</sat><hdop>1.2</hdop></trkpt>
817    <trkpt lat="58.4105650" lon="15.6216783"><ele>67.60</ele><time>2005-11-27T09:50:10.000Z</time><course>286.2</course><speed>0.2</speed><fix>3d</fix><sat>7</sat><hdop>1.2</hdop></trkpt>
818    <trkpt lat="58.4105617" lon="15.6216717"><ele>67.20</ele><time>2005-11-27T09:50:11.000Z</time><course>190.0</course><speed>0.2</speed><fix>3d</fix><sat>7</sat><hdop>1.2</hdop></trkpt>
819    <trkpt lat="58.4105600" lon="15.6216650"><ele>67.20</ele><time>2005-11-27T09:50:12.000Z</time><course>253.1</course><speed>0.1</speed><fix>3d</fix><sat>7</sat><hdop>1.2</hdop></trkpt>
820    <trkpt lat="58.4105567" lon="15.6216617"><ele>67.10</ele><time>2005-11-27T09:50:13.000Z</time><course>73.6</course><speed>0.4</speed><fix>3d</fix><sat>7</sat><hdop>1.2</hdop></trkpt>
821    <trkpt lat="58.4105550" lon="15.6216567"><ele>66.90</ele><time>2005-11-27T09:50:14.000Z</time><course>151.1</course><speed>0.2</speed><fix>3d</fix><sat>7</sat><hdop>1.2</hdop></trkpt>
822    <trkpt lat="58.4105467" lon="15.6216567"><ele>66.50</ele><time>2005-11-27T09:50:15.000Z</time><course>88.5</course><speed>0.4</speed><fix>3d</fix><sat>8</sat><hdop>1.1</hdop></trkpt>
823    <trkpt lat="58.4105417" lon="15.6216617"><ele>66.10</ele><time>2005-11-27T09:50:16.000Z</time><course>84.6</course><speed>0.8</speed><fix>3d</fix><sat>8</sat><hdop>1.1</hdop></trkpt>
824    <trkpt lat="58.4105367" lon="15.6216650"><ele>66.20</ele><time>2005-11-27T09:50:17.000Z</time><course>87.9</course><speed>1.5</speed><fix>3d</fix><sat>8</sat><hdop>1.1</hdop></trkpt>
825    <trkpt lat="58.4105383" lon="15.6216867"><ele>66.50</ele><time>2005-11-27T09:50:18.000Z</time><course>75.7</course><speed>1.7</speed><fix>3d</fix><sat>8</sat><hdop>1.1</hdop></trkpt>
826    <trkpt lat="58.4105450" lon="15.6217133"><ele>66.40</ele><time>2005-11-27T09:50:19.000Z</time><course>66.5</course><speed>2.2</speed><fix>3d</fix><sat>8</sat><hdop>1.1</hdop></trkpt>
827    <trkpt lat="58.4105500" lon="15.6217417"><ele>66.30</ele><time>2005-11-27T09:50:20.000Z</time><course>66.5</course><speed>2.2</speed><fix>3d</fix><sat>8</sat><hdop>1.1</hdop></trkpt>
828    <trkpt lat="58.4105617" lon="15.6217733"><ele>67.20</ele><time>2005-11-27T09:50:21.000Z</time><course>69.2</course><speed>2.3</speed><fix>3d</fix><sat>8</sat><hdop>1.1</hdop></trkpt>
829    <trkpt lat="58.4105783" lon="15.6218250"><ele>67.50</ele><time>2005-11-27T09:50:22.000Z</time><course>69.2</course><speed>2.3</speed><fix>3d</fix><sat>8</sat><hdop>1.1</hdop></trkpt>
830    <trkpt lat="58.4106000" lon="15.6219100"><ele>67.90</ele><time>2005-11-27T09:50:23.000Z</time><course>73.2</course><speed>4.8</speed><fix>3d</fix><sat>8</sat><hdop>1.1</hdop></trkpt>
831    <trkpt lat="58.4106200" lon="15.6220067"><ele>67.80</ele><time>2005-11-27T09:50:24.000Z</time><course>72.3</course><speed>5.2</speed><fix>3d</fix><sat>8</sat><hdop>1.1</hdop></trkpt>
832    <trkpt lat="58.4106467" lon="15.6221217"><ele>68.80</ele><time>2005-11-27T09:50:25.000Z</time><course>74.3</course><speed>6.0</speed><fix>3d</fix><sat>8</sat><hdop>1.1</hdop></trkpt>
833    <trkpt lat="58.4106667" lon="15.6222533"><ele>69.20</ele><time>2005-11-27T09:50:26.000Z</time><course>74.3</course><speed>6.0</speed><fix>3d</fix><sat>7</sat><hdop>1.3</hdop></trkpt>
834    <trkpt lat="58.4106883" lon="15.6223967"><ele>69.00</ele><time>2005-11-27T09:50:27.000Z</time><course>80.1</course><speed>7.0</speed><fix>3d</fix><sat>7</sat><hdop>1.3</hdop></trkpt>
835    <trkpt lat="58.4107050" lon="15.6225350"><ele>69.20</ele><time>2005-11-27T09:50:28.000Z</time><course>81.1</course><speed>7.6</speed><fix>3d</fix><sat>8</sat><hdop>1.1</hdop></trkpt>
836    <trkpt lat="58.4107233" lon="15.6226667"><ele>69.50</ele><time>2005-11-27T09:50:29.000Z</time><course>75.7</course><speed>7.2</speed><fix>3d</fix><sat>8</sat><hdop>1.1</hdop></trkpt>
837    <trkpt lat="58.4107417" lon="15.6228017"><ele>69.20</ele><time>2005-11-27T09:50:30.000Z</time><course>80.5</course><speed>7.2</speed><fix>3d</fix><sat>8</sat><hdop>1.1</hdop></trkpt>
838    <trkpt lat="58.4107567" lon="15.6229417"><ele>68.40</ele><time>2005-11-27T09:50:31.000Z</time><course>76.5</course><speed>7.3</speed><fix>3d</fix><sat>8</sat><hdop>1.1</hdop></trkpt>
839    <trkpt lat="58.4107733" lon="15.6230750"><ele>67.40</ele><time>2005-11-27T09:50:32.000Z</time><course>76.5</course><speed>7.3</speed><fix>3d</fix><sat>8</sat><hdop>1.1</hdop></trkpt>
840    <trkpt lat="58.4107950" lon="15.6232000"><ele>66.50</ele><time>2005-11-27T09:50:33.000Z</time><course>74.7</course><speed>6.7</speed><fix>3d</fix><sat>8</sat><hdop>1.1</hdop></trkpt>
841    <trkpt lat="58.4108133" lon="15.6233133"><ele>65.50</ele><time>2005-11-27T09:50:34.000Z</time><course>73.6</course><speed>6.2</speed><fix>3d</fix><sat>8</sat><hdop>1.1</hdop></trkpt>
842    <trkpt lat="58.4108250" lon="15.6234233"><ele>64.30</ele><time>2005-11-27T09:50:35.000Z</time><course>82.3</course><speed>5.8</speed><fix>3d</fix><sat>8</sat><hdop>1.1</hdop></trkpt>
843    <trkpt lat="58.4108333" lon="15.6235150"><ele>61.10</ele><time>2005-11-27T09:50:36.000Z</time><course>80.2</course><speed>4.7</speed><fix>3d</fix><sat>7</sat><hdop>1.6</hdop></trkpt>
844    <trkpt lat="58.4108400" lon="15.6235983"><ele>59.40</ele><time>2005-11-27T09:50:37.000Z</time><course>83.2</course><speed>4.4</speed><fix>3d</fix><sat>8</sat><hdop>1.1</hdop></trkpt>
845    <trkpt lat="58.4108483" lon="15.6236617"><ele>58.10</ele><time>2005-11-27T09:50:38.000Z</time><course>80.1</course><speed>3.5</speed><fix>3d</fix><sat>9</sat><hdop>1.0</hdop></trkpt>
846    <trkpt lat="58.4108550" lon="15.6237100"><ele>57.00</ele><time>2005-11-27T09:50:39.000Z</time><course>88.1</course><speed>2.5</speed><fix>3d</fix><sat>9</sat><hdop>1.0</hdop></trkpt>
847    <trkpt lat="58.4108583" lon="15.6237433"><ele>56.30</ele><time>2005-11-27T09:50:40.000Z</time><course>88.1</course><speed>2.5</speed><fix>3d</fix><sat>8</sat><hdop>1.5</hdop></trkpt>
848    <trkpt lat="58.4108633" lon="15.6237633"><ele>57.30</ele><time>2005-11-27T09:50:41.000Z</time><course>78.0</course><speed>0.6</speed><fix>3d</fix><sat>8</sat><hdop>1.1</hdop></trkpt>
849    <trkpt lat="58.4108667" lon="15.6237683"><ele>58.50</ele><time>2005-11-27T09:50:42.000Z</time><course>279.2</course><speed>0.2</speed><fix>3d</fix><sat>9</sat><hdop>1.0</hdop></trkpt>
850    <trkpt lat="58.4108700" lon="15.6237700"><ele>59.20</ele><time>2005-11-27T09:50:43.000Z</time><course>217.0</course><speed>0.2</speed><fix>3d</fix><sat>8</sat><hdop>1.1</hdop></trkpt>
851    <trkpt lat="58.4108700" lon="15.6237733"><ele>59.70</ele><time>2005-11-27T09:50:44.000Z</time><course>217.0</course><speed>0.2</speed><fix>3d</fix><sat>8</sat><hdop>1.1</hdop></trkpt>
852    <trkpt lat="58.4108683" lon="15.6237800"><ele>60.20</ele><time>2005-11-27T09:50:45.000Z</time><course>138.9</course><speed>0.1</speed><fix>3d</fix><sat>9</sat><hdop>1.0</hdop></trkpt>
853    <trkpt lat="58.4108683" lon="15.6237833"><ele>58.90</ele><time>2005-11-27T09:50:46.000Z</time><course>231.9</course><speed>0.1</speed><fix>3d</fix><sat>9</sat><hdop>1.0</hdop></trkpt>
854    <trkpt lat="58.4108650" lon="15.6237917"><ele>57.10</ele><time>2005-11-27T09:50:47.000Z</time><course>340.4</course><speed>0.1</speed><fix>3d</fix><sat>9</sat><hdop>1.0</hdop></trkpt>
855    <trkpt lat="58.4108650" lon="15.6237950"><ele>56.40</ele><time>2005-11-27T09:50:48.000Z</time><course>296.3</course><speed>0.1</speed><fix>3d</fix><sat>9</sat><hdop>1.0</hdop></trkpt>
856    <trkpt lat="58.4108633" lon="15.6237967"><ele>55.30</ele><time>2005-11-27T09:50:49.000Z</time><course>171.0</course><speed>0.1</speed><fix>3d</fix><sat>9</sat><hdop>1.0</hdop></trkpt>
857    <trkpt lat="58.4108600" lon="15.6237967"><ele>53.90</ele><time>2005-11-27T09:50:50.000Z</time><course>178.3</course><speed>0.1</speed><fix>3d</fix><sat>8</sat><hdop>1.1</hdop></trkpt>
858    <trkpt lat="58.4108600" lon="15.6237967"><ele>53.00</ele><time>2005-11-27T09:50:51.000Z</time><course>311.5</course><speed>0.1</speed><fix>3d</fix><sat>8</sat><hdop>1.1</hdop></trkpt>
859    <trkpt lat="58.4108583" lon="15.6237950"><ele>51.70</ele><time>2005-11-27T09:50:52.000Z</time><course>183.0</course><speed>0.2</speed><fix>3d</fix><sat>8</sat><hdop>1.1</hdop></trkpt>
860    <trkpt lat="58.4108550" lon="15.6237983"><ele>51.10</ele><time>2005-11-27T09:50:53.000Z</time><course>55.0</course><speed>0.2</speed><fix>3d</fix><sat>9</sat><hdop>1.0</hdop></trkpt>
861    <trkpt lat="58.4108550" lon="15.6238050"><ele>50.00</ele><time>2005-11-27T09:50:54.000Z</time><course>73.2</course><speed>0.8</speed><fix>3d</fix><sat>9</sat><hdop>1.0</hdop></trkpt>
862    <trkpt lat="58.4108600" lon="15.6238267"><ele>49.50</ele><time>2005-11-27T09:50:55.000Z</time><course>56.3</course><speed>2.1</speed><fix>3d</fix><sat>9</sat><hdop>1.0</hdop></trkpt>
863    <trkpt lat="58.4108650" lon="15.6238633"><ele>48.90</ele><time>2005-11-27T09:50:56.000Z</time><course>63.4</course><speed>2.5</speed><fix>3d</fix><sat>9</sat><hdop>1.0</hdop></trkpt>
864    <trkpt lat="58.4108733" lon="15.6239083"><ele>48.40</ele><time>2005-11-27T09:50:57.000Z</time><course>79.5</course><speed>2.9</speed><fix>3d</fix><sat>9</sat><hdop>1.0</hdop></trkpt>
865    <trkpt lat="58.4108767" lon="15.6239633"><ele>48.50</ele><time>2005-11-27T09:50:58.000Z</time><course>83.8</course><speed>3.1</speed><fix>3d</fix><sat>9</sat><hdop>1.0</hdop></trkpt>
866    <trkpt lat="58.4108817" lon="15.6240183"><ele>48.90</ele><time>2005-11-27T09:50:59.000Z</time><course>89.6</course><speed>2.9</speed><fix>3d</fix><sat>9</sat><hdop>1.0</hdop></trkpt>
867    <trkpt lat="58.4108867" lon="15.6240667"><ele>50.00</ele><time>2005-11-27T09:51:00.000Z</time><course>96.4</course><speed>2.7</speed><fix>3d</fix><sat>9</sat><hdop>1.0</hdop></trkpt>
868    <trkpt lat="58.4108900" lon="15.6241033"><ele>51.20</ele><time>2005-11-27T09:51:01.000Z</time><course>101.1</course><speed>1.9</speed><fix>3d</fix><sat>9</sat><hdop>1.0</hdop></trkpt>
869    <trkpt lat="58.4109033" lon="15.6241317"><ele>51.40</ele><time>2005-11-27T09:51:02.000Z</time><course>66.4</course><speed>1.4</speed><fix>3d</fix><sat>9</sat><hdop>1.0</hdop></trkpt>
870    <trkpt lat="58.4109150" lon="15.6241600"><ele>51.90</ele><time>2005-11-27T09:51:03.000Z</time><course>66.4</course><speed>1.4</speed><fix>3d</fix><sat>9</sat><hdop>1.0</hdop></trkpt>
871    <trkpt lat="58.4109300" lon="15.6241900"><ele>53.20</ele><time>2005-11-27T09:51:04.000Z</time><course>59.4</course><speed>1.9</speed><fix>3d</fix><sat>9</sat><hdop>1.0</hdop></trkpt>
872    <trkpt lat="58.4109417" lon="15.6242317"><ele>54.00</ele><time>2005-11-27T09:51:05.000Z</time><course>69.4</course><speed>2.8</speed><fix>3d</fix><sat>9</sat><hdop>1.0</hdop></trkpt>
873    <trkpt lat="58.4109500" lon="15.6242817"><ele>53.90</ele><time>2005-11-27T09:51:06.000Z</time><course>67.3</course><speed>3.1</speed><fix>3d</fix><sat>9</sat><hdop>1.0</hdop></trkpt>
874    <trkpt lat="58.4109667" lon="15.6243267"><ele>54.00</ele><time>2005-11-27T09:51:07.000Z</time><course>67.3</course><speed>3.1</speed><fix>3d</fix><sat>8</sat><hdop>1.1</hdop></trkpt>
875    <trkpt lat="58.4109933" lon="15.6243733"><ele>55.20</ele><time>2005-11-27T09:51:08.000Z</time><course>35.0</course><speed>4.0</speed><fix>3d</fix><sat>9</sat><hdop>1.0</hdop></trkpt>
876    <trkpt lat="58.4110283" lon="15.6244083"><ele>56.30</ele><time>2005-11-27T09:51:09.000Z</time><course>22.1</course><speed>4.0</speed><fix>3d</fix><sat>9</sat><hdop>1.0</hdop></trkpt>
877    <trkpt lat="58.4110717" lon="15.6244433"><ele>58.40</ele><time>2005-11-27T09:51:10.000Z</time><course>20.0</course><speed>5.4</speed><fix>3d</fix><sat>9</sat><hdop>1.0</hdop></trkpt>
878    <trkpt lat="58.4111183" lon="15.6244833"><ele>61.70</ele><time>2005-11-27T09:51:11.000Z</time><course>16.7</course><speed>4.8</speed><fix>3d</fix><sat>9</sat><hdop>1.0</hdop></trkpt>
879    <trkpt lat="58.4111683" lon="15.6245167"><ele>65.70</ele><time>2005-11-27T09:51:12.000Z</time><course>11.1</course><speed>5.3</speed><fix>3d</fix><sat>9</sat><hdop>1.0</hdop></trkpt>
880    <trkpt lat="58.4112233" lon="15.6245367"><ele>69.80</ele><time>2005-11-27T09:51:13.000Z</time><course>5.3</course><speed>5.6</speed><fix>3d</fix><sat>9</sat><hdop>1.0</hdop></trkpt>
881    <trkpt lat="58.4112933" lon="15.6245300"><ele>72.80</ele><time>2005-11-27T09:51:14.000Z</time><course>1.5</course><speed>6.8</speed><fix>3d</fix><sat>8</sat><hdop>1.1</hdop></trkpt>
882    <trkpt lat="58.4113833" lon="15.6244850"><ele>73.40</ele><time>2005-11-27T09:51:15.000Z</time><course>352.3</course><speed>8.7</speed><fix>3d</fix><sat>8</sat><hdop>1.1</hdop></trkpt>
883    <trkpt lat="58.4114750" lon="15.6244633"><ele>75.10</ele><time>2005-11-27T09:51:16.000Z</time><course>354.2</course><speed>9.2</speed><fix>3d</fix><sat>8</sat><hdop>1.1</hdop></trkpt>
884    <trkpt lat="58.4115533" lon="15.6244533"><ele>76.30</ele><time>2005-11-27T09:51:17.000Z</time><course>355.1</course><speed>8.2</speed><fix>3d</fix><sat>8</sat><hdop>1.1</hdop></trkpt>
885    <trkpt lat="58.4116383" lon="15.6244533"><ele>79.80</ele><time>2005-11-27T09:51:18.000Z</time><course>358.7</course><speed>8.1</speed><fix>3d</fix><sat>8</sat><hdop>1.1</hdop></trkpt>
886    <trkpt lat="58.4117233" lon="15.6244317"><ele>82.40</ele><time>2005-11-27T09:51:19.000Z</time><course>354.1</course><speed>8.5</speed><fix>3d</fix><sat>8</sat><hdop>1.1</hdop></trkpt>
887    <trkpt lat="58.4117967" lon="15.6243867"><ele>82.30</ele><time>2005-11-27T09:51:20.000Z</time><course>348.1</course><speed>8.5</speed><fix>3d</fix><sat>8</sat><hdop>1.1</hdop></trkpt>
888    <trkpt lat="58.4118650" lon="15.6243317"><ele>84.20</ele><time>2005-11-27T09:51:21.000Z</time><course>341.1</course><speed>8.0</speed><fix>3d</fix><sat>8</sat><hdop>1.1</hdop></trkpt>
889    <trkpt lat="58.4119383" lon="15.6242867"><ele>86.20</ele><time>2005-11-27T09:51:22.000Z</time><course>346.0</course><speed>7.9</speed><fix>3d</fix><sat>8</sat><hdop>1.1</hdop></trkpt>
890    <trkpt lat="58.4120233" lon="15.6242633"><ele>87.30</ele><time>2005-11-27T09:51:23.000Z</time><course>355.4</course><speed>8.5</speed><fix>3d</fix><sat>8</sat><hdop>1.1</hdop></trkpt>
891    <trkpt lat="58.4121083" lon="15.6242167"><ele>86.60</ele><time>2005-11-27T09:51:24.000Z</time><course>352.6</course><speed>8.4</speed><fix>3d</fix><sat>8</sat><hdop>1.1</hdop></trkpt>
892    <trkpt lat="58.4121950" lon="15.6241667"><ele>87.30</ele><time>2005-11-27T09:51:25.000Z</time><course>347.3</course><speed>9.2</speed><fix>3d</fix><sat>8</sat><hdop>1.1</hdop></trkpt>
893    <trkpt lat="58.4122867" lon="15.6241033"><ele>88.30</ele><time>2005-11-27T09:51:26.000Z</time><course>344.4</course><speed>9.2</speed><fix>3d</fix><sat>8</sat><hdop>1.1</hdop></trkpt>
894    <trkpt lat="58.4123867" lon="15.6240667"><ele>88.60</ele><time>2005-11-27T09:51:27.000Z</time><course>355.8</course><speed>9.9</speed><fix>3d</fix><sat>7</sat><hdop>1.6</hdop></trkpt>
895    <trkpt lat="58.4124883" lon="15.6240450"><ele>90.50</ele><time>2005-11-27T09:51:28.000Z</time><course>354.5</course><speed>9.5</speed><fix>3d</fix><sat>7</sat><hdop>1.6</hdop></trkpt>
896    <trkpt lat="58.4125950" lon="15.6240317"><ele>93.50</ele><time>2005-11-27T09:51:29.000Z</time><course>357.5</course><speed>9.7</speed><fix>3d</fix><sat>8</sat><hdop>1.1</hdop></trkpt>
897    <trkpt lat="58.4126867" lon="15.6240267"><ele>96.00</ele><time>2005-11-27T09:51:30.000Z</time><course>353.1</course><speed>8.8</speed><fix>3d</fix><sat>8</sat><hdop>1.1</hdop></trkpt>
898    <trkpt lat="58.4127700" lon="15.6240083"><ele>98.30</ele><time>2005-11-27T09:51:31.000Z</time><course>354.4</course><speed>8.6</speed><fix>3d</fix><sat>7</sat><hdop>1.3</hdop></trkpt>
899    <trkpt lat="58.4128517" lon="15.6239700"><ele>99.20</ele><time>2005-11-27T09:51:32.000Z</time><course>352.1</course><speed>8.2</speed><fix>3d</fix><sat>9</sat><hdop>1.0</hdop></trkpt>
900    <trkpt lat="58.4129350" lon="15.6239283"><ele>99.60</ele><time>2005-11-27T09:51:33.000Z</time><course>353.2</course><speed>7.7</speed><fix>3d</fix><sat>9</sat><hdop>1.0</hdop></trkpt>
901    <trkpt lat="58.4130117" lon="15.6238917"><ele>99.40</ele><time>2005-11-27T09:51:34.000Z</time><course>353.6</course><speed>7.0</speed><fix>3d</fix><sat>9</sat><hdop>1.0</hdop></trkpt>
902    <trkpt lat="58.4130783" lon="15.6238567"><ele>98.60</ele><time>2005-11-27T09:51:35.000Z</time><course>352.5</course><speed>6.7</speed><fix>3d</fix><sat>9</sat><hdop>1.0</hdop></trkpt>
903    <trkpt lat="58.4131550" lon="15.6238200"><ele>97.80</ele><time>2005-11-27T09:51:36.000Z</time><course>354.5</course><speed>7.4</speed><fix>3d</fix><sat>9</sat><hdop>1.0</hdop></trkpt>
904    <trkpt lat="58.4132317" lon="15.6237917"><ele>96.80</ele><time>2005-11-27T09:51:37.000Z</time><course>355.4</course><speed>7.4</speed><fix>3d</fix><sat>9</sat><hdop>1.0</hdop></trkpt>
905    <trkpt lat="58.4133000" lon="15.6237583"><ele>94.00</ele><time>2005-11-27T09:51:38.000Z</time><course>352.0</course><speed>7.5</speed><fix>3d</fix><sat>9</sat><hdop>1.0</hdop></trkpt>
906    <trkpt lat="58.4133633" lon="15.6237200"><ele>90.60</ele><time>2005-11-27T09:51:39.000Z</time><course>352.0</course><speed>7.5</speed><fix>3d</fix><sat>9</sat><hdop>1.0</hdop></trkpt>
907    <trkpt lat="58.4134400" lon="15.6236800"><ele>89.30</ele><time>2005-11-27T09:51:40.000Z</time><course>346.9</course><speed>8.4</speed><fix>3d</fix><sat>9</sat><hdop>1.0</hdop></trkpt>
908    <trkpt lat="58.4135183" lon="15.6236383"><ele>87.90</ele><time>2005-11-27T09:51:41.000Z</time><course>352.5</course><speed>8.7</speed><fix>3d</fix><sat>9</sat><hdop>1.0</hdop></trkpt>
909    <trkpt lat="58.4135883" lon="15.6235950"><ele>86.20</ele><time>2005-11-27T09:51:42.000Z</time><course>348.6</course><speed>8.3</speed><fix>3d</fix><sat>8</sat><hdop>1.1</hdop></trkpt>
910    <trkpt lat="58.4136567" lon="15.6235200"><ele>85.00</ele><time>2005-11-27T09:51:43.000Z</time><course>348.6</course><speed>8.3</speed><fix>3d</fix><sat>7</sat><hdop>1.3</hdop></trkpt>
911    <trkpt lat="58.4137483" lon="15.6234317"><ele>84.20</ele><time>2005-11-27T09:51:44.000Z</time><course>337.4</course><speed>9.3</speed><fix>3d</fix><sat>5</sat><hdop>3.1</hdop></trkpt>
912    <trkpt lat="58.4138333" lon="15.6233567"><ele>84.50</ele><time>2005-11-27T09:51:45.000Z</time><course>337.1</course><speed>9.6</speed><fix>3d</fix><sat>6</sat><hdop>2.1</hdop></trkpt>
913    <trkpt lat="58.4139250" lon="15.6232967"><ele>84.30</ele><time>2005-11-27T09:51:46.000Z</time><course>337.1</course><speed>9.6</speed><fix>3d</fix><sat>6</sat><hdop>2.1</hdop></trkpt>
914    <trkpt lat="58.4140250" lon="15.6232517"><ele>85.00</ele><time>2005-11-27T09:51:47.000Z</time><course>350.1</course><speed>10.3</speed><fix>3d</fix><sat>8</sat><hdop>1.1</hdop></trkpt>
915    <trkpt lat="58.4141233" lon="15.6232600"><ele>87.20</ele><time>2005-11-27T09:51:48.000Z</time><course>355.5</course><speed>10.1</speed><fix>3d</fix><sat>8</sat><hdop>1.1</hdop></trkpt>
916    <trkpt lat="58.4142067" lon="15.6232417"><ele>89.70</ele><time>2005-11-27T09:51:49.000Z</time><course>352.4</course><speed>9.9</speed><fix>3d</fix><sat>8</sat><hdop>1.1</hdop></trkpt>
917    <trkpt lat="58.4142900" lon="15.6232333"><ele>91.80</ele><time>2005-11-27T09:51:50.000Z</time><course>351.0</course><speed>9.2</speed><fix>3d</fix><sat>8</sat><hdop>1.1</hdop></trkpt>
918    <trkpt lat="58.4143717" lon="15.6232350"><ele>93.60</ele><time>2005-11-27T09:51:51.000Z</time><course>352.2</course><speed>8.6</speed><fix>3d</fix><sat>8</sat><hdop>1.1</hdop></trkpt>
919    <trkpt lat="58.4144517" lon="15.6232467"><ele>95.50</ele><time>2005-11-27T09:51:52.000Z</time><course>355.8</course><speed>8.3</speed><fix>3d</fix><sat>8</sat><hdop>1.1</hdop></trkpt>
920    <trkpt lat="58.4144750" lon="15.6232667"><ele>95.90</ele><time>2005-11-27T09:51:53.000Z</time><course>355.8</course><speed>8.3</speed><fix>3d</fix><sat>8</sat><hdop>1.1</hdop></trkpt>
921    <trkpt lat="58.4144600" lon="15.6233033"><ele>97.70</ele><time>2005-11-27T09:51:54.000Z</time><course>2.0</course><speed>2.5</speed><fix>3d</fix><sat>8</sat><hdop>1.1</hdop></trkpt>
922    <trkpt lat="58.4144583" lon="15.6233400"><ele>98.70</ele><time>2005-11-27T09:51:55.000Z</time><course>5.6</course><speed>0.8</speed><fix>3d</fix><sat>8</sat><hdop>1.1</hdop></trkpt>
923    <trkpt lat="58.4144617" lon="15.6233800"><ele>100.80</ele><time>2005-11-27T09:51:56.000Z</time><course>14.5</course><speed>0.4</speed><fix>3d</fix><sat>8</sat><hdop>1.1</hdop></trkpt>
924    <trkpt lat="58.4144617" lon="15.6234000"><ele>102.10</ele><time>2005-11-27T09:51:57.000Z</time><course>27.5</course><speed>0.5</speed><fix>3d</fix><sat>8</sat><hdop>1.1</hdop></trkpt>
925    <trkpt lat="58.4144667" lon="15.6234200"><ele>102.90</ele><time>2005-11-27T09:51:58.000Z</time><course>338.6</course><speed>0.7</speed><fix>3d</fix><sat>9</sat><hdop>1.0</hdop></trkpt>
926    <trkpt lat="58.4144700" lon="15.6234333"><ele>103.60</ele><time>2005-11-27T09:51:59.000Z</time><course>66.6</course><speed>0.3</speed><fix>3d</fix><sat>9</sat><hdop>1.0</hdop></trkpt>
927    <trkpt lat="58.4144700" lon="15.6234500"><ele>103.50</ele><time>2005-11-27T09:52:00.000Z</time><course>125.9</course><speed>0.2</speed><fix>3d</fix><sat>9</sat><hdop>1.0</hdop></trkpt>
928    <trkpt lat="58.4144617" lon="15.6234600"><ele>102.20</ele><time>2005-11-27T09:52:01.000Z</time><course>109.2</course><speed>0.4</speed><fix>3d</fix><sat>9</sat><hdop>1.0</hdop></trkpt>
929    <trkpt lat="58.4144550" lon="15.6234700"><ele>100.60</ele><time>2005-11-27T09:52:02.000Z</time><course>73.6</course><speed>0.1</speed><fix>3d</fix><sat>9</sat><hdop>1.0</hdop></trkpt>
930    <trkpt lat="58.4144567" lon="15.6234733"><ele>100.00</ele><time>2005-11-27T09:52:03.000Z</time><course>15.0</course><speed>0.1</speed><fix>3d</fix><sat>8</sat><hdop>1.5</hdop></trkpt>
931    <trkpt lat="58.4144550" lon="15.6234867"><ele>99.00</ele><time>2005-11-27T09:52:04.000Z</time><course>125.0</course><speed>0.7</speed><fix>3d</fix><sat>9</sat><hdop>1.0</hdop></trkpt>
932    <trkpt lat="58.4144567" lon="15.6234933"><ele>98.10</ele><time>2005-11-27T09:52:05.000Z</time><course>52.1</course><speed>0.3</speed><fix>3d</fix><sat>8</sat><hdop>1.1</hdop></trkpt>
933    <trkpt lat="58.4144617" lon="15.6234900"><ele>96.90</ele><time>2005-11-27T09:52:06.000Z</time><course>11.6</course><speed>0.9</speed><fix>3d</fix><sat>8</sat><hdop>1.1</hdop></trkpt>
934    <trkpt lat="58.4144767" lon="15.6234850"><ele>96.70</ele><time>2005-11-27T09:52:07.000Z</time><course>6.9</course><speed>1.5</speed><fix>3d</fix><sat>8</sat><hdop>1.1</hdop></trkpt>
935    <trkpt lat="58.4144983" lon="15.6234733"><ele>95.50</ele><time>2005-11-27T09:52:08.000Z</time><course>354.5</course><speed>2.5</speed><fix>3d</fix><sat>8</sat><hdop>1.1</hdop></trkpt>
936    <trkpt lat="58.4145317" lon="15.6234533"><ele>93.90</ele><time>2005-11-27T09:52:09.000Z</time><course>354.5</course><speed>2.5</speed><fix>3d</fix><sat>8</sat><hdop>1.1</hdop></trkpt>
937    <trkpt lat="58.4145733" lon="15.6234483"><ele>94.50</ele><time>2005-11-27T09:52:10.000Z</time><course>352.5</course><speed>3.6</speed><fix>3d</fix><sat>9</sat><hdop>1.0</hdop></trkpt>
938    <trkpt lat="58.4146017" lon="15.6234367"><ele>93.00</ele><time>2005-11-27T09:52:11.000Z</time><course>357.8</course><speed>3.1</speed><fix>3d</fix><sat>9</sat><hdop>1.0</hdop></trkpt>
939    <trkpt lat="58.4146333" lon="15.6234150"><ele>90.50</ele><time>2005-11-27T09:52:12.000Z</time><course>354.7</course><speed>4.1</speed><fix>3d</fix><sat>9</sat><hdop>1.0</hdop></trkpt>
940    <trkpt lat="58.4146617" lon="15.6233967"><ele>87.50</ele><time>2005-11-27T09:52:13.000Z</time><course>356.4</course><speed>3.6</speed><fix>3d</fix><sat>9</sat><hdop>1.0</hdop></trkpt>
941    <trkpt lat="58.4146983" lon="15.6233933"><ele>86.20</ele><time>2005-11-27T09:52:14.000Z</time><course>12.9</course><speed>4.0</speed><fix>3d</fix><sat>9</sat><hdop>1.0</hdop></trkpt>
942    <trkpt lat="58.4147383" lon="15.6234117"><ele>85.00</ele><time>2005-11-27T09:52:15.000Z</time><course>33.3</course><speed>4.6</speed><fix>3d</fix><sat>9</sat><hdop>1.0</hdop></trkpt>
943    <trkpt lat="58.4147733" lon="15.6234550"><ele>82.80</ele><time>2005-11-27T09:52:16.000Z</time><course>46.2</course><speed>4.9</speed><fix>3d</fix><sat>9</sat><hdop>1.0</hdop></trkpt>
944    <trkpt lat="58.4148167" lon="15.6235083"><ele>79.60</ele><time>2005-11-27T09:52:17.000Z</time><course>47.3</course><speed>6.3</speed><fix>3d</fix><sat>9</sat><hdop>1.0</hdop></trkpt>
945    <trkpt lat="58.4148600" lon="15.6235750"><ele>75.70</ele><time>2005-11-27T09:52:18.000Z</time><course>44.8</course><speed>6.7</speed><fix>3d</fix><sat>9</sat><hdop>1.0</hdop></trkpt>
946    <trkpt lat="58.4149067" lon="15.6236483"><ele>72.00</ele><time>2005-11-27T09:52:19.000Z</time><course>44.7</course><speed>7.7</speed><fix>3d</fix><sat>9</sat><hdop>1.0</hdop></trkpt>
947    <trkpt lat="58.4149617" lon="15.6237400"><ele>68.50</ele><time>2005-11-27T09:52:20.000Z</time><course>46.2</course><speed>8.5</speed><fix>3d</fix><sat>9</sat><hdop>1.0</hdop></trkpt>
948    <trkpt lat="58.4150200" lon="15.6238533"><ele>65.50</ele><time>2005-11-27T09:52:21.000Z</time><course>46.5</course><speed>9.5</speed><fix>3d</fix><sat>9</sat><hdop>1.0</hdop></trkpt>
949    <trkpt lat="58.4150833" lon="15.6239700"><ele>62.30</ele><time>2005-11-27T09:52:22.000Z</time><course>45.1</course><speed>9.6</speed><fix>3d</fix><sat>9</sat><hdop>1.0</hdop></trkpt>
950    <trkpt lat="58.4151517" lon="15.6240917"><ele>59.90</ele><time>2005-11-27T09:52:23.000Z</time><course>47.4</course><speed>9.8</speed><fix>3d</fix><sat>9</sat><hdop>1.0</hdop></trkpt>
951    <trkpt lat="58.4152150" lon="15.6242167"><ele>57.20</ele><time>2005-11-27T09:52:24.000Z</time><course>46.0</course><speed>9.7</speed><fix>3d</fix><sat>9</sat><hdop>1.0</hdop></trkpt>
952    <trkpt lat="58.4152800" lon="15.6243400"><ele>54.90</ele><time>2005-11-27T09:52:25.000Z</time><course>46.3</course><speed>9.9</speed><fix>3d</fix><sat>9</sat><hdop>1.0</hdop></trkpt>
953    <trkpt lat="58.4153467" lon="15.6244683"><ele>53.00</ele><time>2005-11-27T09:52:26.000Z</time><course>46.4</course><speed>10.2</speed><fix>3d</fix><sat>9</sat><hdop>1.0</hdop></trkpt>
954    <trkpt lat="58.4154167" lon="15.6245883"><ele>50.90</ele><time>2005-11-27T09:52:27.000Z</time><course>42.9</course><speed>9.8</speed><fix>3d</fix><sat>9</sat><hdop>1.0</hdop></trkpt>
955    <trkpt lat="58.4154833" lon="15.6247067"><ele>49.30</ele><time>2005-11-27T09:52:28.000Z</time><course>43.2</course><speed>9.8</speed><fix>3d</fix><sat>9</sat><hdop>1.0</hdop></trkpt>
956    <trkpt lat="58.4155500" lon="15.6248217"><ele>48.00</ele><time>2005-11-27T09:52:29.000Z</time><course>43.4</course><speed>9.3</speed><fix>3d</fix><sat>9</sat><hdop>1.0</hdop></trkpt>
957    <trkpt lat="58.4156117" lon="15.6249300"><ele>46.80</ele><time>2005-11-27T09:52:30.000Z</time><course>43.4</course><speed>9.3</speed><fix>3d</fix><sat>9</sat><hdop>1.0</hdop></trkpt>
958    <trkpt lat="58.4156650" lon="15.6250300"><ele>45.80</ele><time>2005-11-27T09:52:31.000Z</time><course>43.1</course><speed>8.5</speed><fix>3d</fix><sat>9</sat><hdop>1.0</hdop></trkpt>
959    <trkpt lat="58.4157067" lon="15.6251117"><ele>44.30</ele><time>2005-11-27T09:52:32.000Z</time><course>43.8</course><speed>6.4</speed><fix>3d</fix><sat>9</sat><hdop>1.0</hdop></trkpt>
960    <trkpt lat="58.4157433" lon="15.6251767"><ele>43.30</ele><time>2005-11-27T09:52:33.000Z</time><course>38.5</course><speed>5.5</speed><fix>3d</fix><sat>9</sat><hdop>1.0</hdop></trkpt>
961    <trkpt lat="58.4157817" lon="15.6252283"><ele>42.50</ele><time>2005-11-27T09:52:34.000Z</time><course>34.6</course><speed>4.9</speed><fix>3d</fix><sat>9</sat><hdop>1.0</hdop></trkpt>
962    <trkpt lat="58.4158150" lon="15.6252700"><ele>41.50</ele><time>2005-11-27T09:52:35.000Z</time><course>34.6</course><speed>4.9</speed><fix>3d</fix><sat>9</sat><hdop>1.0</hdop></trkpt>
963    <trkpt lat="58.4158500" lon="15.6252983"><ele>40.50</ele><time>2005-11-27T09:52:36.000Z</time><course>16.2</course><speed>4.5</speed><fix>3d</fix><sat>9</sat><hdop>1.0</hdop></trkpt>
964    <trkpt lat="58.4158917" lon="15.6253100"><ele>39.80</ele><time>2005-11-27T09:52:37.000Z</time><course>2.0</course><speed>4.7</speed><fix>3d</fix><sat>9</sat><hdop>1.0</hdop></trkpt>
965    <trkpt lat="58.4159317" lon="15.6252983"><ele>38.80</ele><time>2005-11-27T09:52:38.000Z</time><course>347.8</course><speed>4.6</speed><fix>3d</fix><sat>9</sat><hdop>1.0</hdop></trkpt>
966    <trkpt lat="58.4159733" lon="15.6252617"><ele>38.00</ele><time>2005-11-27T09:52:39.000Z</time><course>331.2</course><speed>5.4</speed><fix>3d</fix><sat>9</sat><hdop>1.0</hdop></trkpt>
967    <trkpt lat="58.4160133" lon="15.6252033"><ele>37.30</ele><time>2005-11-27T09:52:40.000Z</time><course>321.7</course><speed>6.2</speed><fix>3d</fix><sat>9</sat><hdop>1.0</hdop></trkpt>
968    <trkpt lat="58.4160567" lon="15.6251267"><ele>36.60</ele><time>2005-11-27T09:52:41.000Z</time><course>316.2</course><speed>6.6</speed><fix>3d</fix><sat>9</sat><hdop>1.0</hdop></trkpt>
969    <trkpt lat="58.4160983" lon="15.6250400"><ele>36.00</ele><time>2005-11-27T09:52:42.000Z</time><course>314.7</course><speed>6.8</speed><fix>3d</fix><sat>8</sat><hdop>1.5</hdop></trkpt>
970    <trkpt lat="58.4161383" lon="15.6249533"><ele>35.20</ele><time>2005-11-27T09:52:43.000Z</time><course>314.0</course><speed>6.7</speed><fix>3d</fix><sat>9</sat><hdop>1.0</hdop></trkpt>
971    <trkpt lat="58.4161817" lon="15.6248700"><ele>34.80</ele><time>2005-11-27T09:52:44.000Z</time><course>316.7</course><speed>6.5</speed><fix>3d</fix><sat>9</sat><hdop>1.0</hdop></trkpt>
972    <trkpt lat="58.4162200" lon="15.6248000"><ele>33.90</ele><time>2005-11-27T09:52:45.000Z</time><course>322.9</course><speed>5.9</speed><fix>3d</fix><sat>9</sat><hdop>1.0</hdop></trkpt>
973    <trkpt lat="58.4162633" lon="15.6247500"><ele>33.40</ele><time>2005-11-27T09:52:46.000Z</time><course>334.9</course><speed>5.7</speed><fix>3d</fix><sat>9</sat><hdop>1.0</hdop></trkpt>
974    <trkpt lat="58.4163150" lon="15.6247200"><ele>33.00</ele><time>2005-11-27T09:52:47.000Z</time><course>350.4</course><speed>6.3</speed><fix>3d</fix><sat>9</sat><hdop>1.0</hdop></trkpt>
975    <trkpt lat="58.4163700" lon="15.6247133"><ele>32.40</ele><time>2005-11-27T09:52:48.000Z</time><course>3.4</course><speed>6.0</speed><fix>3d</fix><sat>9</sat><hdop>1.0</hdop></trkpt>
976    <trkpt lat="58.4164233" lon="15.6247250"><ele>32.00</ele><time>2005-11-27T09:52:49.000Z</time><course>10.2</course><speed>6.0</speed><fix>3d</fix><sat>9</sat><hdop>1.0</hdop></trkpt>
977    <trkpt lat="58.4164750" lon="15.6247433"><ele>31.90</ele><time>2005-11-27T09:52:50.000Z</time><course>10.4</course><speed>5.9</speed><fix>3d</fix><sat>8</sat><hdop>1.1</hdop></trkpt>
978    <trkpt lat="58.4165267" lon="15.6247583"><ele>31.90</ele><time>2005-11-27T09:52:51.000Z</time><course>10.4</course><speed>5.9</speed><fix>3d</fix><sat>9</sat><hdop>1.0</hdop></trkpt>
979    <trkpt lat="58.4165783" lon="15.6247633"><ele>32.40</ele><time>2005-11-27T09:52:52.000Z</time><course>358.2</course><speed>5.3</speed><fix>3d</fix><sat>9</sat><hdop>1.0</hdop></trkpt>
980    <trkpt lat="58.4166283" lon="15.6247483"><ele>32.40</ele><time>2005-11-27T09:52:53.000Z</time><course>344.9</course><speed>5.6</speed><fix>3d</fix><sat>9</sat><hdop>1.0</hdop></trkpt>
981    <trkpt lat="58.4166767" lon="15.6247083"><ele>32.20</ele><time>2005-11-27T09:52:54.000Z</time><course>332.4</course><speed>6.1</speed><fix>3d</fix><sat>9</sat><hdop>1.0</hdop></trkpt>
982    <trkpt lat="58.4167283" lon="15.6246450"><ele>32.50</ele><time>2005-11-27T09:52:55.000Z</time><course>325.1</course><speed>7.0</speed><fix>3d</fix><sat>9</sat><hdop>1.0</hdop></trkpt>
983    <trkpt lat="58.4167817" lon="15.6245700"><ele>33.20</ele><time>2005-11-27T09:52:56.000Z</time><course>321.6</course><speed>7.6</speed><fix>3d</fix><sat>9</sat><hdop>1.0</hdop></trkpt>
984    <trkpt lat="58.4168350" lon="15.6244850"><ele>33.50</ele><time>2005-11-27T09:52:57.000Z</time><course>319.8</course><speed>7.8</speed><fix>3d</fix><sat>9</sat><hdop>1.0</hdop></trkpt>
985    <trkpt lat="58.4168883" lon="15.6243950"><ele>33.80</ele><time>2005-11-27T09:52:58.000Z</time><course>318.4</course><speed>7.9</speed><fix>3d</fix><sat>9</sat><hdop>1.0</hdop></trkpt>
986    <trkpt lat="58.4169417" lon="15.6243017"><ele>33.50</ele><time>2005-11-27T09:52:59.000Z</time><course>318.2</course><speed>7.9</speed><fix>3d</fix><sat>9</sat><hdop>1.0</hdop></trkpt>
987    <trkpt lat="58.4169917" lon="15.6242083"><ele>33.40</ele><time>2005-11-27T09:53:00.000Z</time><course>317.8</course><speed>7.7</speed><fix>3d</fix><sat>9</sat><hdop>1.0</hdop></trkpt>
988    <trkpt lat="58.4170383" lon="15.6241217"><ele>33.60</ele><time>2005-11-27T09:53:01.000Z</time><course>316.8</course><speed>7.2</speed><fix>3d</fix><sat>9</sat><hdop>1.0</hdop></trkpt>
989    <trkpt lat="58.4170817" lon="15.6240367"><ele>33.80</ele><time>2005-11-27T09:53:02.000Z</time><course>317.4</course><speed>6.9</speed><fix>3d</fix><sat>9</sat><hdop>1.0</hdop></trkpt>
990    <trkpt lat="58.4171250" lon="15.6239550"><ele>33.90</ele><time>2005-11-27T09:53:03.000Z</time><course>317.8</course><speed>6.7</speed><fix>3d</fix><sat>9</sat><hdop>1.0</hdop></trkpt>
991    <trkpt lat="58.4171650" lon="15.6238767"><ele>32.70</ele><time>2005-11-27T09:53:04.000Z</time><course>316.6</course><speed>5.8</speed><fix>3d</fix><sat>9</sat><hdop>1.0</hdop></trkpt>
992    <trkpt lat="58.4171983" lon="15.6238067"><ele>31.60</ele><time>2005-11-27T09:53:05.000Z</time><course>319.8</course><speed>5.5</speed><fix>3d</fix><sat>9</sat><hdop>1.0</hdop></trkpt>
993    <trkpt lat="58.4172317" lon="15.6237450"><ele>30.60</ele><time>2005-11-27T09:53:06.000Z</time><course>322.5</course><speed>4.9</speed><fix>3d</fix><sat>9</sat><hdop>1.0</hdop></trkpt>
994    <trkpt lat="58.4172600" lon="15.6236917"><ele>30.00</ele><time>2005-11-27T09:53:07.000Z</time><course>321.3</course><speed>4.1</speed><fix>3d</fix><sat>9</sat><hdop>1.0</hdop></trkpt>
995    <trkpt lat="58.4172817" lon="15.6236533"><ele>30.30</ele><time>2005-11-27T09:53:08.000Z</time><course>325.6</course><speed>3.1</speed><fix>3d</fix><sat>9</sat><hdop>1.0</hdop></trkpt>
996    <trkpt lat="58.4172983" lon="15.6236317"><ele>30.60</ele><time>2005-11-27T09:53:09.000Z</time><course>333.6</course><speed>1.8</speed><fix>3d</fix><sat>9</sat><hdop>1.0</hdop></trkpt>
997    <trkpt lat="58.4173067" lon="15.6236233"><ele>31.70</ele><time>2005-11-27T09:53:10.000Z</time><course>300.7</course><speed>0.6</speed><fix>3d</fix><sat>9</sat><hdop>1.0</hdop></trkpt>
998    <trkpt lat="58.4173100" lon="15.6236233"><ele>32.50</ele><time>2005-11-27T09:53:11.000Z</time><course>252.0</course><speed>0.2</speed><fix>3d</fix><sat>9</sat><hdop>1.0</hdop></trkpt>
999    <trkpt lat="58.4173133" lon="15.6236300"><ele>32.80</ele><time>2005-11-27T09:53:12.000Z</time><course>101.9</course><speed>0.2</speed><fix>3d</fix><sat>9</sat><hdop>1.0</hdop></trkpt>
1000    <trkpt lat="58.4173217" lon="15.6236417"><ele>33.80</ele><time>2005-11-27T09:53:13.000Z</time><course>46.1</course><speed>0.7</speed><fix>3d</fix><sat>9</sat><hdop>1.0</hdop></trkpt>
1001    <trkpt lat="58.4173250" lon="15.6236467"><ele>33.90</ele><time>2005-11-27T09:53:14.000Z</time><course>17.7</course><speed>0.2</speed><fix>3d</fix><sat>9</sat><hdop>1.0</hdop></trkpt>
1002    <trkpt lat="58.4173300" lon="15.6236550"><ele>34.90</ele><time>2005-11-27T09:53:15.000Z</time><course>32.7</course><speed>0.3</speed><fix>3d</fix><sat>9</sat><hdop>1.0</hdop></trkpt>
1003    <trkpt lat="58.4173383" lon="15.6236633"><ele>36.00</ele><time>2005-11-27T09:53:16.000Z</time><course>30.9</course><speed>1.1</speed><fix>3d</fix><sat>9</sat><hdop>1.0</hdop></trkpt>
1004    <trkpt lat="58.4173467" lon="15.6236667"><ele>36.70</ele><time>2005-11-27T09:53:17.000Z</time><course>359.4</course><speed>0.5</speed><fix>3d</fix><sat>9</sat><hdop>1.0</hdop></trkpt>
1005    <trkpt lat="58.4173500" lon="15.6236633"><ele>36.20</ele><time>2005-11-27T09:53:18.000Z</time><course>14.7</course><speed>0.2</speed><fix>3d</fix><sat>9</sat><hdop>1.0</hdop></trkpt>
1006    <trkpt lat="58.4173517" lon="15.6236633"><ele>36.10</ele><time>2005-11-27T09:53:19.000Z</time><course>307.8</course><speed>0.2</speed><fix>3d</fix><sat>9</sat><hdop>1.0</hdop></trkpt>
1007    <trkpt lat="58.4173583" lon="15.6236667"><ele>37.30</ele><time>2005-11-27T09:53:20.000Z</time><course>31.2</course><speed>0.1</speed><fix>3d</fix><sat>9</sat><hdop>1.0</hdop></trkpt>
1008    <trkpt lat="58.4173650" lon="15.6236683"><ele>38.10</ele><time>2005-11-27T09:53:21.000Z</time><course>342.7</course><speed>0.3</speed><fix>3d</fix><sat>9</sat><hdop>1.0</hdop></trkpt>
1009    <trkpt lat="58.4173683" lon="15.6236767"><ele>38.80</ele><time>2005-11-27T09:53:22.000Z</time><course>139.5</course><speed>0.1</speed><fix>3d</fix><sat>9</sat><hdop>1.0</hdop></trkpt>
1010    <trkpt lat="58.4173700" lon="15.6236850"><ele>39.30</ele><time>2005-11-27T09:53:23.000Z</time><course>8.4</course><speed>0.2</speed><fix>3d</fix><sat>9</sat><hdop>1.0</hdop></trkpt>
1011    <trkpt lat="58.4173750" lon="15.6236900"><ele>40.30</ele><time>2005-11-27T09:53:24.000Z</time><course>32.0</course><speed>0.1</speed><fix>3d</fix><sat>9</sat><hdop>1.0</hdop></trkpt>
1012    <trkpt lat="58.4173800" lon="15.6236950"><ele>40.70</ele><time>2005-11-27T09:53:25.000Z</time><course>16.2</course><speed>0.1</speed><fix>3d</fix><sat>9</sat><hdop>1.0</hdop></trkpt>
1013    <trkpt lat="58.4173817" lon="15.6236950"><ele>39.70</ele><time>2005-11-27T09:53:26.000Z</time><course>48.7</course><speed>0.1</speed><fix>3d</fix><sat>9</sat><hdop>1.0</hdop></trkpt>
1014    <trkpt lat="58.4173833" lon="15.6236933"><ele>38.20</ele><time>2005-11-27T09:53:27.000Z</time><course>102.0</course><speed>0.1</speed><fix>3d</fix><sat>9</sat><hdop>1.0</hdop></trkpt>
1015    <trkpt lat="58.4173817" lon="15.6236917"><ele>36.40</ele><time>2005-11-27T09:53:28.000Z</time><course>12.2</course><speed>0</speed><fix>3d</fix><sat>9</sat><hdop>1.0</hdop></trkpt>
1016    <trkpt lat="58.4173833" lon="15.6236900"><ele>35.00</ele><time>2005-11-27T09:53:29.000Z</time><course>12.2</course><speed>0</speed><fix>3d</fix><sat>9</sat><hdop>1.0</hdop></trkpt>
1017    <trkpt lat="58.4173850" lon="15.6236883"><ele>33.80</ele><time>2005-11-27T09:53:30.000Z</time><course>335.3</course><speed>0.2</speed><fix>3d</fix><sat>9</sat><hdop>1.0</hdop></trkpt>
1018    <trkpt lat="58.4173850" lon="15.6236867"><ele>32.20</ele><time>2005-11-27T09:53:31.000Z</time><course>335.3</course><speed>0.2</speed><fix>3d</fix><sat>9</sat><hdop>1.0</hdop></trkpt>
1019    <trkpt lat="58.4173833" lon="15.6236850"><ele>30.70</ele><time>2005-11-27T09:53:32.000Z</time><course>320.1</course><speed>0.1</speed><fix>3d</fix><sat>9</sat><hdop>1.0</hdop></trkpt>
1020    <trkpt lat="58.4173817" lon="15.6236850"><ele>29.30</ele><time>2005-11-27T09:53:33.000Z</time><course>205.6</course><speed>0.1</speed><fix>3d</fix><sat>9</sat><hdop>1.0</hdop></trkpt>
1021  </trkseg>
1022</trk>
1023</gpx>
Note: See TracBrowser for help on using the repository browser.